<?xml version='1.0' encoding='UTF-8'?><gpx version="1.1" creator="JPX - https://github.com/jenetics/jpx" xmlns="http://www.topografix.com/GPX/1/1"><trk><trkseg><trkpt lat="45.61680472214822" lon="2.384343147265263"><ele>855.0</ele><time>2026-03-29T13:26:38.001Z</time></trkpt><trkpt lat="45.61675324534992" lon="2.384282916402091"><ele>855.0</ele><time>2026-03-29T13:27:01Z</time></trkpt><trkpt lat="45.616760237089565" lon="2.384374948616494"><ele>855.0</ele><time>2026-03-29T13:27:04Z</time></trkpt><trkpt lat="45.61679199040902" lon="2.3844646152237603"><ele>855.0</ele><time>2026-03-29T13:27:07Z</time></trkpt><trkpt lat="45.6168521733543" lon="2.384496193847607"><ele>855.0</ele><time>2026-03-29T13:27:10Z</time></trkpt><trkpt lat="45.6169364782139" lon="2.3844690574975393"><ele>855.0</ele><time>2026-03-29T13:27:13Z</time></trkpt><trkpt lat="45.61700510508425" lon="2.3844127147232683"><ele>855.0</ele><time>2026-03-29T13:27:16Z</time></trkpt><trkpt lat="45.617084278093955" lon="2.38439329359547"><ele>855.5714285714286</ele><time>2026-03-29T13:27:19.999Z</time></trkpt><trkpt lat="45.617157212001366" lon="2.38434735835187"><ele>856.1428571428571</ele><time>2026-03-29T13:27:23.999Z</time></trkpt><trkpt lat="45.61723285708898" lon="2.3843101519231724"><ele>856.7142857142857</ele><time>2026-03-29T13:27:27.999Z</time></trkpt><trkpt lat="45.61729619212504" lon="2.3842791448657117"><ele>857.2857142857142</ele><time>2026-03-29T13:27:32.999Z</time></trkpt><trkpt lat="45.617320128151036" lon="2.3841888307240033"><ele>857.8571428571429</ele><time>2026-03-29T13:27:36.999Z</time></trkpt><trkpt lat="45.61728496098009" lon="2.384094705841964"><ele>858.4285714285713</ele><time>2026-03-29T13:27:39.999Z</time></trkpt><trkpt lat="45.61724482087649" lon="2.3840154095691015"><ele>859.0</ele><time>2026-03-29T13:27:42.999Z</time></trkpt><trkpt lat="45.61719753853207" lon="2.3839224757640327"><ele>858.4999999999999</ele><time>2026-03-29T13:27:46.999Z</time></trkpt><trkpt lat="45.61714983564947" lon="2.383831610830865"><ele>858.0</ele><time>2026-03-29T13:27:49.999Z</time></trkpt><trkpt lat="45.61710925668821" lon="2.3837444192310033"><ele>857.5</ele><time>2026-03-29T13:27:52.999Z</time></trkpt><trkpt lat="45.61706896969016" lon="2.383643429129648"><ele>857.0</ele><time>2026-03-29T13:27:55.999Z</time></trkpt><trkpt lat="45.61702612823001" lon="2.3835310035315467"><ele>856.4999999999999</ele><time>2026-03-29T13:27:58.999Z</time></trkpt><trkpt lat="45.616993439211" lon="2.383452736936842"><ele>856.0</ele><time>2026-03-29T13:28:00.999Z</time></trkpt><trkpt lat="45.616947774791896" lon="2.3833410846787553"><ele>854.9999999999999</ele><time>2026-03-29T13:28:03.999Z</time></trkpt><trkpt lat="45.6169089453415" lon="2.3832450978593145"><ele>854.0</ele><time>2026-03-29T13:28:06.999Z</time></trkpt><trkpt lat="45.61686652658491" lon="2.3831379329639395"><ele>853.0</ele><time>2026-03-29T13:28:09.999Z</time></trkpt><trkpt lat="45.61683109071301" lon="2.383025899186875"><ele>852.0</ele><time>2026-03-29T13:28:12.999Z</time></trkpt><trkpt lat="45.61679405166172" lon="2.3829122161384517"><ele>850.9999999999999</ele><time>2026-03-29T13:28:15.999Z</time></trkpt><trkpt lat="45.616765175452265" lon="2.3827919730115865"><ele>850.0</ele><time>2026-03-29T13:28:19Z</time></trkpt><trkpt lat="45.61673356115345" lon="2.382677582237541"><ele>849.9999999999999</ele><time>2026-03-29T13:28:22Z</time></trkpt><trkpt lat="45.616696985939406" lon="2.3825747267858466"><ele>850.0</ele><time>2026-03-29T13:28:25Z</time></trkpt><trkpt lat="45.61665531638254" lon="2.3824760978440724"><ele>850.0</ele><time>2026-03-29T13:28:28Z</time></trkpt><trkpt lat="45.61658337544431" lon="2.3823937613029593"><ele>850.0</ele><time>2026-03-29T13:28:31Z</time></trkpt><trkpt lat="45.61652784858041" lon="2.3823443231693697"><ele>849.9999999999999</ele><time>2026-03-29T13:28:33Z</time></trkpt><trkpt lat="45.61646439482278" lon="2.3822904508154132"><ele>850.0</ele><time>2026-03-29T13:28:35Z</time></trkpt><trkpt lat="45.61639517543039" lon="2.3822389620052666"><ele>849.0</ele><time>2026-03-29T13:28:37Z</time></trkpt><trkpt lat="45.61632777729234" lon="2.3821804273517535"><ele>848.0</ele><time>2026-03-29T13:28:39Z</time></trkpt><trkpt lat="45.61627327505126" lon="2.3821261988447966"><ele>847.0</ele><time>2026-03-29T13:28:41Z</time></trkpt><trkpt lat="45.61621878093914" lon="2.382058772559559"><ele>846.0</ele><time>2026-03-29T13:28:44Z</time></trkpt><trkpt lat="45.61620861293356" lon="2.381953420190665"><ele>845.0</ele><time>2026-03-29T13:28:47Z</time></trkpt><trkpt lat="45.616249561791186" lon="2.381869699925545"><ele>844.0</ele><time>2026-03-29T13:28:49Z</time></trkpt><trkpt lat="45.616303355971056" lon="2.3818112765293815"><ele>843.0</ele><time>2026-03-29T13:28:51Z</time></trkpt><trkpt lat="45.61637332279631" lon="2.381722813258424"><ele>843.0</ele><time>2026-03-29T13:28:54Z</time></trkpt><trkpt lat="45.61643765988938" lon="2.3816215550592026"><ele>843.0</ele><time>2026-03-29T13:28:57Z</time></trkpt><trkpt lat="45.616487278251874" lon="2.381512023098194"><ele>843.0</ele><time>2026-03-29T13:29:00Z</time></trkpt><trkpt lat="45.616534610757526" lon="2.3814046494518624"><ele>843.0</ele><time>2026-03-29T13:29:03Z</time></trkpt><trkpt lat="45.6165732155426" lon="2.3813214209391207"><ele>843.0</ele><time>2026-03-29T13:29:05Z</time></trkpt><trkpt lat="45.616610301538415" lon="2.3812299537190573"><ele>843.0</ele><time>2026-03-29T13:29:07Z</time></trkpt><trkpt lat="45.61664535753749" lon="2.3811407864498477"><ele>842.1666666666666</ele><time>2026-03-29T13:29:09Z</time></trkpt><trkpt lat="45.616686217662334" lon="2.38104770389165"><ele>841.3333333333333</ele><time>2026-03-29T13:29:11Z</time></trkpt><trkpt lat="45.61672952202825" lon="2.3809619068025594"><ele>840.5</ele><time>2026-03-29T13:29:13Z</time></trkpt><trkpt lat="45.616766025041024" lon="2.3808617637373346"><ele>839.6666666666666</ele><time>2026-03-29T13:29:15Z</time></trkpt><trkpt lat="45.6168070001618" lon="2.380779855895402"><ele>838.8333333333333</ele><time>2026-03-29T13:29:17Z</time></trkpt><trkpt lat="45.61684399220234" lon="2.380685328935436"><ele>838.0</ele><time>2026-03-29T13:29:19Z</time></trkpt><trkpt lat="45.61687961784456" lon="2.380588577984804"><ele>837.6666666666666</ele><time>2026-03-29T13:29:21Z</time></trkpt><trkpt lat="45.61691246475163" lon="2.380499749258127"><ele>837.3333333333333</ele><time>2026-03-29T13:29:23Z</time></trkpt><trkpt lat="45.616947118602184" lon="2.380395074153854"><ele>837.0</ele><time>2026-03-29T13:29:26Z</time></trkpt><trkpt lat="45.61699121860459" lon="2.3802696591867143"><ele>836.6666666666667</ele><time>2026-03-29T13:29:29Z</time></trkpt><trkpt lat="45.61703211866544" lon="2.3801731728390862"><ele>836.3333333333334</ele><time>2026-03-29T13:29:31Z</time></trkpt><trkpt lat="45.617073342706945" lon="2.3800865768277655"><ele>836.0</ele><time>2026-03-29T13:29:33Z</time></trkpt><trkpt lat="45.61710844130169" lon="2.3800044055468748"><ele>836.7142857142857</ele><time>2026-03-29T13:29:35Z</time></trkpt><trkpt lat="45.61714718309438" lon="2.3799275693382405"><ele>837.4285714285713</ele><time>2026-03-29T13:29:37Z</time></trkpt><trkpt lat="45.61717796853233" lon="2.3798442623296223"><ele>838.1428571428571</ele><time>2026-03-29T13:29:39Z</time></trkpt><trkpt lat="45.617226005168746" lon="2.3797277487530426"><ele>838.8571428571429</ele><time>2026-03-29T13:29:42Z</time></trkpt><trkpt lat="45.61726620139621" lon="2.3796165593728555"><ele>839.5714285714286</ele><time>2026-03-29T13:29:45Z</time></trkpt><trkpt lat="45.617297642797205" lon="2.379535911084984"><ele>840.2857142857143</ele><time>2026-03-29T13:29:47Z</time></trkpt><trkpt lat="45.617330127374395" lon="2.3794543184545507"><ele>841.0</ele><time>2026-03-29T13:29:49Z</time></trkpt><trkpt lat="45.61736675524693" lon="2.379361218612833"><ele>841.6666666666666</ele><time>2026-03-29T13:29:50.999Z</time></trkpt><trkpt lat="45.61740728820268" lon="2.3792775978158622"><ele>842.3333333333333</ele><time>2026-03-29T13:29:52.999Z</time></trkpt><trkpt lat="45.617442246890285" lon="2.379201176120821"><ele>843.0</ele><time>2026-03-29T13:29:54.999Z</time></trkpt><trkpt lat="45.617497645458236" lon="2.3791009439878272"><ele>843.6666666666667</ele><time>2026-03-29T13:29:57.999Z</time></trkpt><trkpt lat="45.61755837194592" lon="2.3790037196859584"><ele>844.3333333333334</ele><time>2026-03-29T13:30:00.999Z</time></trkpt><trkpt lat="45.617615685410755" lon="2.378900405608641"><ele>845.0</ele><time>2026-03-29T13:30:03.999Z</time></trkpt><trkpt lat="45.61766669833513" lon="2.3788194225689736"><ele>845.5714285714286</ele><time>2026-03-29T13:30:07.999Z</time></trkpt><trkpt lat="45.617706421276665" lon="2.3787470659805567"><ele>846.1428571428571</ele><time>2026-03-29T13:30:10.999Z</time></trkpt><trkpt lat="45.61775680709795" lon="2.3786554570161176"><ele>846.7142857142858</ele><time>2026-03-29T13:30:14.999Z</time></trkpt><trkpt lat="45.61779565945876" lon="2.3785825280477644"><ele>847.2857142857142</ele><time>2026-03-29T13:30:17.999Z</time></trkpt><trkpt lat="45.617834501261676" lon="2.3785084487915014"><ele>847.8571428571429</ele><time>2026-03-29T13:30:20.999Z</time></trkpt><trkpt lat="45.61787550757729" lon="2.378431446825845"><ele>848.4285714285714</ele><time>2026-03-29T13:30:23Z</time></trkpt><trkpt lat="45.61792503479685" lon="2.3783568267817548"><ele>849.0</ele><time>2026-03-29T13:30:26Z</time></trkpt><trkpt lat="45.61796678816549" lon="2.378269353448396"><ele>850.1666666666666</ele><time>2026-03-29T13:30:29Z</time></trkpt><trkpt lat="45.61801926277674" lon="2.3781693214299082"><ele>851.3333333333333</ele><time>2026-03-29T13:30:32Z</time></trkpt><trkpt lat="45.61806668217819" lon="2.37807949765617"><ele>852.5</ele><time>2026-03-29T13:30:35Z</time></trkpt><trkpt lat="45.61811019645382" lon="2.3779992581803087"><ele>853.6666666666666</ele><time>2026-03-29T13:30:38Z</time></trkpt><trkpt lat="45.618147480043554" lon="2.37792666530946"><ele>854.8333333333333</ele><time>2026-03-29T13:30:41Z</time></trkpt><trkpt lat="45.61819409506254" lon="2.3778354285670806"><ele>856.0</ele><time>2026-03-29T13:30:45Z</time></trkpt><trkpt lat="45.618237426368694" lon="2.3777420030443293"><ele>856.1666666666666</ele><time>2026-03-29T13:30:49Z</time></trkpt><trkpt lat="45.618291995183924" lon="2.3776537862047062"><ele>856.3333333333333</ele><time>2026-03-29T13:30:53Z</time></trkpt><trkpt lat="45.61833458385108" lon="2.3775682772580127"><ele>856.5</ele><time>2026-03-29T13:30:57Z</time></trkpt><trkpt lat="45.618389561617505" lon="2.377493741040111"><ele>856.6666666666667</ele><time>2026-03-29T13:31:01Z</time></trkpt><trkpt lat="45.61844246225277" lon="2.3774281390227063"><ele>856.8333333333334</ele><time>2026-03-29T13:31:05Z</time></trkpt><trkpt lat="45.6184962221896" lon="2.377363196507472"><ele>857.0</ele><time>2026-03-29T13:31:09Z</time></trkpt><trkpt lat="45.61856191117004" lon="2.3772899833587307"><ele>857.0</ele><time>2026-03-29T13:31:13Z</time></trkpt><trkpt lat="45.618625064625526" lon="2.3772218684087156"><ele>857.0</ele><time>2026-03-29T13:31:17Z</time></trkpt><trkpt lat="45.61868960714018" lon="2.3771566265235"><ele>857.0</ele><time>2026-03-29T13:31:21Z</time></trkpt><trkpt lat="45.618762040956575" lon="2.3771014767894045"><ele>857.0</ele><time>2026-03-29T13:31:25Z</time></trkpt><trkpt lat="45.61882624659457" lon="2.377061191147357"><ele>857.0</ele><time>2026-03-29T13:31:28Z</time></trkpt><trkpt lat="45.618888847761305" lon="2.377024754132068"><ele>857.0</ele><time>2026-03-29T13:31:31Z</time></trkpt><trkpt lat="45.61894940760697" lon="2.376996984954722"><ele>857.0</ele><time>2026-03-29T13:31:34Z</time></trkpt><trkpt lat="45.619023073909084" lon="2.376988304869506"><ele>857.0</ele><time>2026-03-29T13:31:38Z</time></trkpt><trkpt lat="45.61908838284076" lon="2.376974004818297"><ele>857.0</ele><time>2026-03-29T13:31:42Z</time></trkpt><trkpt lat="45.619159964183275" lon="2.376970954354516"><ele>857.0</ele><time>2026-03-29T13:31:46Z</time></trkpt><trkpt lat="45.61922972889039" lon="2.376946616750936"><ele>857.0</ele><time>2026-03-29T13:31:50Z</time></trkpt><trkpt lat="45.61929380581798" lon="2.376950061835425"><ele>857.0</ele><time>2026-03-29T13:31:53.999Z</time></trkpt><trkpt lat="45.61936346393461" lon="2.3769534457097827"><ele>857.0</ele><time>2026-03-29T13:31:57.999Z</time></trkpt><trkpt lat="45.61943457341109" lon="2.376936752366098"><ele>857.0</ele><time>2026-03-29T13:32:01.999Z</time></trkpt><trkpt lat="45.61951009980466" lon="2.3769503447213345"><ele>857.0</ele><time>2026-03-29T13:32:04.999Z</time></trkpt><trkpt lat="45.61957363193419" lon="2.3769816658390437"><ele>857.0</ele><time>2026-03-29T13:32:07.999Z</time></trkpt><trkpt lat="45.619654083932474" lon="2.3770009844299396"><ele>857.0</ele><time>2026-03-29T13:32:11.999Z</time></trkpt><trkpt lat="45.6197289568888" lon="2.3770252118607536"><ele>857.0</ele><time>2026-03-29T13:32:15.999Z</time></trkpt><trkpt lat="45.61979830784065" lon="2.3770539239202217"><ele>857.0</ele><time>2026-03-29T13:32:19.999Z</time></trkpt><trkpt lat="45.619859741379344" lon="2.377082403957707"><ele>857.0</ele><time>2026-03-29T13:32:23.999Z</time></trkpt><trkpt lat="45.6199252642826" lon="2.377101584890945"><ele>857.0</ele><time>2026-03-29T13:32:27.999Z</time></trkpt><trkpt lat="45.619994021388436" lon="2.3771203861224786"><ele>857.0</ele><time>2026-03-29T13:32:32Z</time></trkpt><trkpt lat="45.62006442151446" lon="2.377141814028503"><ele>857.0</ele><time>2026-03-29T13:32:37Z</time></trkpt><trkpt lat="45.62013661163146" lon="2.3771646462886413"><ele>857.0</ele><time>2026-03-29T13:32:42Z</time></trkpt><trkpt lat="45.620196722859326" lon="2.3771968092703406"><ele>857.0</ele><time>2026-03-29T13:32:46Z</time></trkpt><trkpt lat="45.62026307629666" lon="2.377217274226495"><ele>857.0</ele><time>2026-03-29T13:32:50Z</time></trkpt><trkpt lat="45.620325690364616" lon="2.3772404934069553"><ele>857.0</ele><time>2026-03-29T13:32:54Z</time></trkpt><trkpt lat="45.620392854798084" lon="2.3772594703843226"><ele>857.0</ele><time>2026-03-29T13:32:58Z</time></trkpt><trkpt lat="45.620454114216656" lon="2.3772818201103507"><ele>857.5714285714286</ele><time>2026-03-29T13:33:02Z</time></trkpt><trkpt lat="45.62053334415628" lon="2.377299938161222"><ele>858.1428571428571</ele><time>2026-03-29T13:33:07Z</time></trkpt><trkpt lat="45.62060779427957" lon="2.3773252641835287"><ele>858.7142857142858</ele><time>2026-03-29T13:33:12Z</time></trkpt><trkpt lat="45.620671455471445" lon="2.377355742674964"><ele>859.2857142857142</ele><time>2026-03-29T13:34:18.999Z</time></trkpt><trkpt lat="45.620746638288026" lon="2.377384693373302"><ele>859.8571428571429</ele><time>2026-03-29T13:34:23.999Z</time></trkpt><trkpt lat="45.62081477088409" lon="2.3774148798669255"><ele>860.4285714285714</ele><time>2026-03-29T13:34:27.999Z</time></trkpt><trkpt lat="45.62087680168021" lon="2.3774435800302256"><ele>861.0</ele><time>2026-03-29T13:34:31.999Z</time></trkpt><trkpt lat="45.62094327353477" lon="2.377476791309776"><ele>861.0</ele><time>2026-03-29T13:34:36Z</time></trkpt><trkpt lat="45.62100617279062" lon="2.3775159080692894"><ele>861.0</ele><time>2026-03-29T13:34:40Z</time></trkpt><trkpt lat="45.6210660815963" lon="2.37755445072333"><ele>861.0</ele><time>2026-03-29T13:34:44Z</time></trkpt><trkpt lat="45.621131240609806" lon="2.377591047646256"><ele>861.0</ele><time>2026-03-29T13:34:48Z</time></trkpt><trkpt lat="45.62119354650718" lon="2.3776312976328797"><ele>861.0</ele><time>2026-03-29T13:34:52Z</time></trkpt><trkpt lat="45.62125461873833" lon="2.37767114445781"><ele>861.0</ele><time>2026-03-29T13:34:56Z</time></trkpt><trkpt lat="45.62131442907159" lon="2.377706914389332"><ele>861.0</ele><time>2026-03-29T13:35:00Z</time></trkpt><trkpt lat="45.621380550969626" lon="2.377747760665481"><ele>861.2857142857143</ele><time>2026-03-29T13:35:04Z</time></trkpt><trkpt lat="45.62144492879969" lon="2.3777843802108354"><ele>861.5714285714286</ele><time>2026-03-29T13:35:08Z</time></trkpt><trkpt lat="45.62150563197155" lon="2.377821887650585"><ele>861.8571428571429</ele><time>2026-03-29T13:35:12Z</time></trkpt><trkpt lat="45.62156751716065" lon="2.3778604283696407"><ele>862.1428571428571</ele><time>2026-03-29T13:35:16Z</time></trkpt><trkpt lat="45.621632875814" lon="2.3779008221118354"><ele>862.4285714285714</ele><time>2026-03-29T13:35:20Z</time></trkpt><trkpt lat="45.62169492464462" lon="2.377938204866573"><ele>862.7142857142858</ele><time>2026-03-29T13:35:24Z</time></trkpt><trkpt lat="45.62175874374125" lon="2.377980483038062"><ele>863.0</ele><time>2026-03-29T13:35:27Z</time></trkpt><trkpt lat="45.62182494736707" lon="2.378024853140796"><ele>863.2857142857143</ele><time>2026-03-29T13:35:31Z</time></trkpt><trkpt lat="45.62189308874422" lon="2.378058109803592"><ele>863.5714285714286</ele><time>2026-03-29T13:35:35Z</time></trkpt><trkpt lat="45.62195332806843" lon="2.378094812911506"><ele>863.8571428571429</ele><time>2026-03-29T13:35:39Z</time></trkpt><trkpt lat="45.62202286873841" lon="2.378128333821247"><ele>864.1428571428571</ele><time>2026-03-29T13:35:45Z</time></trkpt><trkpt lat="45.62208457896617" lon="2.378161421684295"><ele>864.4285714285714</ele><time>2026-03-29T13:35:50Z</time></trkpt><trkpt lat="45.622155857018136" lon="2.3781838659403123"><ele>864.7142857142858</ele><time>2026-03-29T13:35:54.999Z</time></trkpt><trkpt lat="45.62222011491214" lon="2.378205396985986"><ele>865.0</ele><time>2026-03-29T13:35:58.999Z</time></trkpt><trkpt lat="45.62228883577398" lon="2.378217865380127"><ele>865.8571428571429</ele><time>2026-03-29T13:36:03.999Z</time></trkpt><trkpt lat="45.6223526250304" lon="2.3782406850330418"><ele>866.7142857142858</ele><time>2026-03-29T13:36:06.999Z</time></trkpt><trkpt lat="45.62241956558374" lon="2.37825728509971"><ele>867.5714285714286</ele><time>2026-03-29T13:36:10.999Z</time></trkpt><trkpt lat="45.622486348355295" lon="2.3782653866322128"><ele>868.4285714285714</ele><time>2026-03-29T13:36:14.999Z</time></trkpt><trkpt lat="45.622554694794104" lon="2.3782797385912122"><ele>869.2857142857142</ele><time>2026-03-29T13:36:18.999Z</time></trkpt><trkpt lat="45.62262293068032" lon="2.3782925091310227"><ele>870.1428571428571</ele><time>2026-03-29T13:36:22.999Z</time></trkpt><trkpt lat="45.62269777280297" lon="2.378309383464801"><ele>871.0</ele><time>2026-03-29T13:36:27.999Z</time></trkpt><trkpt lat="45.622760693308194" lon="2.3783266781032664"><ele>871.1428571428571</ele><time>2026-03-29T13:36:31.999Z</time></trkpt><trkpt lat="45.62283007858451" lon="2.378327974140769"><ele>871.2857142857142</ele><time>2026-03-29T13:36:35.999Z</time></trkpt><trkpt lat="45.62290092574426" lon="2.3783357927181408"><ele>871.4285714285714</ele><time>2026-03-29T13:36:39.999Z</time></trkpt><trkpt lat="45.62297749849537" lon="2.378350302579862"><ele>871.5714285714286</ele><time>2026-03-29T13:36:44Z</time></trkpt><trkpt lat="45.62304844226609" lon="2.3783679015027923"><ele>871.7142857142858</ele><time>2026-03-29T13:36:48Z</time></trkpt><trkpt lat="45.6231153560988" lon="2.3783800081271522"><ele>871.8571428571429</ele><time>2026-03-29T13:36:52Z</time></trkpt><trkpt lat="45.62318723592052" lon="2.3783992233181914"><ele>872.0</ele><time>2026-03-29T13:36:56Z</time></trkpt><trkpt lat="45.62326740764095" lon="2.37840655706294"><ele>872.0</ele><time>2026-03-29T13:37:00Z</time></trkpt><trkpt lat="45.62333221246069" lon="2.3784148016760995"><ele>872.0</ele><time>2026-03-29T13:37:04Z</time></trkpt><trkpt lat="45.62340694729423" lon="2.378435475976793"><ele>872.0</ele><time>2026-03-29T13:37:08Z</time></trkpt><trkpt lat="45.623480106332245" lon="2.37844886222024"><ele>872.0</ele><time>2026-03-29T13:37:12Z</time></trkpt><trkpt lat="45.623552144735456" lon="2.378459319901584"><ele>872.0</ele><time>2026-03-29T13:37:16Z</time></trkpt><trkpt lat="45.62362205845762" lon="2.378490810172891"><ele>872.0</ele><time>2026-03-29T13:37:20Z</time></trkpt><trkpt lat="45.62369657478917" lon="2.378503906966611"><ele>872.0</ele><time>2026-03-29T13:37:24Z</time></trkpt><trkpt lat="45.62377269503634" lon="2.3785169193654307"><ele>872.2857142857143</ele><time>2026-03-29T13:37:28Z</time></trkpt><trkpt lat="45.62385086665299" lon="2.3785349475721556"><ele>872.5714285714287</ele><time>2026-03-29T13:37:32Z</time></trkpt><trkpt lat="45.62392362913839" lon="2.378551588878133"><ele>872.8571428571429</ele><time>2026-03-29T13:37:36Z</time></trkpt><trkpt lat="45.62399456296586" lon="2.378557975887878"><ele>873.1428571428571</ele><time>2026-03-29T13:37:40Z</time></trkpt><trkpt lat="45.62405930812913" lon="2.3785809739269297"><ele>873.4285714285714</ele><time>2026-03-29T13:37:44Z</time></trkpt><trkpt lat="45.624127832017464" lon="2.378593454863704"><ele>873.7142857142857</ele><time>2026-03-29T13:37:49Z</time></trkpt><trkpt lat="45.624190334455015" lon="2.378613303296346"><ele>874.0</ele><time>2026-03-29T13:37:53Z</time></trkpt><trkpt lat="45.62425605086488" lon="2.378620013053625"><ele>874.0</ele><time>2026-03-29T13:37:57Z</time></trkpt><trkpt lat="45.62431923818909" lon="2.378624048428106"><ele>874.0</ele><time>2026-03-29T13:38:00.999Z</time></trkpt><trkpt lat="45.624392549724035" lon="2.378635426320001"><ele>874.0</ele><time>2026-03-29T13:38:05.999Z</time></trkpt><trkpt lat="45.62445568086865" lon="2.3786375991868574"><ele>874.0</ele><time>2026-03-29T13:38:09.999Z</time></trkpt><trkpt lat="45.62451983244944" lon="2.378649857038989"><ele>874.0</ele><time>2026-03-29T13:38:13.999Z</time></trkpt><trkpt lat="45.62459287366436" lon="2.3786544188828045"><ele>874.0</ele><time>2026-03-29T13:38:17.999Z</time></trkpt><trkpt lat="45.62466963435255" lon="2.3786677529311873"><ele>874.0</ele><time>2026-03-29T13:38:22.999Z</time></trkpt><trkpt lat="45.62474134958567" lon="2.3786718077064024"><ele>874.1428571428571</ele><time>2026-03-29T13:38:27.999Z</time></trkpt><trkpt lat="45.62482132793976" lon="2.37867894031578"><ele>874.2857142857143</ele><time>2026-03-29T13:38:32.999Z</time></trkpt><trkpt lat="45.62488838477236" lon="2.378680653837196"><ele>874.4285714285714</ele><time>2026-03-29T13:38:36.999Z</time></trkpt><trkpt lat="45.624959737553944" lon="2.378672778498294"><ele>874.5714285714286</ele><time>2026-03-29T13:38:41.999Z</time></trkpt><trkpt lat="45.62502867134712" lon="2.378657000184356"><ele>874.7142857142858</ele><time>2026-03-29T13:38:45.999Z</time></trkpt><trkpt lat="45.625098836247524" lon="2.3786349842132424"><ele>874.8571428571429</ele><time>2026-03-29T13:38:51Z</time></trkpt><trkpt lat="45.62516793244395" lon="2.378588002412499"><ele>875.0</ele><time>2026-03-29T13:38:56Z</time></trkpt><trkpt lat="45.62522986145422" lon="2.378558750348699"><ele>875.0</ele><time>2026-03-29T13:39:00Z</time></trkpt><trkpt lat="45.62529022968524" lon="2.378503553798522"><ele>875.0</ele><time>2026-03-29T13:39:04Z</time></trkpt><trkpt lat="45.625350598954974" lon="2.378440341772974"><ele>875.0</ele><time>2026-03-29T13:39:08Z</time></trkpt><trkpt lat="45.62540550010824" lon="2.3783815696018946"><ele>875.0</ele><time>2026-03-29T13:39:12Z</time></trkpt><trkpt lat="45.62546439187497" lon="2.3783209025148935"><ele>875.0</ele><time>2026-03-29T13:39:16Z</time></trkpt><trkpt lat="45.62552774532985" lon="2.378260001423212"><ele>875.0</ele><time>2026-03-29T13:39:20Z</time></trkpt><trkpt lat="45.62558247150477" lon="2.3781936174001976"><ele>875.0</ele><time>2026-03-29T13:39:24Z</time></trkpt><trkpt lat="45.62563615924919" lon="2.378134262317342"><ele>874.3333333333334</ele><time>2026-03-29T13:39:28Z</time></trkpt><trkpt lat="45.62569458306776" lon="2.378065308397913"><ele>873.6666666666667</ele><time>2026-03-29T13:39:32Z</time></trkpt><trkpt lat="45.625747695684005" lon="2.378001869498032"><ele>873.0</ele><time>2026-03-29T13:39:36Z</time></trkpt><trkpt lat="45.62580771586465" lon="2.3779202055482442"><ele>872.3333333333333</ele><time>2026-03-29T13:39:40Z</time></trkpt><trkpt lat="45.62586756154725" lon="2.3778378748689684"><ele>871.6666666666666</ele><time>2026-03-29T13:39:44Z</time></trkpt><trkpt lat="45.62591341940146" lon="2.3777673441027205"><ele>871.0</ele><time>2026-03-29T13:39:47Z</time></trkpt><trkpt lat="45.62595980842916" lon="2.377687720302792"><ele>871.0</ele><time>2026-03-29T13:39:51Z</time></trkpt><trkpt lat="45.62600437943131" lon="2.3776142106323173"><ele>871.0</ele><time>2026-03-29T13:39:53.999Z</time></trkpt><trkpt lat="45.626043553786054" lon="2.377539919144691"><ele>871.0</ele><time>2026-03-29T13:39:56.999Z</time></trkpt><trkpt lat="45.626082671948026" lon="2.3774667473427207"><ele>871.0</ele><time>2026-03-29T13:39:59.999Z</time></trkpt><trkpt lat="45.62613322721852" lon="2.3773895947928647"><ele>871.0</ele><time>2026-03-29T13:40:02.999Z</time></trkpt><trkpt lat="45.62617719540956" lon="2.377320392427166"><ele>871.0</ele><time>2026-03-29T13:40:05.999Z</time></trkpt><trkpt lat="45.62623417578148" lon="2.377241942671217"><ele>871.0</ele><time>2026-03-29T13:40:08.999Z</time></trkpt><trkpt lat="45.62628277909767" lon="2.377184180277107"><ele>870.8333333333333</ele><time>2026-03-29T13:40:11.999Z</time></trkpt><trkpt lat="45.626347199936056" lon="2.3771012839867915"><ele>870.6666666666666</ele><time>2026-03-29T13:40:15.999Z</time></trkpt><trkpt lat="45.62640490987392" lon="2.3770273003308504"><ele>870.5</ele><time>2026-03-29T13:40:19.999Z</time></trkpt><trkpt lat="45.62646548285364" lon="2.3769483733768166"><ele>870.3333333333333</ele><time>2026-03-29T13:40:23.999Z</time></trkpt><trkpt lat="45.626530727722965" lon="2.3768828188593045"><ele>870.1666666666666</ele><time>2026-03-29T13:40:27.999Z</time></trkpt><trkpt lat="45.626575022476345" lon="2.3768138028936434"><ele>870.0</ele><time>2026-03-29T13:40:30.999Z</time></trkpt><trkpt lat="45.62662125287034" lon="2.3767459754160503"><ele>870.0000000000001</ele><time>2026-03-29T13:40:33.999Z</time></trkpt><trkpt lat="45.6266698069442" lon="2.376685409315413"><ele>870.0</ele><time>2026-03-29T13:40:36.999Z</time></trkpt><trkpt lat="45.62671699725481" lon="2.3766226744842247"><ele>870.0</ele><time>2026-03-29T13:40:39.999Z</time></trkpt><trkpt lat="45.62677128647696" lon="2.3765588741719155"><ele>870.0</ele><time>2026-03-29T13:40:42.999Z</time></trkpt><trkpt lat="45.62683158284317" lon="2.3764794691426476"><ele>870.0</ele><time>2026-03-29T13:40:46.999Z</time></trkpt><trkpt lat="45.626895331844885" lon="2.3764043355800393"><ele>870.0000000000001</ele><time>2026-03-29T13:40:50.999Z</time></trkpt><trkpt lat="45.62694386629531" lon="2.376339441817821"><ele>870.0</ele><time>2026-03-29T13:40:54Z</time></trkpt><trkpt lat="45.62700978608486" lon="2.3762574997927963"><ele>870.1428571428572</ele><time>2026-03-29T13:40:58Z</time></trkpt><trkpt lat="45.627058633306184" lon="2.376191634186112"><ele>870.2857142857143</ele><time>2026-03-29T13:41:01Z</time></trkpt><trkpt lat="45.627112239663454" lon="2.376129207180583"><ele>870.4285714285714</ele><time>2026-03-29T13:41:04Z</time></trkpt><trkpt lat="45.62716499594108" lon="2.3760661810590245"><ele>870.5714285714287</ele><time>2026-03-29T13:41:07Z</time></trkpt><trkpt lat="45.62721819734873" lon="2.376000843139314"><ele>870.7142857142857</ele><time>2026-03-29T13:41:10Z</time></trkpt><trkpt lat="45.6272759103862" lon="2.3759293095345178"><ele>870.8571428571429</ele><time>2026-03-29T13:41:13Z</time></trkpt><trkpt lat="45.62734100941206" lon="2.375851820410156"><ele>871.0</ele><time>2026-03-29T13:41:16Z</time></trkpt><trkpt lat="45.627386898123895" lon="2.375788592143305"><ele>871.0</ele><time>2026-03-29T13:41:18Z</time></trkpt><trkpt lat="45.62745532541207" lon="2.3756957854981806"><ele>871.0</ele><time>2026-03-29T13:41:21Z</time></trkpt><trkpt lat="45.627510387173864" lon="2.375634622739039"><ele>871.0</ele><time>2026-03-29T13:41:23Z</time></trkpt><trkpt lat="45.627561259310966" lon="2.375570506464214"><ele>871.0</ele><time>2026-03-29T13:41:25Z</time></trkpt><trkpt lat="45.6276122891729" lon="2.375508009115338"><ele>871.0</ele><time>2026-03-29T13:41:27Z</time></trkpt><trkpt lat="45.627658521974396" lon="2.3754432463939184"><ele>871.0</ele><time>2026-03-29T13:41:29Z</time></trkpt><trkpt lat="45.627705568457785" lon="2.375382370724202"><ele>871.0</ele><time>2026-03-29T13:41:31Z</time></trkpt><trkpt lat="45.627775124010924" lon="2.375293179173104"><ele>869.9999999999999</ele><time>2026-03-29T13:41:34Z</time></trkpt><trkpt lat="45.627825371382116" lon="2.3752375520374063"><ele>869.0</ele><time>2026-03-29T13:41:36Z</time></trkpt><trkpt lat="45.62789488645054" lon="2.375153531789429"><ele>868.0</ele><time>2026-03-29T13:41:39Z</time></trkpt><trkpt lat="45.62793913165938" lon="2.375086712685645"><ele>867.0</ele><time>2026-03-29T13:41:41Z</time></trkpt><trkpt lat="45.627995198524985" lon="2.3750376917873024"><ele>865.9999999999999</ele><time>2026-03-29T13:41:43Z</time></trkpt><trkpt lat="45.628059313435955" lon="2.3749498135599"><ele>865.0</ele><time>2026-03-29T13:41:46Z</time></trkpt><trkpt lat="45.628124214975564" lon="2.374865532108185"><ele>864.9999999999999</ele><time>2026-03-29T13:41:49Z</time></trkpt><trkpt lat="45.62819073009357" lon="2.374795442063302"><ele>865.0</ele><time>2026-03-29T13:41:52Z</time></trkpt><trkpt lat="45.6282517391169" lon="2.374714354481518"><ele>865.0</ele><time>2026-03-29T13:41:55Z</time></trkpt><trkpt lat="45.6283228829633" lon="2.374641262162449"><ele>865.0</ele><time>2026-03-29T13:41:57.999Z</time></trkpt><trkpt lat="45.628388272948925" lon="2.3745748886978393"><ele>864.9999999999999</ele><time>2026-03-29T13:42:00.999Z</time></trkpt><trkpt lat="45.62844250733199" lon="2.3745108728814794"><ele>865.0</ele><time>2026-03-29T13:42:03.999Z</time></trkpt><trkpt lat="45.62851199410318" lon="2.374456782075405"><ele>865.0</ele><time>2026-03-29T13:42:06.999Z</time></trkpt><trkpt lat="45.62856454593829" lon="2.3743949204867256"><ele>865.0</ele><time>2026-03-29T13:42:09.999Z</time></trkpt><trkpt lat="45.62862513196634" lon="2.3743334705905794"><ele>865.0</ele><time>2026-03-29T13:42:12.999Z</time></trkpt><trkpt lat="45.62868063988636" lon="2.3742892627895777"><ele>865.0</ele><time>2026-03-29T13:42:15.999Z</time></trkpt><trkpt lat="45.62873812775446" lon="2.3742429660283366"><ele>865.0</ele><time>2026-03-29T13:42:18.999Z</time></trkpt><trkpt lat="45.628809901330754" lon="2.3741710054409833"><ele>865.0</ele><time>2026-03-29T13:42:22.999Z</time></trkpt><trkpt lat="45.62886170545096" lon="2.3741109852240436"><ele>865.0</ele><time>2026-03-29T13:42:25.999Z</time></trkpt><trkpt lat="45.628916797595316" lon="2.374061985973447"><ele>864.9999999999999</ele><time>2026-03-29T13:42:28.999Z</time></trkpt><trkpt lat="45.62897205312955" lon="2.374012631756064"><ele>865.0</ele><time>2026-03-29T13:42:31.999Z</time></trkpt><trkpt lat="45.6290318317165" lon="2.3739395201386344"><ele>865.0</ele><time>2026-03-29T13:42:34.999Z</time></trkpt><trkpt lat="45.62909779974857" lon="2.37386597119359"><ele>865.0</ele><time>2026-03-29T13:42:37.999Z</time></trkpt><trkpt lat="45.62917144508032" lon="2.3737839949769963"><ele>864.9999999999999</ele><time>2026-03-29T13:42:40.999Z</time></trkpt><trkpt lat="45.62922175806287" lon="2.373719858736333"><ele>865.0</ele><time>2026-03-29T13:42:42.999Z</time></trkpt><trkpt lat="45.6292692537826" lon="2.373656490721925"><ele>865.4285714285714</ele><time>2026-03-29T13:42:44.999Z</time></trkpt><trkpt lat="45.629341034082465" lon="2.3735753222696805"><ele>865.8571428571429</ele><time>2026-03-29T13:42:47.999Z</time></trkpt><trkpt lat="45.62939613734385" lon="2.3735105120205073"><ele>866.2857142857142</ele><time>2026-03-29T13:42:49.999Z</time></trkpt><trkpt lat="45.629443170857016" lon="2.3734442743249327"><ele>866.7142857142858</ele><time>2026-03-29T13:42:51.999Z</time></trkpt><trkpt lat="45.629496480669395" lon="2.373376010165982"><ele>867.1428571428571</ele><time>2026-03-29T13:42:53.999Z</time></trkpt><trkpt lat="45.62954520899834" lon="2.3733041701038955"><ele>867.5714285714286</ele><time>2026-03-29T13:42:55.999Z</time></trkpt><trkpt lat="45.62960755297628" lon="2.373239143817118"><ele>868.0</ele><time>2026-03-29T13:42:57.999Z</time></trkpt><trkpt lat="45.629656547085474" lon="2.373171270457009"><ele>867.4285714285714</ele><time>2026-03-29T13:43:00Z</time></trkpt><trkpt lat="45.629712664189114" lon="2.3731091931159147"><ele>866.8571428571429</ele><time>2026-03-29T13:43:02Z</time></trkpt><trkpt lat="45.62975954720896" lon="2.3730445325926883"><ele>866.2857142857142</ele><time>2026-03-29T13:43:04Z</time></trkpt><trkpt lat="45.62980205243437" lon="2.372975296573313"><ele>865.7142857142858</ele><time>2026-03-29T13:43:06Z</time></trkpt><trkpt lat="45.62984963785822" lon="2.372915425116543"><ele>865.1428571428571</ele><time>2026-03-29T13:43:08Z</time></trkpt><trkpt lat="45.629901943936055" lon="2.3728506904399143"><ele>864.5714285714286</ele><time>2026-03-29T13:43:10Z</time></trkpt><trkpt lat="45.62994698111909" lon="2.3727806996821705"><ele>864.0</ele><time>2026-03-29T13:43:12Z</time></trkpt><trkpt lat="45.62999721665294" lon="2.3727203431095965"><ele>864.0</ele><time>2026-03-29T13:43:14Z</time></trkpt><trkpt lat="45.63005288434402" lon="2.372620029831537"><ele>864.0</ele><time>2026-03-29T13:43:17Z</time></trkpt><trkpt lat="45.63010473612797" lon="2.3725226980812066"><ele>864.0</ele><time>2026-03-29T13:43:20Z</time></trkpt><trkpt lat="45.63014886948211" lon="2.372449402714238"><ele>864.0</ele><time>2026-03-29T13:43:22Z</time></trkpt><trkpt lat="45.63018440570696" lon="2.3723388432935106"><ele>864.0</ele><time>2026-03-29T13:43:25Z</time></trkpt><trkpt lat="45.63023034858053" lon="2.372222511478288"><ele>864.0</ele><time>2026-03-29T13:43:28Z</time></trkpt><trkpt lat="45.630254117131024" lon="2.372137934192524"><ele>863.7142857142857</ele><time>2026-03-29T13:43:30Z</time></trkpt><trkpt lat="45.63028423959836" lon="2.372058491921345"><ele>863.4285714285713</ele><time>2026-03-29T13:43:32Z</time></trkpt><trkpt lat="45.63030183933307" lon="2.371967887994821"><ele>863.1428571428571</ele><time>2026-03-29T13:43:34Z</time></trkpt><trkpt lat="45.63034010964036" lon="2.3718961561423297"><ele>862.8571428571429</ele><time>2026-03-29T13:43:36Z</time></trkpt><trkpt lat="45.63037404238858" lon="2.3717906983576813"><ele>862.5714285714286</ele><time>2026-03-29T13:43:39Z</time></trkpt><trkpt lat="45.63041462059868" lon="2.3716979526310356"><ele>862.2857142857143</ele><time>2026-03-29T13:43:42Z</time></trkpt><trkpt lat="45.63045895388661" lon="2.371609216000328"><ele>862.0</ele><time>2026-03-29T13:43:45Z</time></trkpt><trkpt lat="45.630511454546145" lon="2.371513016035456"><ele>861.3333333333333</ele><time>2026-03-29T13:43:48Z</time></trkpt><trkpt lat="45.6305651248429" lon="2.3714324868984753"><ele>860.6666666666666</ele><time>2026-03-29T13:43:51Z</time></trkpt><trkpt lat="45.63060915216079" lon="2.3713423028169975"><ele>860.0</ele><time>2026-03-29T13:43:54Z</time></trkpt><trkpt lat="45.630637564399784" lon="2.3712390834806745"><ele>859.3333333333333</ele><time>2026-03-29T13:43:57Z</time></trkpt><trkpt lat="45.630704915915956" lon="2.371156175705203"><ele>858.6666666666666</ele><time>2026-03-29T13:44:00Z</time></trkpt><trkpt lat="45.63074502597044" lon="2.3710551726648865"><ele>858.0</ele><time>2026-03-29T13:44:03Z</time></trkpt><trkpt lat="45.63078189478964" lon="2.37095263206434"><ele>857.7142857142858</ele><time>2026-03-29T13:44:06Z</time></trkpt><trkpt lat="45.630830903345" lon="2.370853736385008"><ele>857.4285714285714</ele><time>2026-03-29T13:44:09.999Z</time></trkpt><trkpt lat="45.63086637044559" lon="2.3707749645057743"><ele>857.1428571428571</ele><time>2026-03-29T13:44:12.999Z</time></trkpt><trkpt lat="45.63091748439789" lon="2.370684167184434"><ele>856.8571428571429</ele><time>2026-03-29T13:44:16.999Z</time></trkpt><trkpt lat="45.63095302991475" lon="2.3705966280183284"><ele>856.5714285714286</ele><time>2026-03-29T13:44:19.999Z</time></trkpt><trkpt lat="45.63100163681182" lon="2.3705246959800625"><ele>856.2857142857143</ele><time>2026-03-29T13:44:23.999Z</time></trkpt><trkpt lat="45.631045107069234" lon="2.3704358696905783"><ele>856.0</ele><time>2026-03-29T13:44:27.999Z</time></trkpt><trkpt lat="45.631097768558774" lon="2.3703500708355234"><ele>856.0000000000001</ele><time>2026-03-29T13:44:31.999Z</time></trkpt><trkpt lat="45.631153001964165" lon="2.3702749073242213"><ele>856.0</ele><time>2026-03-29T13:44:35.999Z</time></trkpt><trkpt lat="45.6312173926581" lon="2.370266763868154"><ele>856.0</ele><time>2026-03-29T13:44:39.999Z</time></trkpt><trkpt lat="45.63126999469526" lon="2.3703250900719715"><ele>856.0</ele><time>2026-03-29T13:44:43.999Z</time></trkpt><trkpt lat="45.631319327336136" lon="2.370411917316736"><ele>856.0</ele><time>2026-03-29T13:44:48.999Z</time></trkpt><trkpt lat="45.631375253088656" lon="2.3704833173772655"><ele>856.0000000000001</ele><time>2026-03-29T13:44:52.999Z</time></trkpt><trkpt lat="45.63143799699151" lon="2.3705468786804356"><ele>856.0</ele><time>2026-03-29T13:44:57.999Z</time></trkpt><trkpt lat="45.63150405242494" lon="2.3706002987797743"><ele>856.0000000000001</ele><time>2026-03-29T13:45:01.999Z</time></trkpt><trkpt lat="45.63155545129896" lon="2.370664743295627"><ele>856.0</ele><time>2026-03-29T13:45:06Z</time></trkpt><trkpt lat="45.63161408973648" lon="2.370715567061781"><ele>856.0</ele><time>2026-03-29T13:45:10Z</time></trkpt><trkpt lat="45.63167653159335" lon="2.3707835100832155"><ele>856.0</ele><time>2026-03-29T13:45:15Z</time></trkpt><trkpt lat="45.63173041021056" lon="2.3708527981547225"><ele>856.0</ele><time>2026-03-29T13:45:20Z</time></trkpt><trkpt lat="45.63177288806745" lon="2.370926602319457"><ele>856.0000000000001</ele><time>2026-03-29T13:45:25Z</time></trkpt><trkpt lat="45.63181406335789" lon="2.370996819186769"><ele>856.0</ele><time>2026-03-29T13:45:30Z</time></trkpt><trkpt lat="45.631859486636095" lon="2.371084252829192"><ele>856.0000000000001</ele><time>2026-03-29T13:45:36Z</time></trkpt><trkpt lat="45.63189913333357" lon="2.37115636969064"><ele>856.0</ele><time>2026-03-29T13:45:41Z</time></trkpt><trkpt lat="45.63194248507421" lon="2.3712412081691543"><ele>856.0</ele><time>2026-03-29T13:45:46Z</time></trkpt><trkpt lat="45.63199139274366" lon="2.3713263169350203"><ele>856.0</ele><time>2026-03-29T13:45:50Z</time></trkpt><trkpt lat="45.63203054563581" lon="2.3714175908642163"><ele>856.0</ele><time>2026-03-29T13:45:55Z</time></trkpt><trkpt lat="45.63207180200888" lon="2.371507355240316"><ele>856.0000000000001</ele><time>2026-03-29T13:45:59Z</time></trkpt><trkpt lat="45.63211655827378" lon="2.3715832608314367"><ele>856.0</ele><time>2026-03-29T13:46:03Z</time></trkpt><trkpt lat="45.632168139781896" lon="2.3716668570136603"><ele>855.5714285714287</ele><time>2026-03-29T13:46:08Z</time></trkpt><trkpt lat="45.63222375889895" lon="2.371719183256871"><ele>855.1428571428571</ele><time>2026-03-29T13:46:12Z</time></trkpt><trkpt lat="45.63228151584501" lon="2.371777820059233"><ele>854.7142857142858</ele><time>2026-03-29T13:46:26.999Z</time></trkpt><trkpt lat="45.63235036947316" lon="2.371791523400686"><ele>854.2857142857143</ele><time>2026-03-29T13:46:32.999Z</time></trkpt><trkpt lat="45.63241634637161" lon="2.371837928930944"><ele>853.8571428571429</ele><time>2026-03-29T13:46:38.999Z</time></trkpt><trkpt lat="45.63244442441918" lon="2.3719347843989564"><ele>853.4285714285714</ele><time>2026-03-29T13:46:44.999Z</time></trkpt><trkpt lat="45.632460577858616" lon="2.372026773372192"><ele>853.0</ele><time>2026-03-29T13:46:49.999Z</time></trkpt><trkpt lat="45.632481965137266" lon="2.3721225050099646"><ele>852.2857142857142</ele><time>2026-03-29T13:46:54.999Z</time></trkpt><trkpt lat="45.632486712624754" lon="2.3722195852485934"><ele>851.5714285714287</ele><time>2026-03-29T13:46:58.999Z</time></trkpt><trkpt lat="45.63246671224856" lon="2.3723203936478496"><ele>850.8571428571429</ele><time>2026-03-29T13:47:02.999Z</time></trkpt><trkpt lat="45.63245236645297" lon="2.3724207831365267"><ele>850.1428571428571</ele><time>2026-03-29T13:47:06.999Z</time></trkpt><trkpt lat="45.63243102218378" lon="2.372518016139985"><ele>849.4285714285713</ele><time>2026-03-29T13:47:11Z</time></trkpt><trkpt lat="45.632412001945426" lon="2.372613010763753"><ele>848.7142857142858</ele><time>2026-03-29T13:47:15Z</time></trkpt><trkpt lat="45.6323965085881" lon="2.3727154267350294"><ele>848.0</ele><time>2026-03-29T13:47:19Z</time></trkpt><trkpt lat="45.63240096171159" lon="2.372805451291568"><ele>848.0000000000001</ele><time>2026-03-29T13:47:24Z</time></trkpt><trkpt lat="45.63245036330993" lon="2.3728926842979505"><ele>848.0</ele><time>2026-03-29T13:47:55Z</time></trkpt><trkpt lat="45.63248457945407" lon="2.372989013942903"><ele>848.0</ele><time>2026-03-29T13:47:58Z</time></trkpt><trkpt lat="45.63251962687836" lon="2.37308374325287"><ele>848.0</ele><time>2026-03-29T13:48:01Z</time></trkpt><trkpt lat="45.632558990507995" lon="2.3731800096719917"><ele>848.0000000000001</ele><time>2026-03-29T13:48:04Z</time></trkpt><trkpt lat="45.63259989868613" lon="2.373272465002177"><ele>848.0</ele><time>2026-03-29T13:48:07Z</time></trkpt><trkpt lat="45.63263956385376" lon="2.373351820694204"><ele>846.0000000000001</ele><time>2026-03-29T13:48:10Z</time></trkpt><trkpt lat="45.632674379665374" lon="2.3734323342334456"><ele>844.0</ele><time>2026-03-29T13:48:13Z</time></trkpt><trkpt lat="45.63270088119862" lon="2.373543198025698"><ele>842.0</ele><time>2026-03-29T13:48:16.999Z</time></trkpt><trkpt lat="45.63272707874737" lon="2.3736251940983992"><ele>840.0</ele><time>2026-03-29T13:48:19.999Z</time></trkpt><trkpt lat="45.632771298518534" lon="2.373721159410947"><ele>838.0000000000001</ele><time>2026-03-29T13:48:23.999Z</time></trkpt><trkpt lat="45.63281431184503" lon="2.3738141161822828"><ele>836.0</ele><time>2026-03-29T13:48:27.999Z</time></trkpt><trkpt lat="45.63286560557112" lon="2.373905021829151"><ele>833.8571428571429</ele><time>2026-03-29T13:48:31.999Z</time></trkpt><trkpt lat="45.63292754195593" lon="2.3739803327145483"><ele>831.7142857142857</ele><time>2026-03-29T13:48:35.999Z</time></trkpt><trkpt lat="45.63297795127708" lon="2.3740588682250907"><ele>829.5714285714287</ele><time>2026-03-29T13:48:39.999Z</time></trkpt><trkpt lat="45.63302374818476" lon="2.3741221866320164"><ele>827.4285714285714</ele><time>2026-03-29T13:48:42.999Z</time></trkpt><trkpt lat="45.63307657685977" lon="2.3742012041711433"><ele>825.2857142857143</ele><time>2026-03-29T13:48:46.999Z</time></trkpt><trkpt lat="45.63311398208718" lon="2.37428138421308"><ele>823.1428571428572</ele><time>2026-03-29T13:48:49.999Z</time></trkpt><trkpt lat="45.63315104564869" lon="2.3743601879952654"><ele>821.0</ele><time>2026-03-29T13:48:52.999Z</time></trkpt><trkpt lat="45.63319890190077" lon="2.374445106093621"><ele>821.0000000000001</ele><time>2026-03-29T13:48:56.999Z</time></trkpt><trkpt lat="45.63323894016968" lon="2.3745307608889266"><ele>821.0</ele><time>2026-03-29T13:49:00.999Z</time></trkpt><trkpt lat="45.633276427509955" lon="2.374614534993378"><ele>821.0</ele><time>2026-03-29T13:49:04.999Z</time></trkpt><trkpt lat="45.633322425271324" lon="2.374704766883148"><ele>821.0</ele><time>2026-03-29T13:49:22Z</time></trkpt><trkpt lat="45.63336736126814" lon="2.3748049673582616"><ele>821.0000000000001</ele><time>2026-03-29T13:49:26Z</time></trkpt><trkpt lat="45.63339342506901" lon="2.3749240208168096"><ele>821.0</ele><time>2026-03-29T13:49:30Z</time></trkpt><trkpt lat="45.633433118651546" lon="2.3750091210184"><ele>820.4285714285714</ele><time>2026-03-29T13:49:33Z</time></trkpt><trkpt lat="45.63347637724906" lon="2.3750757658207635"><ele>819.8571428571429</ele><time>2026-03-29T13:49:36Z</time></trkpt><trkpt lat="45.63351530132946" lon="2.3751663813972077"><ele>819.2857142857142</ele><time>2026-03-29T13:49:43Z</time></trkpt><trkpt lat="45.63352487488769" lon="2.3752796452778786"><ele>818.7142857142858</ele><time>2026-03-29T13:49:47Z</time></trkpt><trkpt lat="45.63353563763176" lon="2.375379000899345"><ele>818.1428571428571</ele><time>2026-03-29T13:49:50Z</time></trkpt><trkpt lat="45.63355425165995" lon="2.375493798439315"><ele>817.5714285714286</ele><time>2026-03-29T13:49:54Z</time></trkpt><trkpt lat="45.6335666290989" lon="2.375591743709953"><ele>817.0</ele><time>2026-03-29T13:49:57Z</time></trkpt><trkpt lat="45.633580550172724" lon="2.3756945646315595"><ele>816.9999999999999</ele><time>2026-03-29T13:50:00Z</time></trkpt><trkpt lat="45.63358182995513" lon="2.3758122526363437"><ele>817.0</ele><time>2026-03-29T13:50:04Z</time></trkpt><trkpt lat="45.63360322260518" lon="2.37592480944874"><ele>817.0</ele><time>2026-03-29T13:50:08Z</time></trkpt><trkpt lat="45.63362847445527" lon="2.3760266187298393"><ele>817.0</ele><time>2026-03-29T13:50:11Z</time></trkpt><trkpt lat="45.63363680612363" lon="2.376127019401287"><ele>816.9999999999999</ele><time>2026-03-29T13:50:14Z</time></trkpt><trkpt lat="45.63365970569855" lon="2.3762544310559788"><ele>817.0</ele><time>2026-03-29T13:50:17Z</time></trkpt><trkpt lat="45.633662856807874" lon="2.3763862979618975"><ele>815.3333333333333</ele><time>2026-03-29T13:50:21Z</time></trkpt><trkpt lat="45.63368052603901" lon="2.3764767440567303"><ele>813.6666666666666</ele><time>2026-03-29T13:50:24Z</time></trkpt><trkpt lat="45.633692707724414" lon="2.376585107749343"><ele>812.0</ele><time>2026-03-29T13:50:26.999Z</time></trkpt><trkpt lat="45.633716505319356" lon="2.3767139503278347"><ele>810.3333333333333</ele><time>2026-03-29T13:50:29.999Z</time></trkpt><trkpt lat="45.63372350246056" lon="2.376808626695753"><ele>808.6666666666666</ele><time>2026-03-29T13:50:31.999Z</time></trkpt><trkpt lat="45.63371033253221" lon="2.3769322164129303"><ele>807.0</ele><time>2026-03-29T13:50:34.999Z</time></trkpt><trkpt lat="45.63370481234416" lon="2.3770421465373666"><ele>807.0</ele><time>2026-03-29T13:50:37.999Z</time></trkpt><trkpt lat="45.63369141814689" lon="2.377185566232647"><ele>807.0</ele><time>2026-03-29T13:50:40.999Z</time></trkpt><trkpt lat="45.633690156232014" lon="2.377289463830929"><ele>807.0</ele><time>2026-03-29T13:50:44.999Z</time></trkpt><trkpt lat="45.63367809134408" lon="2.3773780669474434"><ele>807.0</ele><time>2026-03-29T13:50:47.999Z</time></trkpt><trkpt lat="45.63367376655274" lon="2.3774935739187875"><ele>807.0</ele><time>2026-03-29T13:50:51.999Z</time></trkpt><trkpt lat="45.63366858258969" lon="2.3775932342383475"><ele>807.0</ele><time>2026-03-29T13:50:53.999Z</time></trkpt><trkpt lat="45.63366733539435" lon="2.3776886627690503"><ele>805.5</ele><time>2026-03-29T13:50:56.999Z</time></trkpt><trkpt lat="45.633659023541064" lon="2.377781790073741"><ele>804.0</ele><time>2026-03-29T13:50:59.999Z</time></trkpt><trkpt lat="45.633652044938295" lon="2.377873533188331"><ele>802.5</ele><time>2026-03-29T13:51:04.999Z</time></trkpt><trkpt lat="45.63366431567407" lon="2.377994033452476"><ele>801.0</ele><time>2026-03-29T13:55:14.999Z</time></trkpt><trkpt lat="45.633689504391214" lon="2.3781167453130903"><ele>799.5</ele><time>2026-03-29T13:55:17.999Z</time></trkpt><trkpt lat="45.63371342460481" lon="2.378223047863518"><ele>798.0</ele><time>2026-03-29T13:55:20.999Z</time></trkpt><trkpt lat="45.63372924762434" lon="2.378322350123759"><ele>796.8333333333334</ele><time>2026-03-29T13:55:23.999Z</time></trkpt><trkpt lat="45.63375379973173" lon="2.378428089291209"><ele>795.6666666666667</ele><time>2026-03-29T13:55:26.999Z</time></trkpt><trkpt lat="45.633783948077955" lon="2.378530115750879"><ele>794.5</ele><time>2026-03-29T13:55:29.999Z</time></trkpt><trkpt lat="45.633814888372754" lon="2.3786254081596327"><ele>793.3333333333334</ele><time>2026-03-29T13:55:32.999Z</time></trkpt><trkpt lat="45.63384481767203" lon="2.378732407153615"><ele>792.1666666666667</ele><time>2026-03-29T13:55:36Z</time></trkpt><trkpt lat="45.63385652024982" lon="2.3788299690014187"><ele>791.0</ele><time>2026-03-29T13:55:39Z</time></trkpt><trkpt lat="45.63386934302368" lon="2.3789309403244117"><ele>790.4285714285714</ele><time>2026-03-29T13:55:42Z</time></trkpt><trkpt lat="45.63387207647916" lon="2.379031321727657"><ele>789.8571428571429</ele><time>2026-03-29T13:55:45Z</time></trkpt><trkpt lat="45.633887911313984" lon="2.3791491256412876"><ele>789.2857142857142</ele><time>2026-03-29T13:55:49Z</time></trkpt><trkpt lat="45.63389496923511" lon="2.3792465506033995"><ele>788.7142857142858</ele><time>2026-03-29T13:55:52Z</time></trkpt><trkpt lat="45.63390127583243" lon="2.3793399821597805"><ele>788.1428571428571</ele><time>2026-03-29T13:55:55Z</time></trkpt><trkpt lat="45.63390348065253" lon="2.3794375465640933"><ele>787.5714285714286</ele><time>2026-03-29T13:55:58Z</time></trkpt><trkpt lat="45.63389978319476" lon="2.3795408047293627"><ele>787.0</ele><time>2026-03-29T13:56:01Z</time></trkpt><trkpt lat="45.633886937191804" lon="2.3796343151803634"><ele>786.4285714285714</ele><time>2026-03-29T13:56:04Z</time></trkpt><trkpt lat="45.63388360787757" lon="2.379738796235138"><ele>785.8571428571429</ele><time>2026-03-29T13:56:07Z</time></trkpt><trkpt lat="45.633885699520754" lon="2.379853892829565"><ele>785.2857142857142</ele><time>2026-03-29T13:56:10Z</time></trkpt><trkpt lat="45.63388866687791" lon="2.3799460689789385"><ele>784.7142857142858</ele><time>2026-03-29T13:56:13Z</time></trkpt><trkpt lat="45.633901220821315" lon="2.3800431522619907"><ele>784.1428571428572</ele><time>2026-03-29T13:56:18Z</time></trkpt><trkpt lat="45.6338998367242" lon="2.380140979832749"><ele>783.5714285714286</ele><time>2026-03-29T13:56:24Z</time></trkpt><trkpt lat="45.63389105084112" lon="2.3802415721078063"><ele>783.0</ele><time>2026-03-29T13:56:30Z</time></trkpt><trkpt lat="45.6339000481499" lon="2.38033985467476"><ele>783.0</ele><time>2026-03-29T13:56:35Z</time></trkpt><trkpt lat="45.63390187935857" lon="2.3804334742450997"><ele>783.0</ele><time>2026-03-29T13:56:39Z</time></trkpt><trkpt lat="45.633897856844406" lon="2.380525129334836"><ele>783.0</ele><time>2026-03-29T13:56:42Z</time></trkpt><trkpt lat="45.633897369129414" lon="2.3806308246142334"><ele>783.0</ele><time>2026-03-29T13:56:45.999Z</time></trkpt><trkpt lat="45.63389723881698" lon="2.380754144371696"><ele>783.0</ele><time>2026-03-29T13:56:49.999Z</time></trkpt><trkpt lat="45.63389531099382" lon="2.380854637653923"><ele>783.0</ele><time>2026-03-29T13:56:52.999Z</time></trkpt><trkpt lat="45.63389037813823" lon="2.380955041955657"><ele>783.0</ele><time>2026-03-29T13:56:55.999Z</time></trkpt><trkpt lat="45.6338892304497" lon="2.381067691037725"><ele>783.0</ele><time>2026-03-29T13:56:58.999Z</time></trkpt><trkpt lat="45.63388943902211" lon="2.3811856398880504"><ele>783.0</ele><time>2026-03-29T13:57:01.999Z</time></trkpt><trkpt lat="45.6338818405409" lon="2.381283222538778"><ele>783.0</ele><time>2026-03-29T13:57:03.999Z</time></trkpt><trkpt lat="45.63388400046079" lon="2.3813974951443484"><ele>783.0</ele><time>2026-03-29T13:57:07.999Z</time></trkpt><trkpt lat="45.63388500863952" lon="2.3814969171121003"><ele>783.0</ele><time>2026-03-29T13:57:10.999Z</time></trkpt><trkpt lat="45.6338855831957" lon="2.3816023943405047"><ele>783.0</ele><time>2026-03-29T13:57:13.999Z</time></trkpt><trkpt lat="45.63388018258463" lon="2.381722949202567"><ele>782.8333333333334</ele><time>2026-03-29T13:57:16.999Z</time></trkpt><trkpt lat="45.6338855914768" lon="2.381852323438742"><ele>782.6666666666667</ele><time>2026-03-29T13:57:19.999Z</time></trkpt><trkpt lat="45.63388402344626" lon="2.3819728280153867"><ele>782.5</ele><time>2026-03-29T13:57:22.999Z</time></trkpt><trkpt lat="45.63388469476302" lon="2.3820999580325677"><ele>782.3333333333334</ele><time>2026-03-29T13:57:25.999Z</time></trkpt><trkpt lat="45.633887924880995" lon="2.382227809608753"><ele>782.1666666666667</ele><time>2026-03-29T13:57:28.999Z</time></trkpt><trkpt lat="45.63388867018816" lon="2.38236220793123"><ele>782.0</ele><time>2026-03-29T13:57:31.999Z</time></trkpt><trkpt lat="45.63389305239417" lon="2.3824927391000297"><ele>781.7142857142857</ele><time>2026-03-29T13:57:34.999Z</time></trkpt><trkpt lat="45.63389844139056" lon="2.3826262604093893"><ele>781.4285714285714</ele><time>2026-03-29T13:57:37.999Z</time></trkpt><trkpt lat="45.633889184015665" lon="2.3827183492605912"><ele>781.1428571428571</ele><time>2026-03-29T13:57:39.999Z</time></trkpt><trkpt lat="45.63389055295815" lon="2.3828091736660797"><ele>780.8571428571429</ele><time>2026-03-29T13:57:42Z</time></trkpt><trkpt lat="45.63388856762376" lon="2.382936835287116"><ele>780.5714285714286</ele><time>2026-03-29T13:57:45Z</time></trkpt><trkpt lat="45.633886007721564" lon="2.3830289243877103"><ele>780.2857142857142</ele><time>2026-03-29T13:57:47Z</time></trkpt><trkpt lat="45.63388595729156" lon="2.3831257836027273"><ele>780.0</ele><time>2026-03-29T13:57:49Z</time></trkpt><trkpt lat="45.63388915606808" lon="2.3832304061980816"><ele>779.3333333333334</ele><time>2026-03-29T13:57:51Z</time></trkpt><trkpt lat="45.63388298125921" lon="2.383342893998126"><ele>778.6666666666667</ele><time>2026-03-29T13:57:53Z</time></trkpt><trkpt lat="45.63388716091148" lon="2.38344918529863"><ele>778.0</ele><time>2026-03-29T13:57:55Z</time></trkpt><trkpt lat="45.63388852666645" lon="2.3835599123735296"><ele>777.3333333333334</ele><time>2026-03-29T13:57:57Z</time></trkpt><trkpt lat="45.6338867987173" lon="2.383670023123351"><ele>776.6666666666667</ele><time>2026-03-29T13:57:59Z</time></trkpt><trkpt lat="45.63388003489231" lon="2.3837747965308345"><ele>776.0</ele><time>2026-03-29T13:58:01Z</time></trkpt><trkpt lat="45.6338569921516" lon="2.383897873078051"><ele>776.0000000000001</ele><time>2026-03-29T13:58:03Z</time></trkpt><trkpt lat="45.63387695995115" lon="2.383984747802546"><ele>776.0</ele><time>2026-03-29T13:58:05Z</time></trkpt><trkpt lat="45.633874718232974" lon="2.3841145530170857"><ele>776.0</ele><time>2026-03-29T13:58:08Z</time></trkpt><trkpt lat="45.63387451708385" lon="2.3842433304267945"><ele>776.0</ele><time>2026-03-29T13:58:11Z</time></trkpt><trkpt lat="45.63386991003395" lon="2.3843683024366547"><ele>776.0000000000001</ele><time>2026-03-29T13:58:14Z</time></trkpt><trkpt lat="45.6338680601651" lon="2.384490237389596"><ele>776.0</ele><time>2026-03-29T13:58:17Z</time></trkpt><trkpt lat="45.63386652480339" lon="2.3846140908173425"><ele>775.6666666666667</ele><time>2026-03-29T13:58:20Z</time></trkpt><trkpt lat="45.63386785860303" lon="2.3847347496678646"><ele>775.3333333333334</ele><time>2026-03-29T13:58:23Z</time></trkpt><trkpt lat="45.63388259433951" lon="2.3848410517753345"><ele>775.0</ele><time>2026-03-29T13:58:26Z</time></trkpt><trkpt lat="45.63390944475584" lon="2.384936599581925"><ele>774.6666666666667</ele><time>2026-03-29T13:58:31Z</time></trkpt><trkpt lat="45.633964567628254" lon="2.3849986443192424"><ele>774.3333333333334</ele><time>2026-03-29T13:58:36Z</time></trkpt><trkpt lat="45.634033701738176" lon="2.3850193621180975"><ele>774.0</ele><time>2026-03-29T13:58:40Z</time></trkpt><trkpt lat="45.63411108685685" lon="2.38502152439849"><ele>774.0</ele><time>2026-03-29T13:58:44Z</time></trkpt><trkpt lat="45.6341789096768" lon="2.385025851775717"><ele>774.0</ele><time>2026-03-29T13:58:48Z</time></trkpt><trkpt lat="45.63424564791187" lon="2.3850203480237497"><ele>774.0</ele><time>2026-03-29T13:58:52Z</time></trkpt><trkpt lat="45.63432905460866" lon="2.385007765451401"><ele>774.0</ele><time>2026-03-29T13:58:55.999Z</time></trkpt><trkpt lat="45.634397142259076" lon="2.3849935763088337"><ele>774.0</ele><time>2026-03-29T13:58:58.999Z</time></trkpt><trkpt lat="45.6344757489762" lon="2.3849875223685357"><ele>774.0</ele><time>2026-03-29T13:59:02.999Z</time></trkpt><trkpt lat="45.63453883717356" lon="2.3849578449125057"><ele>774.0</ele><time>2026-03-29T13:59:05.999Z</time></trkpt><trkpt lat="45.63460940746206" lon="2.384930496265402"><ele>774.1428571428571</ele><time>2026-03-29T13:59:08.999Z</time></trkpt><trkpt lat="45.634678808872835" lon="2.3849144994864524"><ele>774.2857142857143</ele><time>2026-03-29T13:59:11.999Z</time></trkpt><trkpt lat="45.634745348074084" lon="2.3849090134197777"><ele>774.4285714285713</ele><time>2026-03-29T13:59:14.999Z</time></trkpt><trkpt lat="45.634818113475625" lon="2.3849022080747355"><ele>774.5714285714286</ele><time>2026-03-29T13:59:17.999Z</time></trkpt><trkpt lat="45.63489460914536" lon="2.384902947179153"><ele>774.7142857142857</ele><time>2026-03-29T13:59:21.999Z</time></trkpt><trkpt lat="45.63497797269946" lon="2.384890531194952"><ele>774.8571428571428</ele><time>2026-03-29T13:59:25.999Z</time></trkpt><trkpt lat="45.63505072737721" lon="2.384876703272055"><ele>775.0</ele><time>2026-03-29T13:59:29.999Z</time></trkpt><trkpt lat="45.63511474796269" lon="2.384845852417014"><ele>774.9999999999999</ele><time>2026-03-29T13:59:32.999Z</time></trkpt><trkpt lat="45.635187197137405" lon="2.384816207558711"><ele>775.0</ele><time>2026-03-29T13:59:35.999Z</time></trkpt><trkpt lat="45.63526623256785" lon="2.3847815025853905"><ele>775.0</ele><time>2026-03-29T13:59:38.999Z</time></trkpt><trkpt lat="45.635345383740244" lon="2.3847605031871426"><ele>775.0</ele><time>2026-03-29T13:59:41.999Z</time></trkpt><trkpt lat="45.63541768129363" lon="2.3847441034152355"><ele>775.0</ele><time>2026-03-29T13:59:44.999Z</time></trkpt><trkpt lat="45.635487324077005" lon="2.384730182635044"><ele>774.9999999999999</ele><time>2026-03-29T13:59:48Z</time></trkpt><trkpt lat="45.63555266266915" lon="2.38471752537167"><ele>775.0</ele><time>2026-03-29T13:59:51Z</time></trkpt><trkpt lat="45.635626896361885" lon="2.3846945422859025"><ele>774.8571428571428</ele><time>2026-03-29T13:59:54Z</time></trkpt><trkpt lat="45.635694946367565" lon="2.3846791390543776"><ele>774.7142857142857</ele><time>2026-03-29T13:59:57Z</time></trkpt><trkpt lat="45.63576528017294" lon="2.3846601777876697"><ele>774.5714285714286</ele><time>2026-03-29T14:00:00Z</time></trkpt><trkpt lat="45.635830704909594" lon="2.384638985131969"><ele>774.4285714285713</ele><time>2026-03-29T14:00:03Z</time></trkpt><trkpt lat="45.63591222592445" lon="2.38461414953873"><ele>774.2857142857143</ele><time>2026-03-29T14:00:07Z</time></trkpt><trkpt lat="45.63599204034185" lon="2.384592476665544"><ele>774.1428571428571</ele><time>2026-03-29T14:00:11Z</time></trkpt><trkpt lat="45.636063474848406" lon="2.3845896578808414"><ele>774.0</ele><time>2026-03-29T14:00:15Z</time></trkpt><trkpt lat="45.63614127527408" lon="2.384614325000407"><ele>774.5714285714286</ele><time>2026-03-29T14:00:19Z</time></trkpt><trkpt lat="45.636204968983165" lon="2.38465131661366"><ele>775.1428571428571</ele><time>2026-03-29T14:00:23Z</time></trkpt><trkpt lat="45.636262951010195" lon="2.38469325273195"><ele>775.7142857142858</ele><time>2026-03-29T14:00:28Z</time></trkpt><trkpt lat="45.63631862648668" lon="2.3847353828163484"><ele>776.2857142857142</ele><time>2026-03-29T14:00:32Z</time></trkpt><trkpt lat="45.63637351079056" lon="2.3847819327496427"><ele>776.8571428571428</ele><time>2026-03-29T14:00:48Z</time></trkpt><trkpt lat="45.63643111735024" lon="2.3848184303452045"><ele>777.4285714285714</ele><time>2026-03-29T14:00:56Z</time></trkpt><trkpt lat="45.63649416154304" lon="2.384855744754264"><ele>778.0</ele><time>2026-03-29T14:01:03.999Z</time></trkpt><trkpt lat="45.63655304765754" lon="2.3848933396955454"><ele>778.5714285714286</ele><time>2026-03-29T14:01:10.999Z</time></trkpt><trkpt lat="45.63661030609025" lon="2.3849346224941135"><ele>779.1428571428571</ele><time>2026-03-29T14:01:19.999Z</time></trkpt><trkpt lat="45.6366667412411" lon="2.3849766380371933"><ele>779.7142857142857</ele><time>2026-03-29T14:01:28.999Z</time></trkpt><trkpt lat="45.63674142051309" lon="2.3850344639210697"><ele>780.2857142857142</ele><time>2026-03-29T14:02:04Z</time></trkpt><trkpt lat="45.63680497884863" lon="2.3850723218169665"><ele>780.8571428571429</ele><time>2026-03-29T14:02:15Z</time></trkpt><trkpt lat="45.63686871902401" lon="2.3851097769224125"><ele>781.4285714285713</ele><time>2026-03-29T14:02:25Z</time></trkpt><trkpt lat="45.6369273925151" lon="2.385157783296222"><ele>782.0</ele><time>2026-03-29T14:02:35Z</time></trkpt><trkpt lat="45.636986169877375" lon="2.385195391355361"><ele>783.7142857142857</ele><time>2026-03-29T14:02:45Z</time></trkpt><trkpt lat="45.63703938765824" lon="2.385245032397484"><ele>785.4285714285714</ele><time>2026-03-29T14:03:00Z</time></trkpt><trkpt lat="45.637097704072865" lon="2.3852972746230363"><ele>787.1428571428571</ele><time>2026-03-29T14:03:09Z</time></trkpt><trkpt lat="45.63715863000487" lon="2.3853435853089273"><ele>788.8571428571429</ele><time>2026-03-29T14:03:17.999Z</time></trkpt><trkpt lat="45.63721545267338" lon="2.385384018882825"><ele>790.5714285714286</ele><time>2026-03-29T14:03:25.999Z</time></trkpt><trkpt lat="45.637276300640465" lon="2.385423291595263"><ele>792.2857142857142</ele><time>2026-03-29T14:03:33.999Z</time></trkpt><trkpt lat="45.63733576837797" lon="2.3854702164426986"><ele>794.0</ele><time>2026-03-29T14:03:45.999Z</time></trkpt><trkpt lat="45.6373985372912" lon="2.3855018837379087"><ele>794.2857142857142</ele><time>2026-03-29T14:04:15Z</time></trkpt><trkpt lat="45.63745459533279" lon="2.3855514512631717"><ele>794.5714285714286</ele><time>2026-03-29T14:04:32Z</time></trkpt><trkpt lat="45.63750980859522" lon="2.385600674624401"><ele>794.8571428571429</ele><time>2026-03-29T14:04:42Z</time></trkpt><trkpt lat="45.637566591781194" lon="2.38565519072852"><ele>795.1428571428571</ele><time>2026-03-29T14:04:53Z</time></trkpt><trkpt lat="45.63762098181989" lon="2.385703004815476"><ele>795.4285714285714</ele><time>2026-03-29T14:05:03Z</time></trkpt><trkpt lat="45.63767941714791" lon="2.3857501153181215"><ele>795.7142857142857</ele><time>2026-03-29T14:05:24.999Z</time></trkpt><trkpt lat="45.637735614541214" lon="2.3858056174644293"><ele>796.0</ele><time>2026-03-29T14:05:35.999Z</time></trkpt><trkpt lat="45.63779366518834" lon="2.3858465543717124"><ele>798.3333333333333</ele><time>2026-03-29T14:05:48.999Z</time></trkpt><trkpt lat="45.63785028751494" lon="2.3858888577675796"><ele>800.6666666666666</ele><time>2026-03-29T14:06:01.999Z</time></trkpt><trkpt lat="45.637908823918494" lon="2.3859283379787817"><ele>803.0</ele><time>2026-03-29T14:06:12Z</time></trkpt><trkpt lat="45.637967813392514" lon="2.385962770825512"><ele>805.3333333333333</ele><time>2026-03-29T14:06:22Z</time></trkpt><trkpt lat="45.638030885495844" lon="2.385974292051492"><ele>807.6666666666666</ele><time>2026-03-29T14:06:33Z</time></trkpt><trkpt lat="45.63809307003724" lon="2.3859253973759325"><ele>810.0</ele><time>2026-03-29T14:07:36.999Z</time></trkpt><trkpt lat="45.63820285669585" lon="2.38601197357562"><ele>809.9999999999999</ele><time>2026-03-29T14:09:26Z</time></trkpt><trkpt lat="45.63826682304473" lon="2.3860253556030675"><ele>810.0</ele><time>2026-03-29T14:09:29.999Z</time></trkpt><trkpt lat="45.63833034119121" lon="2.3860476886640187"><ele>810.0</ele><time>2026-03-29T14:09:33.999Z</time></trkpt><trkpt lat="45.63839960953661" lon="2.3860590846980734"><ele>810.0</ele><time>2026-03-29T14:09:37.999Z</time></trkpt><trkpt lat="45.63847104109261" lon="2.386071629662233"><ele>810.0</ele><time>2026-03-29T14:09:41.999Z</time></trkpt><trkpt lat="45.638536566492036" lon="2.3860809712612743"><ele>809.9999999999999</ele><time>2026-03-29T14:09:45.999Z</time></trkpt><trkpt lat="45.63860115195696" lon="2.386089140981642"><ele>810.0</ele><time>2026-03-29T14:09:49.999Z</time></trkpt><trkpt lat="45.638671742290356" lon="2.386095260005935"><ele>811.8571428571428</ele><time>2026-03-29T14:09:54.999Z</time></trkpt><trkpt lat="45.63873702042234" lon="2.38610194586785"><ele>813.7142857142857</ele><time>2026-03-29T14:09:59.999Z</time></trkpt><trkpt lat="45.63880788385101" lon="2.3861256531783104"><ele>815.5714285714286</ele><time>2026-03-29T14:10:05.999Z</time></trkpt><trkpt lat="45.638874806228706" lon="2.3861306290097954"><ele>817.4285714285713</ele><time>2026-03-29T14:10:09.999Z</time></trkpt><trkpt lat="45.63894171104372" lon="2.386135683234777"><ele>819.2857142857143</ele><time>2026-03-29T14:10:24Z</time></trkpt><trkpt lat="45.63901727363705" lon="2.3861553778677798"><ele>821.1428571428571</ele><time>2026-03-29T14:10:29Z</time></trkpt><trkpt lat="45.63908808938407" lon="2.3861585834300283"><ele>823.0</ele><time>2026-03-29T14:10:35Z</time></trkpt><trkpt lat="45.63915482192052" lon="2.386172570945225"><ele>823.0</ele><time>2026-03-29T14:10:41Z</time></trkpt><trkpt lat="45.63922035062096" lon="2.386193766901424"><ele>823.0</ele><time>2026-03-29T14:10:47Z</time></trkpt><trkpt lat="45.63929425043616" lon="2.386212984171431"><ele>823.0</ele><time>2026-03-29T14:10:53Z</time></trkpt><trkpt lat="45.63937049868395" lon="2.38622674467611"><ele>823.0</ele><time>2026-03-29T14:10:58Z</time></trkpt><trkpt lat="45.639440820798356" lon="2.3862525657074958"><ele>823.0</ele><time>2026-03-29T14:11:08Z</time></trkpt><trkpt lat="45.63950963374809" lon="2.3862573883721074"><ele>823.0</ele><time>2026-03-29T14:11:16Z</time></trkpt><trkpt lat="45.6395763069633" lon="2.3862439245089515"><ele>823.0</ele><time>2026-03-29T14:11:26Z</time></trkpt><trkpt lat="45.63964400802948" lon="2.386239519935183"><ele>823.8571428571429</ele><time>2026-03-29T14:11:33.999Z</time></trkpt><trkpt lat="45.63971513241459" lon="2.3862459868290418"><ele>824.7142857142858</ele><time>2026-03-29T14:11:40.999Z</time></trkpt><trkpt lat="45.63978036702461" lon="2.3862343616164186"><ele>825.5714285714286</ele><time>2026-03-29T14:11:46.999Z</time></trkpt><trkpt lat="45.639844203262314" lon="2.386243392610089"><ele>826.4285714285714</ele><time>2026-03-29T14:11:53.999Z</time></trkpt><trkpt lat="45.63991593955207" lon="2.386250575116354"><ele>827.2857142857142</ele><time>2026-03-29T14:12:01.999Z</time></trkpt><trkpt lat="45.639984304081345" lon="2.3862509607463047"><ele>828.1428571428571</ele><time>2026-03-29T14:12:09.999Z</time></trkpt><trkpt lat="45.64004815160894" lon="2.386277549000723"><ele>829.0</ele><time>2026-03-29T14:12:19.999Z</time></trkpt><trkpt lat="45.64014127301519" lon="2.386248316340012"><ele>829.0</ele><time>2026-03-29T14:12:55Z</time></trkpt><trkpt lat="45.64018610018471" lon="2.386173572878058"><ele>829.0</ele><time>2026-03-29T14:12:59Z</time></trkpt><trkpt lat="45.64023494236563" lon="2.3860883881756476"><ele>829.0</ele><time>2026-03-29T14:13:04Z</time></trkpt><trkpt lat="45.64027827687038" lon="2.3860202274514783"><ele>829.0</ele><time>2026-03-29T14:13:08Z</time></trkpt><trkpt lat="45.64032499195517" lon="2.3859295169147554"><ele>829.0</ele><time>2026-03-29T14:13:13Z</time></trkpt><trkpt lat="45.64036446214864" lon="2.3858517315863206"><ele>829.0</ele><time>2026-03-29T14:13:17Z</time></trkpt><trkpt lat="45.64040674251136" lon="2.385769696410474"><ele>829.0</ele><time>2026-03-29T14:13:21Z</time></trkpt><trkpt lat="45.64044919716912" lon="2.3856835436495407"><ele>828.9999999999999</ele><time>2026-03-29T14:13:25Z</time></trkpt><trkpt lat="45.64048843988126" lon="2.3855918509036558"><ele>829.0</ele><time>2026-03-29T14:13:29Z</time></trkpt><trkpt lat="45.640534194942134" lon="2.3855069095913937"><ele>829.0</ele><time>2026-03-29T14:13:32.999Z</time></trkpt><trkpt lat="45.6405773026444" lon="2.3854141700104425"><ele>829.0</ele><time>2026-03-29T14:13:36.999Z</time></trkpt><trkpt lat="45.64061305481697" lon="2.385319849787102"><ele>828.9999999999999</ele><time>2026-03-29T14:13:40.999Z</time></trkpt><trkpt lat="45.64065739602707" lon="2.3852365110640616"><ele>829.0</ele><time>2026-03-29T14:13:44.999Z</time></trkpt><trkpt lat="45.640695090093146" lon="2.3851380269465023"><ele>829.0</ele><time>2026-03-29T14:13:49.999Z</time></trkpt><trkpt lat="45.640738487349935" lon="2.385047981899934"><ele>829.0</ele><time>2026-03-29T14:13:53.999Z</time></trkpt><trkpt lat="45.64077312218988" lon="2.3849537149638125"><ele>829.0</ele><time>2026-03-29T14:13:57.999Z</time></trkpt><trkpt lat="45.64081227688994" lon="2.3848641103184245"><ele>829.0</ele><time>2026-03-29T14:14:01.999Z</time></trkpt><trkpt lat="45.640848279200725" lon="2.384775731446696"><ele>829.0</ele><time>2026-03-29T14:14:05.999Z</time></trkpt><trkpt lat="45.6408723558299" lon="2.384670769170711"><ele>829.0</ele><time>2026-03-29T14:14:09.999Z</time></trkpt><trkpt lat="45.640899036610016" lon="2.3845713137463314"><ele>829.0</ele><time>2026-03-29T14:14:13.999Z</time></trkpt><trkpt lat="45.64092044354993" lon="2.3844843503441027"><ele>828.2857142857142</ele><time>2026-03-29T14:14:17.999Z</time></trkpt><trkpt lat="45.64093129179196" lon="2.3843928614223686"><ele>827.5714285714286</ele><time>2026-03-29T14:14:20.999Z</time></trkpt><trkpt lat="45.64094912397016" lon="2.384305007259361"><ele>826.8571428571429</ele><time>2026-03-29T14:14:23.999Z</time></trkpt><trkpt lat="45.64099211054258" lon="2.384221108888238"><ele>826.1428571428571</ele><time>2026-03-29T14:14:27.999Z</time></trkpt><trkpt lat="45.641012356300266" lon="2.384128494040972"><ele>825.4285714285714</ele><time>2026-03-29T14:14:31Z</time></trkpt><trkpt lat="45.64102852825157" lon="2.3840410544121173"><ele>824.7142857142857</ele><time>2026-03-29T14:14:34Z</time></trkpt><trkpt lat="45.641047078487446" lon="2.383944794361244"><ele>824.0</ele><time>2026-03-29T14:14:37Z</time></trkpt><trkpt lat="45.641064075694715" lon="2.3838543084523396"><ele>823.4285714285713</ele><time>2026-03-29T14:14:40Z</time></trkpt><trkpt lat="45.641074284020384" lon="2.3837619128519796"><ele>822.8571428571429</ele><time>2026-03-29T14:14:43Z</time></trkpt><trkpt lat="45.64108650748283" lon="2.3836508971142965"><ele>822.2857142857142</ele><time>2026-03-29T14:14:46Z</time></trkpt><trkpt lat="45.64110891892868" lon="2.3835439738262574"><ele>821.7142857142857</ele><time>2026-03-29T14:14:49Z</time></trkpt><trkpt lat="45.64113151960768" lon="2.383434996790165"><ele>821.1428571428571</ele><time>2026-03-29T14:14:53Z</time></trkpt><trkpt lat="45.64114658492541" lon="2.3833223067889104"><ele>820.5714285714286</ele><time>2026-03-29T14:14:57Z</time></trkpt><trkpt lat="45.64116206793571" lon="2.3832328658608675"><ele>820.0</ele><time>2026-03-29T14:15:00Z</time></trkpt><trkpt lat="45.64117445171926" lon="2.3831390035942444"><ele>819.8333333333333</ele><time>2026-03-29T14:15:03Z</time></trkpt><trkpt lat="45.641189586926885" lon="2.383022187934165"><ele>819.6666666666666</ele><time>2026-03-29T14:15:07Z</time></trkpt><trkpt lat="45.641193471050265" lon="2.382920162277184"><ele>819.5</ele><time>2026-03-29T14:15:10Z</time></trkpt><trkpt lat="45.641217056432964" lon="2.382824172208705"><ele>819.3333333333333</ele><time>2026-03-29T14:15:13Z</time></trkpt><trkpt lat="45.6412296599875" lon="2.382722584647384"><ele>819.1666666666666</ele><time>2026-03-29T14:15:16Z</time></trkpt><trkpt lat="45.641251930871796" lon="2.3826041012424004"><ele>819.0</ele><time>2026-03-29T14:15:19Z</time></trkpt><trkpt lat="45.641291426716364" lon="2.38250111603285"><ele>818.1666666666666</ele><time>2026-03-29T14:15:22Z</time></trkpt><trkpt lat="45.64134564677966" lon="2.382396717651121"><ele>817.3333333333333</ele><time>2026-03-29T14:15:25Z</time></trkpt><trkpt lat="45.64140678960387" lon="2.3823071256442834"><ele>816.5</ele><time>2026-03-29T14:15:28Z</time></trkpt><trkpt lat="45.64146205260393" lon="2.3822258254984554"><ele>815.6666666666666</ele><time>2026-03-29T14:15:31Z</time></trkpt><trkpt lat="45.641520634662484" lon="2.382158600963265"><ele>814.8333333333333</ele><time>2026-03-29T14:15:33.999Z</time></trkpt><trkpt lat="45.6415848945867" lon="2.3820596716857576"><ele>814.0</ele><time>2026-03-29T14:15:36.999Z</time></trkpt><trkpt lat="45.64163107913498" lon="2.3819967436205474"><ele>812.6666666666666</ele><time>2026-03-29T14:15:38.999Z</time></trkpt><trkpt lat="45.641687737988605" lon="2.381911882674841"><ele>811.3333333333333</ele><time>2026-03-29T14:15:41.999Z</time></trkpt><trkpt lat="45.64174308453985" lon="2.3818291460534047"><ele>810.0</ele><time>2026-03-29T14:15:44.999Z</time></trkpt><trkpt lat="45.6417950749466" lon="2.3817330752256867"><ele>808.6666666666667</ele><time>2026-03-29T14:15:47.999Z</time></trkpt><trkpt lat="45.641844054116945" lon="2.3816485442898303"><ele>807.3333333333334</ele><time>2026-03-29T14:15:50.999Z</time></trkpt><trkpt lat="45.64188555422764" lon="2.3815574200614953"><ele>806.0</ele><time>2026-03-29T14:15:53.999Z</time></trkpt><trkpt lat="45.6419323663569" lon="2.3814568917404078"><ele>806.5714285714286</ele><time>2026-03-29T14:15:56.999Z</time></trkpt><trkpt lat="45.64197508831896" lon="2.3813507324494676"><ele>807.1428571428571</ele><time>2026-03-29T14:15:59.999Z</time></trkpt><trkpt lat="45.64201330201073" lon="2.381251157412649"><ele>807.7142857142857</ele><time>2026-03-29T14:16:03.999Z</time></trkpt><trkpt lat="45.642030499790614" lon="2.3811627582796056"><ele>808.2857142857142</ele><time>2026-03-29T14:16:06.999Z</time></trkpt><trkpt lat="45.642070192748854" lon="2.3810812144280127"><ele>808.8571428571429</ele><time>2026-03-29T14:17:04Z</time></trkpt><trkpt lat="45.642095668808004" lon="2.3809825811444636"><ele>809.4285714285713</ele><time>2026-03-29T14:17:07Z</time></trkpt><trkpt lat="45.642134523342136" lon="2.380909271497131"><ele>810.0</ele><time>2026-03-29T14:17:09Z</time></trkpt><trkpt lat="45.64218947983532" lon="2.38081071496352"><ele>809.9999999999999</ele><time>2026-03-29T14:17:12Z</time></trkpt><trkpt lat="45.64225763617638" lon="2.3807105333574943"><ele>810.0</ele><time>2026-03-29T14:17:15Z</time></trkpt><trkpt lat="45.64230106976232" lon="2.380637015377277"><ele>810.0</ele><time>2026-03-29T14:17:17Z</time></trkpt><trkpt lat="45.642351592841436" lon="2.380564343776841"><ele>810.0</ele><time>2026-03-29T14:17:19Z</time></trkpt><trkpt lat="45.64240213220475" lon="2.3804943740110662"><ele>810.0</ele><time>2026-03-29T14:17:21Z</time></trkpt><trkpt lat="45.642453351504855" lon="2.3804302581874044"><ele>809.9999999999999</ele><time>2026-03-29T14:17:23Z</time></trkpt><trkpt lat="45.64250071201908" lon="2.380366106869852"><ele>810.0</ele><time>2026-03-29T14:17:25Z</time></trkpt><trkpt lat="45.64254927619334" lon="2.3803017395447985"><ele>809.0</ele><time>2026-03-29T14:17:27Z</time></trkpt><trkpt lat="45.642619928927566" lon="2.3802157778289885"><ele>808.0</ele><time>2026-03-29T14:17:30Z</time></trkpt><trkpt lat="45.642678147922105" lon="2.380110403340009"><ele>807.0</ele><time>2026-03-29T14:17:33Z</time></trkpt><trkpt lat="45.642706855387566" lon="2.380029181742593"><ele>806.0</ele><time>2026-03-29T14:17:35Z</time></trkpt><trkpt lat="45.642735423776045" lon="2.379934722468579"><ele>805.0</ele><time>2026-03-29T14:17:38Z</time></trkpt><trkpt lat="45.64273376860493" lon="2.379841597480913"><ele>804.0</ele><time>2026-03-29T14:17:41Z</time></trkpt><trkpt lat="45.642730118679545" lon="2.379736642220822"><ele>804.3333333333334</ele><time>2026-03-29T14:17:43.999Z</time></trkpt><trkpt lat="45.642709941707864" lon="2.3796228576922154"><ele>804.6666666666667</ele><time>2026-03-29T14:17:46.999Z</time></trkpt><trkpt lat="45.64269836278706" lon="2.3795050636618744"><ele>805.0</ele><time>2026-03-29T14:17:49.999Z</time></trkpt><trkpt lat="45.64269174491852" lon="2.3793887620654193"><ele>805.3333333333334</ele><time>2026-03-29T14:17:52.999Z</time></trkpt><trkpt lat="45.642673178932036" lon="2.379276237772284"><ele>805.6666666666667</ele><time>2026-03-29T14:17:55.999Z</time></trkpt><trkpt lat="45.64266154056265" lon="2.379178101772013"><ele>806.0</ele><time>2026-03-29T14:17:58.999Z</time></trkpt><trkpt lat="45.64266292758818" lon="2.379081205430671"><ele>806.0</ele><time>2026-03-29T14:18:01.999Z</time></trkpt><trkpt lat="45.64267930038576" lon="2.3789832227613457"><ele>806.0</ele><time>2026-03-29T14:18:05.999Z</time></trkpt><trkpt lat="45.64271638294273" lon="2.3788815034345414"><ele>806.0</ele><time>2026-03-29T14:18:09.999Z</time></trkpt><trkpt lat="45.642750595718596" lon="2.3788047363796156"><ele>806.0</ele><time>2026-03-29T14:18:13.999Z</time></trkpt><trkpt lat="45.64278046171031" lon="2.378718544282148"><ele>806.0</ele><time>2026-03-29T14:18:37.999Z</time></trkpt><trkpt lat="45.64281249480221" lon="2.3786337829486457"><ele>806.0</ele><time>2026-03-29T14:18:42Z</time></trkpt><trkpt lat="45.642849621660616" lon="2.378539312011131"><ele>806.0</ele><time>2026-03-29T14:18:47Z</time></trkpt><trkpt lat="45.642882206583195" lon="2.3784443126258186"><ele>807.2857142857143</ele><time>2026-03-29T14:18:52Z</time></trkpt><trkpt lat="45.64291896041023" lon="2.3783493585224065"><ele>808.5714285714286</ele><time>2026-03-29T14:18:56Z</time></trkpt><trkpt lat="45.642957028412994" lon="2.3782600107515153"><ele>809.8571428571429</ele><time>2026-03-29T14:19:01Z</time></trkpt><trkpt lat="45.64299062701638" lon="2.3781815523508336"><ele>811.1428571428571</ele><time>2026-03-29T14:19:05Z</time></trkpt><trkpt lat="45.64302097585586" lon="2.3780920093083835"><ele>812.4285714285713</ele><time>2026-03-29T14:19:09Z</time></trkpt><trkpt lat="45.643069326217756" lon="2.378001131160143"><ele>813.7142857142857</ele><time>2026-03-29T14:19:13Z</time></trkpt><trkpt lat="45.64310824991838" lon="2.377923394317973"><ele>815.0</ele><time>2026-03-29T14:19:17Z</time></trkpt><trkpt lat="45.643156094638286" lon="2.377857651710575"><ele>815.0</ele><time>2026-03-29T14:19:21Z</time></trkpt><trkpt lat="45.64322179656066" lon="2.3777879101216457"><ele>815.0</ele><time>2026-03-29T14:19:26Z</time></trkpt><trkpt lat="45.64326976750834" lon="2.377718193999409"><ele>815.0</ele><time>2026-03-29T14:19:31Z</time></trkpt><trkpt lat="45.643323293931566" lon="2.3776504409809993"><ele>815.0</ele><time>2026-03-29T14:19:36Z</time></trkpt><trkpt lat="45.643375115432676" lon="2.377588439213608"><ele>815.0</ele><time>2026-03-29T14:19:40Z</time></trkpt><trkpt lat="45.643423716059914" lon="2.3775309580829638"><ele>815.0</ele><time>2026-03-29T14:19:44Z</time></trkpt><trkpt lat="45.64349699633595" lon="2.377483355675698"><ele>815.0</ele><time>2026-03-29T14:19:49Z</time></trkpt><trkpt lat="45.64356438416678" lon="2.3774513853533406"><ele>815.7142857142857</ele><time>2026-03-29T14:19:54Z</time></trkpt><trkpt lat="45.64363287112526" lon="2.37743043579803"><ele>816.4285714285713</ele><time>2026-03-29T14:20:00.999Z</time></trkpt><trkpt lat="45.643695018191934" lon="2.377445701686873"><ele>817.1428571428571</ele><time>2026-03-29T14:20:05.999Z</time></trkpt><trkpt lat="45.643764355243846" lon="2.377463436091976"><ele>817.8571428571429</ele><time>2026-03-29T14:20:11.999Z</time></trkpt><trkpt lat="45.64382894276516" lon="2.377456272383796"><ele>818.5714285714286</ele><time>2026-03-29T14:20:26.999Z</time></trkpt><trkpt lat="45.643893317441886" lon="2.3774637342723888"><ele>819.2857142857143</ele><time>2026-03-29T14:22:29.999Z</time></trkpt><trkpt lat="45.64395564491299" lon="2.3774854978029896"><ele>820.0</ele><time>2026-03-29T14:22:38.999Z</time></trkpt><trkpt lat="45.64401966879755" lon="2.377494174187376"><ele>820.0</ele><time>2026-03-29T14:22:48.999Z</time></trkpt><trkpt lat="45.6440887995497" lon="2.3775066144306596"><ele>820.0</ele><time>2026-03-29T14:23:03Z</time></trkpt><trkpt lat="45.64415714072284" lon="2.377500714395467"><ele>820.0</ele><time>2026-03-29T14:23:11Z</time></trkpt><trkpt lat="45.64422220497676" lon="2.3774988027210515"><ele>820.0</ele><time>2026-03-29T14:23:19Z</time></trkpt><trkpt lat="45.64429336713053" lon="2.377496326093058"><ele>820.0</ele><time>2026-03-29T14:23:27Z</time></trkpt><trkpt lat="45.644358923150875" lon="2.377490533029581"><ele>820.0</ele><time>2026-03-29T14:23:37Z</time></trkpt><trkpt lat="45.64442444409814" lon="2.3774916259871484"><ele>820.0</ele><time>2026-03-29T14:23:47Z</time></trkpt><trkpt lat="45.6444970839729" lon="2.3774929055428817"><ele>821.8571428571429</ele><time>2026-03-29T14:23:56Z</time></trkpt><trkpt lat="45.64456145680361" lon="2.377520627796447"><ele>823.7142857142857</ele><time>2026-03-29T14:24:05Z</time></trkpt><trkpt lat="45.64463565582505" lon="2.3775338297118527"><ele>825.5714285714286</ele><time>2026-03-29T14:24:24.999Z</time></trkpt><trkpt lat="45.64470114068361" lon="2.3775455913580337"><ele>827.4285714285714</ele><time>2026-03-29T14:24:36.999Z</time></trkpt><trkpt lat="45.64477304190007" lon="2.377544355971031"><ele>829.2857142857142</ele><time>2026-03-29T14:24:48.999Z</time></trkpt><trkpt lat="45.64483858600525" lon="2.3775365807358035"><ele>831.1428571428571</ele><time>2026-03-29T14:25:00Z</time></trkpt><trkpt lat="45.64491454293551" lon="2.377541639445222"><ele>833.0</ele><time>2026-03-29T14:25:16Z</time></trkpt><trkpt lat="45.645010948470166" lon="2.377538504138066"><ele>833.0</ele><time>2026-03-29T14:25:49Z</time></trkpt><trkpt lat="45.64507470447485" lon="2.37755911163412"><ele>833.0</ele><time>2026-03-29T14:26:02Z</time></trkpt><trkpt lat="45.64512264393683" lon="2.377625943194273"><ele>833.0</ele><time>2026-03-29T14:26:20.999Z</time></trkpt><trkpt lat="45.645168214064576" lon="2.3776928679545435"><ele>833.0</ele><time>2026-03-29T14:26:32.999Z</time></trkpt><trkpt lat="45.645203887519926" lon="2.377776115472839"><ele>833.0</ele><time>2026-03-29T14:26:51.999Z</time></trkpt><trkpt lat="45.64521830807162" lon="2.3778645014340327"><ele>833.0</ele><time>2026-03-29T14:27:16Z</time></trkpt><trkpt lat="45.64522865758375" lon="2.377956548041867"><ele>833.0</ele><time>2026-03-29T14:27:26Z</time></trkpt><trkpt lat="45.64523842686244" lon="2.378049981117662"><ele>839.0</ele><time>2026-03-29T14:27:38Z</time></trkpt><trkpt lat="45.645248189501935" lon="2.378140646695467"><ele>839.0</ele><time>2026-03-29T14:27:47Z</time></trkpt><trkpt lat="45.645252149551226" lon="2.3782347867233464"><ele>839.0</ele><time>2026-03-29T14:27:54Z</time></trkpt><trkpt lat="45.645256802999135" lon="2.378325155023443"><ele>839.0</ele><time>2026-03-29T14:28:02Z</time></trkpt><trkpt lat="45.64526159602459" lon="2.3784238626710934"><ele>839.0</ele><time>2026-03-29T14:28:08.999Z</time></trkpt><trkpt lat="45.645262820503525" lon="2.3785168302470034"><ele>839.0</ele><time>2026-03-29T14:28:16.999Z</time></trkpt><trkpt lat="45.64523699959379" lon="2.378638348643885"><ele>839.0</ele><time>2026-03-29T14:29:17Z</time></trkpt></trkseg><trkseg><trkpt lat="45.64530964080966" lon="2.378626468648003"><ele>850.0</ele><time>2026-03-29T14:43:20.999Z</time></trkpt><trkpt lat="45.64530631465002" lon="2.378731439226044"><ele>850.0</ele><time>2026-03-29T14:43:42.999Z</time></trkpt><trkpt lat="45.64530695219175" lon="2.3788336261927383"><ele>850.0</ele><time>2026-03-29T14:43:46.999Z</time></trkpt><trkpt lat="45.64530006566926" lon="2.3789263895374346"><ele>850.0</ele><time>2026-03-29T14:43:52.999Z</time></trkpt><trkpt lat="45.64530359915962" lon="2.379033588213905"><ele>850.0</ele><time>2026-03-29T14:43:58Z</time></trkpt><trkpt lat="45.64528872596004" lon="2.379141009488538"><ele>850.0</ele><time>2026-03-29T14:44:02Z</time></trkpt><trkpt lat="45.6452911710572" lon="2.3792385429535843"><ele>850.0</ele><time>2026-03-29T14:44:06Z</time></trkpt><trkpt lat="45.645307874706155" lon="2.379353526513809"><ele>850.1428571428571</ele><time>2026-03-29T14:44:10Z</time></trkpt><trkpt lat="45.64529713898982" lon="2.3794504738209916"><ele>850.2857142857142</ele><time>2026-03-29T14:44:13Z</time></trkpt><trkpt lat="45.64528909631561" lon="2.3795683480865426"><ele>850.4285714285714</ele><time>2026-03-29T14:44:17Z</time></trkpt><trkpt lat="45.645286940477575" lon="2.3796644664830935"><ele>850.5714285714286</ele><time>2026-03-29T14:44:20Z</time></trkpt><trkpt lat="45.64529354685518" lon="2.3797715512247883"><ele>850.7142857142858</ele><time>2026-03-29T14:44:23Z</time></trkpt><trkpt lat="45.64526247184033" lon="2.379871198752508"><ele>850.8571428571429</ele><time>2026-03-29T14:44:26Z</time></trkpt><trkpt lat="45.64526621192161" lon="2.3799731615923303"><ele>851.0</ele><time>2026-03-29T14:44:28Z</time></trkpt><trkpt lat="45.64526595779301" lon="2.380066836413105"><ele>850.0000000000001</ele><time>2026-03-29T14:44:30Z</time></trkpt><trkpt lat="45.645272104572456" lon="2.380177990182042"><ele>849.0</ele><time>2026-03-29T14:44:32Z</time></trkpt><trkpt lat="45.645273571944585" lon="2.3802934545842778"><ele>848.0</ele><time>2026-03-29T14:44:34Z</time></trkpt><trkpt lat="45.64528490889923" lon="2.3804026123744655"><ele>847.0</ele><time>2026-03-29T14:44:36Z</time></trkpt><trkpt lat="45.645292021796045" lon="2.3804980826705906"><ele>846.0000000000001</ele><time>2026-03-29T14:44:38Z</time></trkpt><trkpt lat="45.64528811960284" lon="2.3806074085051714"><ele>845.0</ele><time>2026-03-29T14:44:40Z</time></trkpt><trkpt lat="45.64534701142321" lon="2.3807466336803613"><ele>845.0000000000001</ele><time>2026-03-29T14:44:43Z</time></trkpt><trkpt lat="45.645324399225046" lon="2.3808675250246587"><ele>845.0</ele><time>2026-03-29T14:44:45Z</time></trkpt><trkpt lat="45.64532669132395" lon="2.380959072725225"><ele>845.0</ele><time>2026-03-29T14:44:46Z</time></trkpt><trkpt lat="45.64535654644505" lon="2.3810873515126367"><ele>845.0</ele><time>2026-03-29T14:44:48Z</time></trkpt><trkpt lat="45.64535399904539" lon="2.3811779866343117"><ele>845.0000000000001</ele><time>2026-03-29T14:44:49Z</time></trkpt><trkpt lat="45.64535502449961" lon="2.3813141411550904"><ele>845.0</ele><time>2026-03-29T14:44:51Z</time></trkpt><trkpt lat="45.645358015237775" lon="2.3814423942166694"><ele>844.3333333333334</ele><time>2026-03-29T14:44:53Z</time></trkpt><trkpt lat="45.64536411151264" lon="2.3815574420352164"><ele>843.6666666666667</ele><time>2026-03-29T14:44:55Z</time></trkpt><trkpt lat="45.6453620039974" lon="2.381693950335443"><ele>843.0</ele><time>2026-03-29T14:44:57Z</time></trkpt><trkpt lat="45.6453578899618" lon="2.3817988643019996"><ele>842.3333333333333</ele><time>2026-03-29T14:44:59Z</time></trkpt><trkpt lat="45.645346679231714" lon="2.381908470749946"><ele>841.6666666666666</ele><time>2026-03-29T14:45:01Z</time></trkpt><trkpt lat="45.645340071345565" lon="2.382017023233298"><ele>841.0</ele><time>2026-03-29T14:45:03Z</time></trkpt><trkpt lat="45.645331251178554" lon="2.382124696843155"><ele>839.9999999999999</ele><time>2026-03-29T14:45:05Z</time></trkpt><trkpt lat="45.64532413861369" lon="2.3822257848908484"><ele>839.0</ele><time>2026-03-29T14:45:07Z</time></trkpt><trkpt lat="45.645321550870904" lon="2.3823229551564165"><ele>838.0</ele><time>2026-03-29T14:45:09Z</time></trkpt><trkpt lat="45.645299052101066" lon="2.3824477873680014"><ele>837.0</ele><time>2026-03-29T14:45:12Z</time></trkpt><trkpt lat="45.64526519161421" lon="2.3825460210388827"><ele>835.9999999999999</ele><time>2026-03-29T14:45:15Z</time></trkpt><trkpt lat="45.645203042067706" lon="2.3826119125413046"><ele>835.0</ele><time>2026-03-29T14:45:18Z</time></trkpt><trkpt lat="45.645122124306134" lon="2.3826569656251437"><ele>833.9999999999999</ele><time>2026-03-29T14:45:20.999Z</time></trkpt><trkpt lat="45.64505196389003" lon="2.3826976699567775"><ele>833.0</ele><time>2026-03-29T14:45:23.999Z</time></trkpt><trkpt lat="45.64497023953841" lon="2.3827562521252754"><ele>832.0</ele><time>2026-03-29T14:45:26.999Z</time></trkpt><trkpt lat="45.644909677416734" lon="2.38278998402987"><ele>831.0</ele><time>2026-03-29T14:45:28.999Z</time></trkpt><trkpt lat="45.64482322360389" lon="2.3828289132470286"><ele>829.9999999999999</ele><time>2026-03-29T14:45:31.999Z</time></trkpt><trkpt lat="45.644736906987355" lon="2.3828627420614277"><ele>829.0</ele><time>2026-03-29T14:45:34.999Z</time></trkpt><trkpt lat="45.6446524849854" lon="2.382872251568273"><ele>828.9999999999999</ele><time>2026-03-29T14:45:37.999Z</time></trkpt><trkpt lat="45.64458028150511" lon="2.3828724274787447"><ele>829.0</ele><time>2026-03-29T14:45:40.999Z</time></trkpt><trkpt lat="45.644519247364045" lon="2.38292972146683"><ele>829.0</ele><time>2026-03-29T14:45:45.999Z</time></trkpt><trkpt lat="45.64449761885575" lon="2.3830245654807936"><ele>829.0</ele><time>2026-03-29T14:45:48.999Z</time></trkpt><trkpt lat="45.64449421857448" lon="2.383151376470561"><ele>828.9999999999999</ele><time>2026-03-29T14:45:51.999Z</time></trkpt><trkpt lat="45.64448542794217" lon="2.3832626640236043"><ele>829.0</ele><time>2026-03-29T14:45:54.999Z</time></trkpt><trkpt lat="45.64447504609592" lon="2.383386657666155"><ele>828.6666666666666</ele><time>2026-03-29T14:45:57.999Z</time></trkpt><trkpt lat="45.64447021033387" lon="2.3835088815862058"><ele>828.3333333333333</ele><time>2026-03-29T14:46:01Z</time></trkpt><trkpt lat="45.64446043426508" lon="2.3836328400077718"><ele>828.0</ele><time>2026-03-29T14:46:04Z</time></trkpt><trkpt lat="45.644455237105596" lon="2.3837251394866565"><ele>827.6666666666667</ele><time>2026-03-29T14:46:06Z</time></trkpt><trkpt lat="45.644453246358296" lon="2.383828709893786"><ele>827.3333333333334</ele><time>2026-03-29T14:46:08Z</time></trkpt><trkpt lat="45.64443892227037" lon="2.383962086306445"><ele>827.0</ele><time>2026-03-29T14:46:11Z</time></trkpt><trkpt lat="45.644435617441545" lon="2.3840571290882533"><ele>825.7142857142858</ele><time>2026-03-29T14:46:13Z</time></trkpt><trkpt lat="45.64442740441833" lon="2.3841562278083264"><ele>824.4285714285713</ele><time>2026-03-29T14:46:15Z</time></trkpt><trkpt lat="45.64441992149882" lon="2.3842926230323345"><ele>823.1428571428571</ele><time>2026-03-29T14:46:18Z</time></trkpt><trkpt lat="45.644416955393915" lon="2.3843888863769993"><ele>821.8571428571429</ele><time>2026-03-29T14:46:20Z</time></trkpt><trkpt lat="45.644418863654195" lon="2.3844867892280694"><ele>820.5714285714287</ele><time>2026-03-29T14:46:22Z</time></trkpt><trkpt lat="45.64441801635092" lon="2.3845843266922544"><ele>819.2857142857142</ele><time>2026-03-29T14:46:24Z</time></trkpt><trkpt lat="45.64441363946968" lon="2.3846828534913436"><ele>818.0</ele><time>2026-03-29T14:46:26Z</time></trkpt><trkpt lat="45.64441593339916" lon="2.384788559069474"><ele>818.0000000000001</ele><time>2026-03-29T14:46:28Z</time></trkpt><trkpt lat="45.64441791779204" lon="2.3848938831579396"><ele>818.0</ele><time>2026-03-29T14:46:30Z</time></trkpt><trkpt lat="45.644421052413094" lon="2.3850007364192494"><ele>818.0</ele><time>2026-03-29T14:46:32Z</time></trkpt><trkpt lat="45.64441422871371" lon="2.3851013925092936"><ele>818.0</ele><time>2026-03-29T14:46:34Z</time></trkpt><trkpt lat="45.64441729038863" lon="2.3852216890680142"><ele>818.0000000000001</ele><time>2026-03-29T14:46:36Z</time></trkpt><trkpt lat="45.64440000217954" lon="2.3853491425318034"><ele>818.0</ele><time>2026-03-29T14:46:38Z</time></trkpt><trkpt lat="45.64440097770526" lon="2.385453353863416"><ele>817.5000000000001</ele><time>2026-03-29T14:46:40Z</time></trkpt><trkpt lat="45.64440155982578" lon="2.385552523237131"><ele>817.0</ele><time>2026-03-29T14:46:42Z</time></trkpt><trkpt lat="45.64439680303394" lon="2.385652414217741"><ele>816.5</ele><time>2026-03-29T14:46:44Z</time></trkpt><trkpt lat="45.64437832237365" lon="2.3857837212230852"><ele>816.0</ele><time>2026-03-29T14:46:46Z</time></trkpt><trkpt lat="45.644382142102096" lon="2.385899138315778"><ele>815.5000000000001</ele><time>2026-03-29T14:46:48Z</time></trkpt><trkpt lat="45.644376881170295" lon="2.386008430392444"><ele>815.0</ele><time>2026-03-29T14:46:50Z</time></trkpt><trkpt lat="45.644376522345596" lon="2.3861050291746384"><ele>815.0000000000001</ele><time>2026-03-29T14:46:52Z</time></trkpt><trkpt lat="45.64437083105776" lon="2.3862056975513104"><ele>815.0</ele><time>2026-03-29T14:46:54Z</time></trkpt><trkpt lat="45.644367004925066" lon="2.3863284205915303"><ele>815.0</ele><time>2026-03-29T14:46:57Z</time></trkpt><trkpt lat="45.644362017955565" lon="2.38644932344956"><ele>815.0</ele><time>2026-03-29T14:47:00Z</time></trkpt><trkpt lat="45.6443548798116" lon="2.386552462233324"><ele>815.0000000000001</ele><time>2026-03-29T14:47:03Z</time></trkpt><trkpt lat="45.64436403801439" lon="2.386652289574203"><ele>815.0</ele><time>2026-03-29T14:47:06Z</time></trkpt><trkpt lat="45.64435890492627" lon="2.386749280791447"><ele>814.8333333333334</ele><time>2026-03-29T14:47:09Z</time></trkpt><trkpt lat="45.644351378064364" lon="2.386859123366438"><ele>814.6666666666667</ele><time>2026-03-29T14:47:12Z</time></trkpt><trkpt lat="45.64435093637549" lon="2.386963346853748"><ele>814.5</ele><time>2026-03-29T14:47:15Z</time></trkpt><trkpt lat="45.644359580293404" lon="2.3870590487204635"><ele>814.3333333333333</ele><time>2026-03-29T14:47:18Z</time></trkpt><trkpt lat="45.644355770036334" lon="2.3871818362373913"><ele>814.1666666666666</ele><time>2026-03-29T14:47:22Z</time></trkpt><trkpt lat="45.64434006549353" lon="2.3872955186709257"><ele>814.0</ele><time>2026-03-29T14:47:26Z</time></trkpt><trkpt lat="45.64434291462685" lon="2.3874092333043064"><ele>813.9999999999999</ele><time>2026-03-29T14:47:29Z</time></trkpt><trkpt lat="45.64435261073997" lon="2.3875199065353607"><ele>814.0</ele><time>2026-03-29T14:47:32Z</time></trkpt><trkpt lat="45.644369419719716" lon="2.3876412172664088"><ele>814.0</ele><time>2026-03-29T14:47:35.999Z</time></trkpt><trkpt lat="45.64438379850642" lon="2.3877669655119567"><ele>814.0</ele><time>2026-03-29T14:47:38.999Z</time></trkpt><trkpt lat="45.6444011999088" lon="2.387896123313068"><ele>813.9999999999999</ele><time>2026-03-29T14:47:41.999Z</time></trkpt><trkpt lat="45.644407524576145" lon="2.3880047072273434"><ele>814.0</ele><time>2026-03-29T14:47:43.999Z</time></trkpt><trkpt lat="45.64441793676611" lon="2.3881296514966395"><ele>813.6666666666666</ele><time>2026-03-29T14:47:45.999Z</time></trkpt><trkpt lat="45.64442863402012" lon="2.3882517320723475"><ele>813.3333333333333</ele><time>2026-03-29T14:47:47.999Z</time></trkpt><trkpt lat="45.64444065530884" lon="2.388373515918028"><ele>813.0</ele><time>2026-03-29T14:47:49.999Z</time></trkpt><trkpt lat="45.644448994482666" lon="2.3884944484628927"><ele>812.6666666666667</ele><time>2026-03-29T14:47:51.999Z</time></trkpt><trkpt lat="45.64446202291291" lon="2.3886276143226364"><ele>812.3333333333334</ele><time>2026-03-29T14:47:53.999Z</time></trkpt><trkpt lat="45.64447638938329" lon="2.3887529229896534"><ele>812.0</ele><time>2026-03-29T14:47:55.999Z</time></trkpt><trkpt lat="45.64448231259876" lon="2.388874092344741"><ele>811.5000000000001</ele><time>2026-03-29T14:47:57.999Z</time></trkpt><trkpt lat="45.64448959386968" lon="2.3889987834122124"><ele>811.0</ele><time>2026-03-29T14:47:59.999Z</time></trkpt><trkpt lat="45.64450893775897" lon="2.3891196868517124"><ele>810.5</ele><time>2026-03-29T14:48:01.999Z</time></trkpt><trkpt lat="45.64451724782484" lon="2.3892311999503213"><ele>810.0</ele><time>2026-03-29T14:48:03.999Z</time></trkpt><trkpt lat="45.64452767801783" lon="2.389350248468919"><ele>809.5000000000001</ele><time>2026-03-29T14:48:06Z</time></trkpt><trkpt lat="45.64454146022186" lon="2.389470725293857"><ele>809.0</ele><time>2026-03-29T14:48:08Z</time></trkpt><trkpt lat="45.644548465390415" lon="2.389583130141408"><ele>809.4285714285714</ele><time>2026-03-29T14:48:10Z</time></trkpt><trkpt lat="45.64456426316304" lon="2.389696266655605"><ele>809.8571428571429</ele><time>2026-03-29T14:48:12Z</time></trkpt><trkpt lat="45.64457401503143" lon="2.389801448664498"><ele>810.2857142857142</ele><time>2026-03-29T14:48:14Z</time></trkpt><trkpt lat="45.644589547454" lon="2.389899887853356"><ele>810.7142857142858</ele><time>2026-03-29T14:48:16Z</time></trkpt><trkpt lat="45.64460123881011" lon="2.390001831871784"><ele>811.1428571428571</ele><time>2026-03-29T14:48:18Z</time></trkpt><trkpt lat="45.64461266935687" lon="2.390093297953937"><ele>811.5714285714286</ele><time>2026-03-29T14:48:20Z</time></trkpt><trkpt lat="45.64461031885591" lon="2.3902063646310565"><ele>812.0</ele><time>2026-03-29T14:48:23Z</time></trkpt><trkpt lat="45.64460032165322" lon="2.390328650294423"><ele>812.0000000000001</ele><time>2026-03-29T14:48:26Z</time></trkpt><trkpt lat="45.644561421127044" lon="2.390449694228745"><ele>812.0</ele><time>2026-03-29T14:48:30Z</time></trkpt><trkpt lat="45.6445193506875" lon="2.3905334236128724"><ele>812.0</ele><time>2026-03-29T14:48:33Z</time></trkpt><trkpt lat="45.644456607732224" lon="2.3906227894004712"><ele>812.0</ele><time>2026-03-29T14:48:36Z</time></trkpt><trkpt lat="45.64440019855022" lon="2.390695697905506"><ele>812.0000000000001</ele><time>2026-03-29T14:48:38Z</time></trkpt><trkpt lat="45.64435311009414" lon="2.3907579906598673"><ele>812.0</ele><time>2026-03-29T14:48:40Z</time></trkpt><trkpt lat="45.64429901025012" lon="2.3908343464432"><ele>811.6</ele><time>2026-03-29T14:48:42Z</time></trkpt><trkpt lat="45.64422038638213" lon="2.390922584484004"><ele>811.2</ele><time>2026-03-29T14:48:45Z</time></trkpt><trkpt lat="45.6442041535598" lon="2.3910166344075323"><ele>810.8</ele><time>2026-03-29T14:48:47Z</time></trkpt><trkpt lat="45.64411850632129" lon="2.391082556600817"><ele>810.4</ele><time>2026-03-29T14:48:49Z</time></trkpt><trkpt lat="45.644049294550314" lon="2.391167578806659"><ele>810.0</ele><time>2026-03-29T14:48:51Z</time></trkpt><trkpt lat="45.64396458531438" lon="2.391237389055259"><ele>810.0</ele><time>2026-03-29T14:48:54Z</time></trkpt><trkpt lat="45.64389134178594" lon="2.391309274987964"><ele>810.0</ele><time>2026-03-29T14:48:56Z</time></trkpt><trkpt lat="45.643839259703775" lon="2.3913773554110636"><ele>810.0</ele><time>2026-03-29T14:48:58Z</time></trkpt><trkpt lat="45.643731085634826" lon="2.39145349542497"><ele>810.0</ele><time>2026-03-29T14:49:01Z</time></trkpt><trkpt lat="45.643676667157514" lon="2.391501733829424"><ele>810.0</ele><time>2026-03-29T14:49:03Z</time></trkpt><trkpt lat="45.6435933749409" lon="2.391588872893835"><ele>810.0</ele><time>2026-03-29T14:49:06Z</time></trkpt><trkpt lat="45.643515077077964" lon="2.391631098083422"><ele>808.5</ele><time>2026-03-29T14:49:09Z</time></trkpt><trkpt lat="45.64344330232789" lon="2.3917055798643303"><ele>807.0</ele><time>2026-03-29T14:49:12Z</time></trkpt><trkpt lat="45.64336898437863" lon="2.391793955891935"><ele>805.5</ele><time>2026-03-29T14:49:16Z</time></trkpt><trkpt lat="45.643306540899374" lon="2.3918489194922365"><ele>804.0</ele><time>2026-03-29T14:49:19Z</time></trkpt><trkpt lat="45.6432511361705" lon="2.391955458232684"><ele>802.5</ele><time>2026-03-29T14:49:23Z</time></trkpt><trkpt lat="45.64323439487923" lon="2.3920826047147328"><ele>801.0</ele><time>2026-03-29T14:49:27Z</time></trkpt><trkpt lat="45.64319534925574" lon="2.3921800415816383"><ele>800.2857142857142</ele><time>2026-03-29T14:49:30.999Z</time></trkpt><trkpt lat="45.643207621451864" lon="2.3922903582803867"><ele>799.5714285714286</ele><time>2026-03-29T14:49:33.999Z</time></trkpt><trkpt lat="45.64319771312669" lon="2.392382643043925"><ele>798.8571428571429</ele><time>2026-03-29T14:49:36.999Z</time></trkpt><trkpt lat="45.6431933092501" lon="2.392479934910001"><ele>798.1428571428571</ele><time>2026-03-29T14:49:40.999Z</time></trkpt><trkpt lat="45.64318835622292" lon="2.3925720240295774"><ele>797.4285714285714</ele><time>2026-03-29T14:49:44.999Z</time></trkpt><trkpt lat="45.64320045479641" lon="2.392684754016019"><ele>796.7142857142857</ele><time>2026-03-29T14:49:51.999Z</time></trkpt><trkpt lat="45.64319522624256" lon="2.3927760836907517"><ele>796.0</ele><time>2026-03-29T14:49:54.999Z</time></trkpt><trkpt lat="45.64316116993204" lon="2.392861265565902"><ele>795.9999999999999</ele><time>2026-03-29T14:49:57.999Z</time></trkpt><trkpt lat="45.643122036316846" lon="2.3929334449620407"><ele>796.0</ele><time>2026-03-29T14:50:31Z</time></trkpt><trkpt lat="45.64313263813002" lon="2.393038151983444"><ele>796.0</ele><time>2026-03-29T14:50:34Z</time></trkpt><trkpt lat="45.64312114298948" lon="2.3931830978428215"><ele>796.0</ele><time>2026-03-29T14:50:37Z</time></trkpt><trkpt lat="45.64315028264351" lon="2.3932973160389115"><ele>795.9999999999999</ele><time>2026-03-29T14:50:40Z</time></trkpt><trkpt lat="45.643144728975564" lon="2.3934278418553894"><ele>796.0</ele><time>2026-03-29T14:50:43Z</time></trkpt><trkpt lat="45.643135804004864" lon="2.393529535239738"><ele>795.5714285714286</ele><time>2026-03-29T14:50:46Z</time></trkpt><trkpt lat="45.643147736862254" lon="2.3936557441184947"><ele>795.1428571428571</ele><time>2026-03-29T14:50:49Z</time></trkpt><trkpt lat="45.64312618212801" lon="2.393762877503548"><ele>794.7142857142858</ele><time>2026-03-29T14:50:52Z</time></trkpt><trkpt lat="45.64312657674465" lon="2.3938622690201043"><ele>794.2857142857142</ele><time>2026-03-29T14:50:54Z</time></trkpt><trkpt lat="45.64312781054895" lon="2.393954831792448"><ele>793.8571428571429</ele><time>2026-03-29T14:50:57Z</time></trkpt><trkpt lat="45.64310963797348" lon="2.3940708577154823"><ele>793.4285714285714</ele><time>2026-03-29T14:51:00Z</time></trkpt><trkpt lat="45.64310248145047" lon="2.394163435825362"><ele>793.0</ele><time>2026-03-29T14:51:02Z</time></trkpt><trkpt lat="45.64309807818965" lon="2.39429497283889"><ele>792.6666666666666</ele><time>2026-03-29T14:51:05Z</time></trkpt><trkpt lat="45.643112043598805" lon="2.3944273698445593"><ele>792.3333333333333</ele><time>2026-03-29T14:51:08Z</time></trkpt><trkpt lat="45.64313636853643" lon="2.3945307224001073"><ele>792.0</ele><time>2026-03-29T14:51:10Z</time></trkpt><trkpt lat="45.64317736168923" lon="2.3946453837011954"><ele>791.6666666666667</ele><time>2026-03-29T14:51:13Z</time></trkpt><trkpt lat="45.64322843864759" lon="2.39475846952342"><ele>791.3333333333334</ele><time>2026-03-29T14:51:16Z</time></trkpt><trkpt lat="45.6432523186451" lon="2.3948674923362123"><ele>791.0</ele><time>2026-03-29T14:51:19Z</time></trkpt><trkpt lat="45.64326694228827" lon="2.3949700135341767"><ele>790.4285714285714</ele><time>2026-03-29T14:51:23.999Z</time></trkpt><trkpt lat="45.64329088322832" lon="2.395069541943761"><ele>789.8571428571429</ele><time>2026-03-29T14:51:27.999Z</time></trkpt><trkpt lat="45.643323665434984" lon="2.395166731912011"><ele>789.2857142857142</ele><time>2026-03-29T14:51:30.999Z</time></trkpt><trkpt lat="45.643348417655226" lon="2.395264774474492"><ele>788.7142857142858</ele><time>2026-03-29T14:51:34.999Z</time></trkpt><trkpt lat="45.64336409042199" lon="2.3953648560808802"><ele>788.1428571428571</ele><time>2026-03-29T14:51:38.999Z</time></trkpt><trkpt lat="45.64336668063832" lon="2.3954662984812423"><ele>787.5714285714286</ele><time>2026-03-29T14:51:42.999Z</time></trkpt><trkpt lat="45.64338732559482" lon="2.395567283531362"><ele>787.0</ele><time>2026-03-29T14:51:48.999Z</time></trkpt><trkpt lat="45.64340232655078" lon="2.395662775360589"><ele>786.5714285714286</ele><time>2026-03-29T14:51:53.999Z</time></trkpt><trkpt lat="45.64342649095862" lon="2.3957503139096246"><ele>786.1428571428571</ele><time>2026-03-29T14:51:58.999Z</time></trkpt><trkpt lat="45.643432626970665" lon="2.3958413745385854"><ele>785.7142857142858</ele><time>2026-03-29T14:52:03.999Z</time></trkpt><trkpt lat="45.64345243332897" lon="2.3959377994753073"><ele>785.2857142857142</ele><time>2026-03-29T14:52:08.999Z</time></trkpt><trkpt lat="45.64344334670529" lon="2.3960375920472714"><ele>784.8571428571429</ele><time>2026-03-29T14:52:13.999Z</time></trkpt><trkpt lat="45.64342721591606" lon="2.3961309991677213"><ele>784.4285714285714</ele><time>2026-03-29T14:52:18Z</time></trkpt><trkpt lat="45.64339346108706" lon="2.3962293097097227"><ele>784.0</ele><time>2026-03-29T14:52:23Z</time></trkpt><trkpt lat="45.6433485141544" lon="2.396311357104911"><ele>783.4285714285714</ele><time>2026-03-29T14:52:27Z</time></trkpt><trkpt lat="45.64331223852521" lon="2.396395675905109"><ele>782.8571428571429</ele><time>2026-03-29T14:52:30Z</time></trkpt><trkpt lat="45.64328684019606" lon="2.39648822801406"><ele>782.2857142857142</ele><time>2026-03-29T14:52:33Z</time></trkpt><trkpt lat="45.643243528543394" lon="2.3965760703979244"><ele>781.7142857142858</ele><time>2026-03-29T14:52:36Z</time></trkpt><trkpt lat="45.64320012998148" lon="2.396650156277702"><ele>781.1428571428571</ele><time>2026-03-29T14:52:39Z</time></trkpt><trkpt lat="45.643164943105816" lon="2.396727910534494"><ele>780.5714285714286</ele><time>2026-03-29T14:52:43Z</time></trkpt><trkpt lat="45.643099690159694" lon="2.3967946353671707"><ele>780.0</ele><time>2026-03-29T14:54:09.999Z</time></trkpt><trkpt lat="45.64304815843714" lon="2.396865022793043"><ele>780.0</ele><time>2026-03-29T14:54:12.999Z</time></trkpt><trkpt lat="45.642993264931945" lon="2.3969393610761194"><ele>780.0</ele><time>2026-03-29T14:54:15.999Z</time></trkpt><trkpt lat="45.64294136200878" lon="2.3970038049027655"><ele>780.0</ele><time>2026-03-29T14:54:18.999Z</time></trkpt><trkpt lat="45.64288429023259" lon="2.3970728803030052"><ele>780.0</ele><time>2026-03-29T14:54:22.999Z</time></trkpt><trkpt lat="45.64281627958297" lon="2.3971358357741828"><ele>780.0</ele><time>2026-03-29T14:54:26Z</time></trkpt><trkpt lat="45.64274861261746" lon="2.3971780555228603"><ele>780.0</ele><time>2026-03-29T14:54:29Z</time></trkpt><trkpt lat="45.6426751276597" lon="2.39720279157063"><ele>780.0</ele><time>2026-03-29T14:54:33Z</time></trkpt><trkpt lat="45.642597575320515" lon="2.3972084354781433"><ele>779.1428571428571</ele><time>2026-03-29T14:54:37Z</time></trkpt><trkpt lat="45.6425259456233" lon="2.3972085161916614"><ele>778.2857142857142</ele><time>2026-03-29T14:54:40Z</time></trkpt><trkpt lat="45.64244961056311" lon="2.3972021087608706"><ele>777.4285714285714</ele><time>2026-03-29T14:54:44Z</time></trkpt><trkpt lat="45.64236681842599" lon="2.397211676530681"><ele>776.5714285714286</ele><time>2026-03-29T14:54:48Z</time></trkpt><trkpt lat="45.64230200966987" lon="2.397220551003294"><ele>775.7142857142858</ele><time>2026-03-29T14:54:51Z</time></trkpt><trkpt lat="45.64223757869402" lon="2.3972177118701863"><ele>774.8571428571429</ele><time>2026-03-29T14:54:53Z</time></trkpt><trkpt lat="45.64215913188397" lon="2.397213666343741"><ele>774.0</ele><time>2026-03-29T14:54:56Z</time></trkpt><trkpt lat="45.64207987643337" lon="2.397183751184058"><ele>774.2857142857143</ele><time>2026-03-29T14:55:00Z</time></trkpt><trkpt lat="45.642019647167785" lon="2.3971385509133376"><ele>774.5714285714287</ele><time>2026-03-29T14:55:04Z</time></trkpt><trkpt lat="45.64196616864443" lon="2.3970672545245315"><ele>774.8571428571429</ele><time>2026-03-29T14:55:08Z</time></trkpt><trkpt lat="45.64191320764013" lon="2.3970131577360494"><ele>775.1428571428571</ele><time>2026-03-29T14:55:12Z</time></trkpt><trkpt lat="45.64187378162622" lon="2.3969331888645753"><ele>775.4285714285714</ele><time>2026-03-29T14:55:16Z</time></trkpt><trkpt lat="45.641827955485034" lon="2.3968651137013284"><ele>775.7142857142857</ele><time>2026-03-29T14:55:19Z</time></trkpt><trkpt lat="45.641746959997064" lon="2.3968043525875538"><ele>776.0</ele><time>2026-03-29T14:55:23Z</time></trkpt><trkpt lat="45.641659535900075" lon="2.39678036562033"><ele>775.1428571428571</ele><time>2026-03-29T14:55:26Z</time></trkpt><trkpt lat="45.641578967168805" lon="2.3967538101516817"><ele>774.2857142857143</ele><time>2026-03-29T14:55:29.999Z</time></trkpt><trkpt lat="45.64150382853356" lon="2.396748230802727"><ele>773.4285714285714</ele><time>2026-03-29T14:55:33.999Z</time></trkpt><trkpt lat="45.64143917529682" lon="2.396757862217676"><ele>772.5714285714286</ele><time>2026-03-29T14:55:36.999Z</time></trkpt><trkpt lat="45.64137593093379" lon="2.3967753311746276"><ele>771.7142857142858</ele><time>2026-03-29T14:55:39.999Z</time></trkpt><trkpt lat="45.64130892600079" lon="2.3968157404129458"><ele>770.8571428571429</ele><time>2026-03-29T14:55:43.999Z</time></trkpt><trkpt lat="45.64123180309966" lon="2.3968534769298744"><ele>770.0</ele><time>2026-03-29T14:55:47.999Z</time></trkpt><trkpt lat="45.641169811483856" lon="2.3968891779613757"><ele>770.1428571428571</ele><time>2026-03-29T14:55:50.999Z</time></trkpt><trkpt lat="45.64110100126548" lon="2.396937375457519"><ele>770.2857142857142</ele><time>2026-03-29T14:55:54.999Z</time></trkpt><trkpt lat="45.64103845355071" lon="2.3969881891374833"><ele>770.4285714285714</ele><time>2026-03-29T14:55:58.999Z</time></trkpt><trkpt lat="45.64098381870293" lon="2.397039121873719"><ele>770.5714285714286</ele><time>2026-03-29T14:56:01.999Z</time></trkpt><trkpt lat="45.6409378268137" lon="2.3971070167800037"><ele>770.7142857142857</ele><time>2026-03-29T14:56:05.999Z</time></trkpt><trkpt lat="45.640900508271656" lon="2.3971818975867984"><ele>770.8571428571429</ele><time>2026-03-29T14:56:08.999Z</time></trkpt><trkpt lat="45.64084326218755" lon="2.3972670159615954"><ele>771.0</ele><time>2026-03-29T14:56:11.999Z</time></trkpt><trkpt lat="45.640766888228654" lon="2.3972599980820015"><ele>771.0</ele><time>2026-03-29T14:56:15.999Z</time></trkpt><trkpt lat="45.64070475509363" lon="2.39719043637022"><ele>771.0</ele><time>2026-03-29T14:56:19.999Z</time></trkpt><trkpt lat="45.64065810427861" lon="2.3971177739033687"><ele>771.0</ele><time>2026-03-29T14:56:23.999Z</time></trkpt><trkpt lat="45.640608750130546" lon="2.397051485367783"><ele>771.0</ele><time>2026-03-29T14:56:27.999Z</time></trkpt><trkpt lat="45.64056503620223" lon="2.39697311004029"><ele>771.0</ele><time>2026-03-29T14:56:33Z</time></trkpt><trkpt lat="45.64049734881453" lon="2.3969268569222844"><ele>771.0</ele><time>2026-03-29T14:56:37Z</time></trkpt><trkpt lat="45.64043832473718" lon="2.396890377663807"><ele>771.0</ele><time>2026-03-29T14:56:41Z</time></trkpt><trkpt lat="45.64037448361538" lon="2.3968478091475003"><ele>771.0</ele><time>2026-03-29T14:56:45Z</time></trkpt><trkpt lat="45.64030598680066" lon="2.3968049753007206"><ele>771.0</ele><time>2026-03-29T14:56:50Z</time></trkpt><trkpt lat="45.64024101160808" lon="2.396774701425788"><ele>771.0</ele><time>2026-03-29T14:56:54Z</time></trkpt><trkpt lat="45.64017205651649" lon="2.3967475198764183"><ele>771.0</ele><time>2026-03-29T14:56:58Z</time></trkpt><trkpt lat="45.64010670217496" lon="2.3967300486452245"><ele>771.0</ele><time>2026-03-29T14:57:03Z</time></trkpt><trkpt lat="45.64003543711385" lon="2.3967143440830183"><ele>771.0</ele><time>2026-03-29T14:57:41.999Z</time></trkpt><trkpt lat="45.63996855771684" lon="2.396699833081835"><ele>771.0</ele><time>2026-03-29T14:57:45.999Z</time></trkpt><trkpt lat="45.63989834403249" lon="2.396690311395873"><ele>771.3333333333334</ele><time>2026-03-29T14:57:50.999Z</time></trkpt><trkpt lat="45.63983480559608" lon="2.39667152942222"><ele>771.6666666666667</ele><time>2026-03-29T14:57:53.999Z</time></trkpt><trkpt lat="45.63975892920941" lon="2.3966564838906685"><ele>772.0</ele><time>2026-03-29T14:57:57.999Z</time></trkpt><trkpt lat="45.6396695472821" lon="2.396653563901333"><ele>772.3333333333334</ele><time>2026-03-29T14:58:01.999Z</time></trkpt><trkpt lat="45.63959245159474" lon="2.396658848931095"><ele>772.6666666666667</ele><time>2026-03-29T14:58:05.999Z</time></trkpt><trkpt lat="45.639522497463" lon="2.39668308346859"><ele>773.0</ele><time>2026-03-29T14:58:07.999Z</time></trkpt><trkpt lat="45.639436414930145" lon="2.396683966571352"><ele>773.0</ele><time>2026-03-29T14:58:12.999Z</time></trkpt><trkpt lat="45.63935775865181" lon="2.3966860948386746"><ele>773.0</ele><time>2026-03-29T14:58:16.999Z</time></trkpt><trkpt lat="45.639291408460025" lon="2.3966819382952314"><ele>773.0</ele><time>2026-03-29T14:58:19.999Z</time></trkpt><trkpt lat="45.63922893277434" lon="2.396627204546277"><ele>773.0</ele><time>2026-03-29T14:58:23.999Z</time></trkpt><trkpt lat="45.63918200052671" lon="2.39655823250159"><ele>773.0</ele><time>2026-03-29T14:58:27.999Z</time></trkpt><trkpt lat="45.63914303705241" lon="2.3964578147245086"><ele>773.0</ele><time>2026-03-29T14:58:32.999Z</time></trkpt><trkpt lat="45.63911391270524" lon="2.3963732189045874"><ele>773.0</ele><time>2026-03-29T14:58:38Z</time></trkpt><trkpt lat="45.63908654867312" lon="2.3962777324082465"><ele>773.0</ele><time>2026-03-29T14:58:44Z</time></trkpt><trkpt lat="45.639058521855304" lon="2.3961889444592215"><ele>773.0</ele><time>2026-03-29T14:58:48Z</time></trkpt><trkpt lat="45.639022920488756" lon="2.396098252517687"><ele>773.0</ele><time>2026-03-29T14:58:52Z</time></trkpt><trkpt lat="45.63899689647213" lon="2.39601533566268"><ele>773.0</ele><time>2026-03-29T14:58:56Z</time></trkpt><trkpt lat="45.63896183427155" lon="2.3959289011013865"><ele>773.0</ele><time>2026-03-29T14:59:00Z</time></trkpt><trkpt lat="45.638929749426495" lon="2.395842668307134"><ele>773.0</ele><time>2026-03-29T14:59:06Z</time></trkpt><trkpt lat="45.638900598748094" lon="2.3957485976114024"><ele>773.0</ele><time>2026-03-29T14:59:31Z</time></trkpt><trkpt lat="45.6388708171333" lon="2.3956640585629096"><ele>773.0</ele><time>2026-03-29T14:59:44Z</time></trkpt><trkpt lat="45.63882609066473" lon="2.39555584238268"><ele>773.0</ele><time>2026-03-29T14:59:59.999Z</time></trkpt><trkpt lat="45.6388020178158" lon="2.3954720581913285"><ele>773.0</ele><time>2026-03-29T15:00:09.999Z</time></trkpt><trkpt lat="45.63877199587325" lon="2.395385380650627"><ele>773.0</ele><time>2026-03-29T15:00:21.999Z</time></trkpt><trkpt lat="45.63874136194428" lon="2.395303068914056"><ele>773.0</ele><time>2026-03-29T15:00:28.999Z</time></trkpt><trkpt lat="45.63870816053758" lon="2.3952252650380443"><ele>773.0</ele><time>2026-03-29T15:00:39.999Z</time></trkpt><trkpt lat="45.63866816825073" lon="2.3951487874372717"><ele>773.0</ele><time>2026-03-29T15:00:53Z</time></trkpt><trkpt lat="45.63864317087999" lon="2.3950619398831168"><ele>775.5714285714286</ele><time>2026-03-29T15:01:06Z</time></trkpt><trkpt lat="45.63862772107796" lon="2.39496828199842"><ele>778.1428571428571</ele><time>2026-03-29T15:01:17Z</time></trkpt><trkpt lat="45.63858384906259" lon="2.394899622058481"><ele>780.7142857142858</ele><time>2026-03-29T15:01:27Z</time></trkpt><trkpt lat="45.63856785401213" lon="2.394810116322559"><ele>783.2857142857142</ele><time>2026-03-29T15:01:36Z</time></trkpt><trkpt lat="45.638514376015124" lon="2.394747642841342"><ele>785.8571428571429</ele><time>2026-03-29T15:01:46Z</time></trkpt><trkpt lat="45.63848507611751" lon="2.3946607056914972"><ele>788.4285714285714</ele><time>2026-03-29T15:02:00.999Z</time></trkpt><trkpt lat="45.638453055427625" lon="2.3945827923121747"><ele>791.0</ele><time>2026-03-29T15:02:08.999Z</time></trkpt><trkpt lat="45.638403105253495" lon="2.3945239145334485"><ele>791.4285714285714</ele><time>2026-03-29T15:02:19.999Z</time></trkpt><trkpt lat="45.63836997061366" lon="2.3944336132978674"><ele>791.8571428571429</ele><time>2026-03-29T15:02:30.999Z</time></trkpt><trkpt lat="45.63835487982494" lon="2.3943323727297"><ele>792.2857142857142</ele><time>2026-03-29T15:02:36.999Z</time></trkpt><trkpt lat="45.638321298082914" lon="2.3942534119896246"><ele>792.7142857142858</ele><time>2026-03-29T15:03:02Z</time></trkpt><trkpt lat="45.63830665638534" lon="2.394164665118041"><ele>793.1428571428571</ele><time>2026-03-29T15:03:15Z</time></trkpt><trkpt lat="45.63828981219623" lon="2.3940653567454047"><ele>793.5714285714286</ele><time>2026-03-29T15:03:25Z</time></trkpt><trkpt lat="45.638296746719746" lon="2.3939738530217287"><ele>794.0</ele><time>2026-03-29T15:03:37Z</time></trkpt><trkpt lat="45.63828072547456" lon="2.3938767452682743"><ele>794.5714285714286</ele><time>2026-03-29T15:03:48Z</time></trkpt><trkpt lat="45.638291215946104" lon="2.3937771642721444"><ele>795.1428571428571</ele><time>2026-03-29T15:03:56.999Z</time></trkpt><trkpt lat="45.638299869499114" lon="2.3936757108138065"><ele>795.7142857142858</ele><time>2026-03-29T15:04:05.999Z</time></trkpt><trkpt lat="45.63829697975123" lon="2.3935764149422383"><ele>796.2857142857142</ele><time>2026-03-29T15:04:16.999Z</time></trkpt><trkpt lat="45.63828818115207" lon="2.3934839396143004"><ele>796.8571428571429</ele><time>2026-03-29T15:04:24.999Z</time></trkpt><trkpt lat="45.638267078485256" lon="2.3933925568112904"><ele>797.4285714285714</ele><time>2026-03-29T15:04:32.999Z</time></trkpt><trkpt lat="45.638240327541006" lon="2.3933075128803143"><ele>798.0</ele><time>2026-03-29T15:04:40.999Z</time></trkpt><trkpt lat="45.63820294690345" lon="2.3932333618444486"><ele>798.0</ele><time>2026-03-29T15:04:47.999Z</time></trkpt><trkpt lat="45.638156317026606" lon="2.3931643160185576"><ele>798.0</ele><time>2026-03-29T15:05:00Z</time></trkpt><trkpt lat="45.63809439680331" lon="2.3931262014066172"><ele>798.0</ele><time>2026-03-29T15:05:12Z</time></trkpt><trkpt lat="45.63803261186434" lon="2.393104247896355"><ele>798.0</ele><time>2026-03-29T15:05:24Z</time></trkpt><trkpt lat="45.63795729157464" lon="2.3931082515118005"><ele>798.0</ele><time>2026-03-29T15:05:34Z</time></trkpt><trkpt lat="45.637893482272794" lon="2.3931264406000627"><ele>798.0</ele><time>2026-03-29T15:05:41Z</time></trkpt><trkpt lat="45.6378266632747" lon="2.3931396333135835"><ele>798.0</ele><time>2026-03-29T15:05:55Z</time></trkpt><trkpt lat="45.63776123495101" lon="2.393125080437726"><ele>798.1428571428571</ele><time>2026-03-29T15:06:03Z</time></trkpt><trkpt lat="45.63769853024348" lon="2.393116058067929"><ele>798.2857142857142</ele><time>2026-03-29T15:06:11Z</time></trkpt><trkpt lat="45.637634794452126" lon="2.3930959070935773"><ele>798.4285714285714</ele><time>2026-03-29T15:06:23.999Z</time></trkpt><trkpt lat="45.63756290615467" lon="2.393053756613676"><ele>798.5714285714286</ele><time>2026-03-29T15:06:36.999Z</time></trkpt><trkpt lat="45.6374992096342" lon="2.3930357241369116"><ele>798.7142857142857</ele><time>2026-03-29T15:06:42.999Z</time></trkpt><trkpt lat="45.637433774141925" lon="2.3930463986260797"><ele>798.8571428571429</ele><time>2026-03-29T15:09:17Z</time></trkpt><trkpt lat="45.63737990688148" lon="2.3931014348356916"><ele>799.0</ele><time>2026-03-29T15:09:20Z</time></trkpt><trkpt lat="45.63734029592199" lon="2.3931971708248523"><ele>799.0</ele><time>2026-03-29T15:09:22Z</time></trkpt><trkpt lat="45.63729682468152" lon="2.3933080049259225"><ele>799.0</ele><time>2026-03-29T15:09:24Z</time></trkpt><trkpt lat="45.63724753021742" lon="2.39342929271073"><ele>799.0</ele><time>2026-03-29T15:09:26Z</time></trkpt><trkpt lat="45.637202011911135" lon="2.3935544547953924"><ele>799.0</ele><time>2026-03-29T15:09:28Z</time></trkpt><trkpt lat="45.63715075578855" lon="2.3936870738252134"><ele>799.0</ele><time>2026-03-29T15:09:30Z</time></trkpt><trkpt lat="45.63710261406589" lon="2.3938062628211743"><ele>798.6666666666666</ele><time>2026-03-29T15:09:32Z</time></trkpt><trkpt lat="45.637058776551214" lon="2.393916030970288"><ele>798.3333333333333</ele><time>2026-03-29T15:09:34Z</time></trkpt><trkpt lat="45.63701179918648" lon="2.3940112415480153"><ele>798.0</ele><time>2026-03-29T15:09:36Z</time></trkpt><trkpt lat="45.636971576727376" lon="2.394088187477272"><ele>797.6666666666667</ele><time>2026-03-29T15:09:38Z</time></trkpt><trkpt lat="45.6369262874465" lon="2.3941752484176035"><ele>797.3333333333334</ele><time>2026-03-29T15:09:41Z</time></trkpt><trkpt lat="45.63687684973581" lon="2.394272861718194"><ele>797.0</ele><time>2026-03-29T15:09:44Z</time></trkpt><trkpt lat="45.63681204282052" lon="2.394350460562707"><ele>797.6666666666667</ele><time>2026-03-29T15:09:47Z</time></trkpt><trkpt lat="45.636748509977394" lon="2.3944290013036724"><ele>798.3333333333334</ele><time>2026-03-29T15:09:50Z</time></trkpt><trkpt lat="45.63668197006487" lon="2.3945314961712127"><ele>799.0</ele><time>2026-03-29T15:09:53Z</time></trkpt><trkpt lat="45.63661642431801" lon="2.3946148805507343"><ele>799.6666666666667</ele><time>2026-03-29T15:09:56Z</time></trkpt><trkpt lat="45.636557959559255" lon="2.394656954584774"><ele>800.3333333333334</ele><time>2026-03-29T15:09:58Z</time></trkpt><trkpt lat="45.63650155007777" lon="2.394739664805373"><ele>801.0</ele><time>2026-03-29T15:10:00Z</time></trkpt><trkpt lat="45.63645223922668" lon="2.394802964279793"><ele>801.0</ele><time>2026-03-29T15:10:02Z</time></trkpt><trkpt lat="45.63640321163368" lon="2.3948655752608308"><ele>801.0</ele><time>2026-03-29T15:10:04Z</time></trkpt><trkpt lat="45.63633330692675" lon="2.394947159831459"><ele>801.0</ele><time>2026-03-29T15:10:07Z</time></trkpt><trkpt lat="45.63627980092107" lon="2.3950015999709513"><ele>801.0</ele><time>2026-03-29T15:10:09Z</time></trkpt><trkpt lat="45.63622271314231" lon="2.3950812707452456"><ele>801.0</ele><time>2026-03-29T15:10:12Z</time></trkpt><trkpt lat="45.636163610812254" lon="2.395126829117154"><ele>801.0</ele><time>2026-03-29T15:10:15Z</time></trkpt><trkpt lat="45.63609236821814" lon="2.3952040490234188"><ele>801.1428571428571</ele><time>2026-03-29T15:10:18.999Z</time></trkpt><trkpt lat="45.636043540264296" lon="2.395283229703488"><ele>801.2857142857142</ele><time>2026-03-29T15:10:21.999Z</time></trkpt><trkpt lat="45.63598041758997" lon="2.395351205007962"><ele>801.4285714285714</ele><time>2026-03-29T15:10:25.999Z</time></trkpt><trkpt lat="45.635926059908" lon="2.395403613531593"><ele>801.5714285714286</ele><time>2026-03-29T15:10:29.999Z</time></trkpt><trkpt lat="45.635857589149126" lon="2.395466249540061"><ele>801.7142857142858</ele><time>2026-03-29T15:10:33.999Z</time></trkpt><trkpt lat="45.63579261555734" lon="2.395539909765874"><ele>801.8571428571429</ele><time>2026-03-29T15:10:37.999Z</time></trkpt><trkpt lat="45.63574269779343" lon="2.395596836281747"><ele>802.0</ele><time>2026-03-29T15:10:40.999Z</time></trkpt><trkpt lat="45.63567740669745" lon="2.395655172337137"><ele>802.0</ele><time>2026-03-29T15:10:45.999Z</time></trkpt><trkpt lat="45.635615663918514" lon="2.395717437213969"><ele>802.0</ele><time>2026-03-29T15:10:49.999Z</time></trkpt><trkpt lat="45.63556060097752" lon="2.3957733260666134"><ele>802.0</ele><time>2026-03-29T15:10:52.999Z</time></trkpt><trkpt lat="45.63549586520114" lon="2.395822308066517"><ele>802.0</ele><time>2026-03-29T15:10:57.999Z</time></trkpt><trkpt lat="45.63542997313461" lon="2.395878252803813"><ele>802.0</ele><time>2026-03-29T15:11:01.999Z</time></trkpt><trkpt lat="45.63536579504994" lon="2.3959389445033388"><ele>802.0</ele><time>2026-03-29T15:11:05.999Z</time></trkpt><trkpt lat="45.635296994542024" lon="2.3959607544692494"><ele>802.0</ele><time>2026-03-29T15:11:12Z</time></trkpt><trkpt lat="45.63523406045618" lon="2.3959936033695457"><ele>802.2857142857143</ele><time>2026-03-29T15:11:17Z</time></trkpt><trkpt lat="45.63517301932174" lon="2.3960305641124156"><ele>802.5714285714287</ele><time>2026-03-29T15:11:23Z</time></trkpt><trkpt lat="45.63513023472747" lon="2.3959632324735227"><ele>802.8571428571429</ele><time>2026-03-29T15:11:26Z</time></trkpt><trkpt lat="45.6350730236018" lon="2.395925539320486"><ele>803.1428571428571</ele><time>2026-03-29T15:11:31Z</time></trkpt><trkpt lat="45.63501669965287" lon="2.395876153277001"><ele>803.4285714285714</ele><time>2026-03-29T15:11:34Z</time></trkpt><trkpt lat="45.63497971849951" lon="2.3957728139347725"><ele>803.7142857142857</ele><time>2026-03-29T15:11:38Z</time></trkpt><trkpt lat="45.6349340032283" lon="2.395682222301911"><ele>804.0</ele><time>2026-03-29T15:11:41Z</time></trkpt><trkpt lat="45.634865373189214" lon="2.395627237682129"><ele>804.0</ele><time>2026-03-29T15:11:45Z</time></trkpt><trkpt lat="45.63480664385357" lon="2.3955843050932493"><ele>804.0</ele><time>2026-03-29T15:11:48Z</time></trkpt><trkpt lat="45.63474329434273" lon="2.395544550910664"><ele>804.0</ele><time>2026-03-29T15:11:53Z</time></trkpt><trkpt lat="45.634683624455" lon="2.395510761700192"><ele>804.0</ele><time>2026-03-29T15:11:56Z</time></trkpt><trkpt lat="45.63461182892825" lon="2.3954499016559936"><ele>804.0</ele><time>2026-03-29T15:11:59Z</time></trkpt><trkpt lat="45.63455051580007" lon="2.3954158141714696"><ele>804.0</ele><time>2026-03-29T15:12:02Z</time></trkpt><trkpt lat="45.63447430867293" lon="2.3953586303453864"><ele>804.0</ele><time>2026-03-29T15:12:06Z</time></trkpt><trkpt lat="45.634381965405666" lon="2.3952968546051174"><ele>803.2857142857142</ele><time>2026-03-29T15:12:11Z</time></trkpt><trkpt lat="45.63429953134726" lon="2.3952728649243147"><ele>802.5714285714287</ele><time>2026-03-29T15:12:15Z</time></trkpt><trkpt lat="45.6342196993382" lon="2.3952593493367798"><ele>801.8571428571429</ele><time>2026-03-29T15:12:18Z</time></trkpt><trkpt lat="45.63414878533768" lon="2.395251205514062"><ele>801.1428571428571</ele><time>2026-03-29T15:12:20.999Z</time></trkpt><trkpt lat="45.634081982720375" lon="2.3952884358747224"><ele>800.4285714285713</ele><time>2026-03-29T15:12:24.999Z</time></trkpt><trkpt lat="45.634018194502175" lon="2.395311874551672"><ele>799.7142857142858</ele><time>2026-03-29T15:12:27.999Z</time></trkpt><trkpt lat="45.633955859583935" lon="2.3953682380193237"><ele>799.0</ele><time>2026-03-29T15:12:30.999Z</time></trkpt><trkpt lat="45.63387687192295" lon="2.395404214378028"><ele>798.9999999999999</ele><time>2026-03-29T15:12:33.999Z</time></trkpt><trkpt lat="45.63380185121018" lon="2.3954175907388455"><ele>799.0</ele><time>2026-03-29T15:12:36.999Z</time></trkpt><trkpt lat="45.63372559625281" lon="2.3954141633499333"><ele>799.0</ele><time>2026-03-29T15:12:39.999Z</time></trkpt><trkpt lat="45.633650832594824" lon="2.395416619385263"><ele>799.0</ele><time>2026-03-29T15:12:42.999Z</time></trkpt><trkpt lat="45.63357425339472" lon="2.39543645511136"><ele>798.9999999999999</ele><time>2026-03-29T15:12:45.999Z</time></trkpt><trkpt lat="45.633507140724255" lon="2.395417964668075"><ele>799.0</ele><time>2026-03-29T15:12:48.999Z</time></trkpt><trkpt lat="45.63342808684903" lon="2.395397081583849"><ele>798.9999999999999</ele><time>2026-03-29T15:12:51.999Z</time></trkpt><trkpt lat="45.63335545462349" lon="2.3953838339343356"><ele>799.0</ele><time>2026-03-29T15:12:55.999Z</time></trkpt><trkpt lat="45.633285870462885" lon="2.395369775578683"><ele>799.0</ele><time>2026-03-29T15:12:59.999Z</time></trkpt><trkpt lat="45.6332158776764" lon="2.395362543498762"><ele>799.0</ele><time>2026-03-29T15:13:03.999Z</time></trkpt><trkpt lat="45.633138168373364" lon="2.3953959310518247"><ele>798.9999999999999</ele><time>2026-03-29T15:13:08.999Z</time></trkpt><trkpt lat="45.633062281482346" lon="2.395408749514627"><ele>799.0</ele><time>2026-03-29T15:13:12.999Z</time></trkpt><trkpt lat="45.632975249849714" lon="2.395406915485823"><ele>798.9999999999999</ele><time>2026-03-29T15:13:16.999Z</time></trkpt><trkpt lat="45.63289820012456" lon="2.395418533429661"><ele>799.0</ele><time>2026-03-29T15:13:22Z</time></trkpt><trkpt lat="45.63281260357283" lon="2.39543204829277"><ele>799.0</ele><time>2026-03-29T15:13:25Z</time></trkpt><trkpt lat="45.63273858430418" lon="2.3954387393387773"><ele>799.0</ele><time>2026-03-29T15:13:29Z</time></trkpt><trkpt lat="45.63265649901061" lon="2.3954019518090592"><ele>798.9999999999999</ele><time>2026-03-29T15:14:10Z</time></trkpt><trkpt lat="45.63257879804823" lon="2.3954658922629832"><ele>799.0</ele><time>2026-03-29T15:14:19Z</time></trkpt><trkpt lat="45.63250143275645" lon="2.395501023678029"><ele>798.4999999999999</ele><time>2026-03-29T15:14:23Z</time></trkpt><trkpt lat="45.63241207176482" lon="2.395518354903625"><ele>798.0</ele><time>2026-03-29T15:14:25Z</time></trkpt><trkpt lat="45.63231648465178" lon="2.395475935453225"><ele>797.5</ele><time>2026-03-29T15:14:28Z</time></trkpt><trkpt lat="45.6322369614034" lon="2.395478869741581"><ele>797.0</ele><time>2026-03-29T15:14:30Z</time></trkpt><trkpt lat="45.632172364009016" lon="2.3954720386835215"><ele>796.4999999999999</ele><time>2026-03-29T15:14:32Z</time></trkpt><trkpt lat="45.632109189422025" lon="2.3954359643736063"><ele>796.0</ele><time>2026-03-29T15:14:35.999Z</time></trkpt><trkpt lat="45.63202856304055" lon="2.395411327810554"><ele>794.9999999999999</ele><time>2026-03-29T15:14:38.999Z</time></trkpt><trkpt lat="45.631950158893424" lon="2.395414903601413"><ele>794.0</ele><time>2026-03-29T15:14:41.999Z</time></trkpt><trkpt lat="45.631891803275316" lon="2.3953644086474273"><ele>793.0</ele><time>2026-03-29T15:14:45.999Z</time></trkpt><trkpt lat="45.63182889493908" lon="2.3953578208364137"><ele>792.0</ele><time>2026-03-29T15:14:49.999Z</time></trkpt><trkpt lat="45.63175839157502" lon="2.3953129727735885"><ele>791.0</ele><time>2026-03-29T15:14:52.999Z</time></trkpt><trkpt lat="45.63169707440807" lon="2.395342269504034"><ele>789.9999999999999</ele><time>2026-03-29T15:14:54.999Z</time></trkpt><trkpt lat="45.63160913572496" lon="2.3953755497395326"><ele>789.0</ele><time>2026-03-29T15:14:57.999Z</time></trkpt><trkpt lat="45.63152875626293" lon="2.3954129036428617"><ele>789.0</ele><time>2026-03-29T15:15:00.999Z</time></trkpt><trkpt lat="45.631472806349045" lon="2.3954566744498598"><ele>789.0</ele><time>2026-03-29T15:15:02.999Z</time></trkpt><trkpt lat="45.631398422881404" lon="2.3955124859498285"><ele>789.0</ele><time>2026-03-29T15:15:05.999Z</time></trkpt><trkpt lat="45.63132263102886" lon="2.3955597271446787"><ele>789.0</ele><time>2026-03-29T15:15:08.999Z</time></trkpt><trkpt lat="45.63125745236604" lon="2.395611784416899"><ele>789.0</ele><time>2026-03-29T15:15:11.999Z</time></trkpt><trkpt lat="45.63118863095893" lon="2.3956528819827643"><ele>789.0</ele><time>2026-03-29T15:15:14.999Z</time></trkpt><trkpt lat="45.63112583535335" lon="2.395700667722066"><ele>787.4285714285713</ele><time>2026-03-29T15:15:18.999Z</time></trkpt><trkpt lat="45.631063998263365" lon="2.3957271736382126"><ele>785.8571428571429</ele><time>2026-03-29T15:15:20.999Z</time></trkpt><trkpt lat="45.63099258296071" lon="2.3957354804502824"><ele>784.2857142857142</ele><time>2026-03-29T15:15:22.999Z</time></trkpt><trkpt lat="45.6309247248002" lon="2.3957021665950013"><ele>782.7142857142857</ele><time>2026-03-29T15:15:25Z</time></trkpt><trkpt lat="45.63086121747431" lon="2.395681766150789"><ele>781.1428571428571</ele><time>2026-03-29T15:15:29Z</time></trkpt><trkpt lat="45.63076125199206" lon="2.395668827734237"><ele>779.5714285714286</ele><time>2026-03-29T15:15:32Z</time></trkpt><trkpt lat="45.630688633693346" lon="2.395661042943817"><ele>778.0</ele><time>2026-03-29T15:15:34Z</time></trkpt><trkpt lat="45.630617700126216" lon="2.395642722879244"><ele>777.9999999999999</ele><time>2026-03-29T15:15:36Z</time></trkpt><trkpt lat="45.63053258729058" lon="2.3955950698072543"><ele>778.0</ele><time>2026-03-29T15:15:40Z</time></trkpt><trkpt lat="45.63045141929904" lon="2.395569849073321"><ele>778.0</ele><time>2026-03-29T15:15:43Z</time></trkpt><trkpt lat="45.63037398528869" lon="2.3955258491768516"><ele>778.0</ele><time>2026-03-29T15:15:46Z</time></trkpt><trkpt lat="45.630323032542385" lon="2.395448169777831"><ele>777.9999999999999</ele><time>2026-03-29T15:15:49Z</time></trkpt><trkpt lat="45.630300166343936" lon="2.39534361617194"><ele>778.0</ele><time>2026-03-29T15:15:52Z</time></trkpt><trkpt lat="45.63027290736507" lon="2.3952212322635744"><ele>777.3333333333333</ele><time>2026-03-29T15:15:55Z</time></trkpt><trkpt lat="45.630260948651454" lon="2.395132683452298"><ele>776.6666666666666</ele><time>2026-03-29T15:15:58Z</time></trkpt><trkpt lat="45.63024515161576" lon="2.394999345727794"><ele>776.0</ele><time>2026-03-29T15:16:01Z</time></trkpt><trkpt lat="45.63023159634369" lon="2.394869298939328"><ele>775.3333333333333</ele><time>2026-03-29T15:16:04Z</time></trkpt><trkpt lat="45.63022509600775" lon="2.3947599944147595"><ele>774.6666666666666</ele><time>2026-03-29T15:16:07Z</time></trkpt><trkpt lat="45.63021083505264" lon="2.39464385334922"><ele>774.0</ele><time>2026-03-29T15:16:10Z</time></trkpt><trkpt lat="45.63019471716789" lon="2.3945315682745956"><ele>774.0</ele><time>2026-03-29T15:16:13Z</time></trkpt><trkpt lat="45.63015873392315" lon="2.3944256426759067"><ele>774.0</ele><time>2026-03-29T15:16:16Z</time></trkpt><trkpt lat="45.63010228676657" lon="2.394381189897094"><ele>774.0</ele><time>2026-03-29T15:16:21Z</time></trkpt><trkpt lat="45.63003683321963" lon="2.3944263040199707"><ele>774.0</ele><time>2026-03-29T15:16:26Z</time></trkpt><trkpt lat="45.62996733848975" lon="2.394484837382802"><ele>774.0</ele><time>2026-03-29T15:16:30Z</time></trkpt><trkpt lat="45.62988973957775" lon="2.394533069971843"><ele>774.0</ele><time>2026-03-29T15:16:34Z</time></trkpt><trkpt lat="45.62982217142872" lon="2.394583814444533"><ele>774.0</ele><time>2026-03-29T15:16:38.999Z</time></trkpt><trkpt lat="45.62975270925735" lon="2.3946178034043077"><ele>774.0</ele><time>2026-03-29T15:16:42.999Z</time></trkpt><trkpt lat="45.62968432622887" lon="2.3946421181514013"><ele>774.0</ele><time>2026-03-29T15:16:46.999Z</time></trkpt><trkpt lat="45.62962226712119" lon="2.3946578978416"><ele>774.0</ele><time>2026-03-29T15:16:51.999Z</time></trkpt><trkpt lat="45.629559184620035" lon="2.3946751542022615"><ele>774.0</ele><time>2026-03-29T15:16:57.999Z</time></trkpt><trkpt lat="45.629491535732555" lon="2.394689404805296"><ele>774.0</ele><time>2026-03-29T15:17:14.999Z</time></trkpt><trkpt lat="45.62942410053057" lon="2.394699264824423"><ele>774.0</ele><time>2026-03-29T15:17:20.999Z</time></trkpt><trkpt lat="45.6293520253665" lon="2.394752496036623"><ele>773.1666666666666</ele><time>2026-03-29T15:17:24.999Z</time></trkpt><trkpt lat="45.62927831541573" lon="2.394758134631332"><ele>772.3333333333333</ele><time>2026-03-29T15:17:32Z</time></trkpt><trkpt lat="45.62920509972756" lon="2.3947698230623877"><ele>771.5</ele><time>2026-03-29T15:17:37Z</time></trkpt><trkpt lat="45.62913601412716" lon="2.394795313999504"><ele>770.6666666666666</ele><time>2026-03-29T15:17:42Z</time></trkpt><trkpt lat="45.629064983449844" lon="2.3948108216093367"><ele>769.8333333333333</ele><time>2026-03-29T15:17:45Z</time></trkpt><trkpt lat="45.628969350792424" lon="2.394810403306139"><ele>769.0</ele><time>2026-03-29T15:17:48Z</time></trkpt><trkpt lat="45.628900798385025" lon="2.394814580070885"><ele>769.0</ele><time>2026-03-29T15:17:50Z</time></trkpt><trkpt lat="45.62882748473737" lon="2.3948258692042694"><ele>769.0</ele><time>2026-03-29T15:17:52Z</time></trkpt><trkpt lat="45.6287490284866" lon="2.3948424234540524"><ele>769.0</ele><time>2026-03-29T15:17:54Z</time></trkpt><trkpt lat="45.62868236074777" lon="2.3948603503360317"><ele>769.0</ele><time>2026-03-29T15:17:56Z</time></trkpt><trkpt lat="45.62861428119697" lon="2.3948715661646998"><ele>769.0</ele><time>2026-03-29T15:17:58Z</time></trkpt><trkpt lat="45.628542922636974" lon="2.3948758479278287"><ele>769.0</ele><time>2026-03-29T15:18:00Z</time></trkpt><trkpt lat="45.62845821632803" lon="2.3949014087322933"><ele>769.0</ele><time>2026-03-29T15:18:03Z</time></trkpt><trkpt lat="45.62839466935205" lon="2.3949061243905034"><ele>768.9999999999999</ele><time>2026-03-29T15:18:06Z</time></trkpt><trkpt lat="45.62832854744216" lon="2.3949370890106936"><ele>769.0</ele><time>2026-03-29T15:18:10Z</time></trkpt><trkpt lat="45.628249931305035" lon="2.3949695138007234"><ele>769.0</ele><time>2026-03-29T15:18:13Z</time></trkpt><trkpt lat="45.62817343877407" lon="2.394957804762827"><ele>769.0</ele><time>2026-03-29T15:18:16Z</time></trkpt><trkpt lat="45.628099769196815" lon="2.3949672992558333"><ele>768.9999999999999</ele><time>2026-03-29T15:18:19Z</time></trkpt><trkpt lat="45.628020034387355" lon="2.394969555006473"><ele>769.0</ele><time>2026-03-29T15:18:23Z</time></trkpt><trkpt lat="45.6279394273458" lon="2.3949637679218596"><ele>769.0</ele><time>2026-03-29T15:18:28Z</time></trkpt><trkpt lat="45.627874880522995" lon="2.3949324315674194"><ele>769.0</ele><time>2026-03-29T15:18:32Z</time></trkpt><trkpt lat="45.62780761915148" lon="2.3949072932767836"><ele>769.0</ele><time>2026-03-29T15:18:37Z</time></trkpt><trkpt lat="45.62774763369259" lon="2.3948597933100286"><ele>769.0</ele><time>2026-03-29T15:18:43Z</time></trkpt><trkpt lat="45.627687296907276" lon="2.394794146335462"><ele>769.0</ele><time>2026-03-29T15:18:48.999Z</time></trkpt><trkpt lat="45.62762984380859" lon="2.3947405534732162"><ele>769.0</ele><time>2026-03-29T15:18:53.999Z</time></trkpt><trkpt lat="45.62756599197695" lon="2.39467216563492"><ele>769.0</ele><time>2026-03-29T15:18:56.999Z</time></trkpt><trkpt lat="45.62749216241279" lon="2.3946211454586988"><ele>768.8571428571428</ele><time>2026-03-29T15:19:00.999Z</time></trkpt><trkpt lat="45.627445336148604" lon="2.394549643649905"><ele>768.7142857142858</ele><time>2026-03-29T15:19:06.999Z</time></trkpt><trkpt lat="45.62738455285248" lon="2.3944956335790457"><ele>768.5714285714286</ele><time>2026-03-29T15:19:10.999Z</time></trkpt><trkpt lat="45.62731966907648" lon="2.394428947724827"><ele>768.4285714285713</ele><time>2026-03-29T15:19:13.999Z</time></trkpt><trkpt lat="45.627261960107745" lon="2.394373082033346"><ele>768.2857142857142</ele><time>2026-03-29T15:19:17.999Z</time></trkpt><trkpt lat="45.627206363748776" lon="2.394294102827976"><ele>768.1428571428571</ele><time>2026-03-29T15:19:19.999Z</time></trkpt><trkpt lat="45.627143138068206" lon="2.394279153309023"><ele>768.0</ele><time>2026-03-29T15:19:21.999Z</time></trkpt><trkpt lat="45.62706618107713" lon="2.3942388030522506"><ele>767.9999999999999</ele><time>2026-03-29T15:19:24.999Z</time></trkpt><trkpt lat="45.6270001867022" lon="2.3942503587608797"><ele>768.0</ele><time>2026-03-29T15:19:26.999Z</time></trkpt><trkpt lat="45.626930511456074" lon="2.394257785389067"><ele>768.0</ele><time>2026-03-29T15:19:29.999Z</time></trkpt><trkpt lat="45.626851665595844" lon="2.394263348268491"><ele>768.0</ele><time>2026-03-29T15:19:33.999Z</time></trkpt><trkpt lat="45.6267718423115" lon="2.394267340920034"><ele>768.0</ele><time>2026-03-29T15:19:38Z</time></trkpt><trkpt lat="45.626706112003866" lon="2.3942700049207115"><ele>767.9999999999999</ele><time>2026-03-29T15:19:41Z</time></trkpt><trkpt lat="45.62663196821891" lon="2.394273151090001"><ele>768.0</ele><time>2026-03-29T15:19:45Z</time></trkpt><trkpt lat="45.626561268953644" lon="2.3942700060553816"><ele>767.8571428571428</ele><time>2026-03-29T15:19:49Z</time></trkpt><trkpt lat="45.62647901996013" lon="2.3942607560815827"><ele>767.7142857142857</ele><time>2026-03-29T15:19:54Z</time></trkpt><trkpt lat="45.62640845046235" lon="2.3942561076307696"><ele>767.5714285714286</ele><time>2026-03-29T15:19:59Z</time></trkpt><trkpt lat="45.626343686903965" lon="2.3942533423139203"><ele>767.4285714285713</ele><time>2026-03-29T15:20:03Z</time></trkpt><trkpt lat="45.62627484383096" lon="2.3942589624444053"><ele>767.2857142857143</ele><time>2026-03-29T15:20:07Z</time></trkpt><trkpt lat="45.62619804000853" lon="2.394275087385727"><ele>767.1428571428571</ele><time>2026-03-29T15:20:12Z</time></trkpt><trkpt lat="45.62613652552535" lon="2.3942964214211"><ele>767.0</ele><time>2026-03-29T15:20:18Z</time></trkpt><trkpt lat="45.62606405793967" lon="2.394294313312151"><ele>767.0</ele><time>2026-03-29T15:20:24Z</time></trkpt><trkpt lat="45.62600036766257" lon="2.3943285552621583"><ele>767.0</ele><time>2026-03-29T15:20:37Z</time></trkpt><trkpt lat="45.625965731289185" lon="2.3942344052966056"><ele>767.0</ele><time>2026-03-29T15:21:39.999Z</time></trkpt><trkpt lat="45.62589906672722" lon="2.394262116947016"><ele>767.0</ele><time>2026-03-29T15:22:13Z</time></trkpt><trkpt lat="45.62583514688356" lon="2.3942437850973164"><ele>767.0</ele><time>2026-03-29T15:22:16Z</time></trkpt><trkpt lat="45.62576347902787" lon="2.394238818116036"><ele>767.0</ele><time>2026-03-29T15:22:20Z</time></trkpt><trkpt lat="45.62568947986517" lon="2.3942267147505722"><ele>767.0</ele><time>2026-03-29T15:22:24Z</time></trkpt><trkpt lat="45.62561636362116" lon="2.3942131799970467"><ele>767.0</ele><time>2026-03-29T15:22:28Z</time></trkpt><trkpt lat="45.625538787857906" lon="2.3942052867441483"><ele>767.0</ele><time>2026-03-29T15:22:32Z</time></trkpt><trkpt lat="45.62546093082797" lon="2.3941696631513167"><ele>767.0</ele><time>2026-03-29T15:22:37Z</time></trkpt><trkpt lat="45.6253944028329" lon="2.394145664783363"><ele>767.0</ele><time>2026-03-29T15:22:42Z</time></trkpt><trkpt lat="45.62533555570753" lon="2.3941102838990083"><ele>767.0</ele><time>2026-03-29T15:22:47Z</time></trkpt><trkpt lat="45.625269221188006" lon="2.3940679104708233"><ele>767.0</ele><time>2026-03-29T15:22:54Z</time></trkpt><trkpt lat="45.62519560878733" lon="2.394021472213832"><ele>767.0</ele><time>2026-03-29T15:22:58Z</time></trkpt><trkpt lat="45.62514711924247" lon="2.39395710509388"><ele>767.8571428571429</ele><time>2026-03-29T15:23:03.999Z</time></trkpt><trkpt lat="45.62509940280156" lon="2.393895663180837"><ele>768.7142857142858</ele><time>2026-03-29T15:23:08.999Z</time></trkpt><trkpt lat="45.62505882593466" lon="2.393826399679924"><ele>769.5714285714286</ele><time>2026-03-29T15:23:15.999Z</time></trkpt><trkpt lat="45.62501018370564" lon="2.393763139602406"><ele>770.4285714285714</ele><time>2026-03-29T15:23:21.999Z</time></trkpt><trkpt lat="45.624938352491114" lon="2.393724466446266"><ele>771.2857142857142</ele><time>2026-03-29T15:23:27.999Z</time></trkpt><trkpt lat="45.6248697792913" lon="2.393646829061422"><ele>772.1428571428571</ele><time>2026-03-29T15:23:31.999Z</time></trkpt><trkpt lat="45.62480618609428" lon="2.393581624379092"><ele>773.0</ele><time>2026-03-29T15:23:41.999Z</time></trkpt><trkpt lat="45.62473602289969" lon="2.3935217130767086"><ele>773.5714285714286</ele><time>2026-03-29T15:23:49Z</time></trkpt><trkpt lat="45.62467870027665" lon="2.393465245867369"><ele>774.1428571428571</ele><time>2026-03-29T15:23:54Z</time></trkpt><trkpt lat="45.6246153275839" lon="2.393412662917382"><ele>774.7142857142858</ele><time>2026-03-29T15:24:00Z</time></trkpt><trkpt lat="45.62455917710723" lon="2.3933710450675476"><ele>775.2857142857142</ele><time>2026-03-29T15:24:05Z</time></trkpt><trkpt lat="45.62449902563471" lon="2.393330385423291"><ele>775.8571428571429</ele><time>2026-03-29T15:24:10Z</time></trkpt><trkpt lat="45.62443779793705" lon="2.3932715859633396"><ele>776.4285714285714</ele><time>2026-03-29T15:24:17Z</time></trkpt><trkpt lat="45.62437604000146" lon="2.3932390748980046"><ele>777.0</ele><time>2026-03-29T15:24:21Z</time></trkpt><trkpt lat="45.62432532165707" lon="2.393182797852957"><ele>777.1428571428571</ele><time>2026-03-29T15:24:28Z</time></trkpt><trkpt lat="45.62426577711516" lon="2.3931324352585954"><ele>777.2857142857142</ele><time>2026-03-29T15:24:35Z</time></trkpt><trkpt lat="45.62420580459451" lon="2.3930927691244"><ele>777.4285714285714</ele><time>2026-03-29T15:24:41Z</time></trkpt><trkpt lat="45.62414145771671" lon="2.393047873611826"><ele>777.5714285714286</ele><time>2026-03-29T15:24:47Z</time></trkpt><trkpt lat="45.62408952741278" lon="2.3929858487527267"><ele>777.7142857142857</ele><time>2026-03-29T15:24:54Z</time></trkpt><trkpt lat="45.6240359992224" lon="2.3929377711669577"><ele>777.8571428571429</ele><time>2026-03-29T15:24:58.999Z</time></trkpt><trkpt lat="45.62397587508726" lon="2.392903230933489"><ele>778.0</ele><time>2026-03-29T15:25:05.999Z</time></trkpt><trkpt lat="45.623916229371304" lon="2.392867546142408"><ele>778.0</ele><time>2026-03-29T15:25:10.999Z</time></trkpt><trkpt lat="45.62385824482122" lon="2.3928197827320155"><ele>778.0</ele><time>2026-03-29T15:25:15.999Z</time></trkpt><trkpt lat="45.623801304331096" lon="2.3927560386054676"><ele>778.0</ele><time>2026-03-29T15:25:21.999Z</time></trkpt><trkpt lat="45.6237510217746" lon="2.392684213151931"><ele>778.0</ele><time>2026-03-29T15:25:26.999Z</time></trkpt><trkpt lat="45.62377251224302" lon="2.392581718123707"><ele>778.0</ele><time>2026-03-29T15:25:31.999Z</time></trkpt><trkpt lat="45.62381013263578" lon="2.3924926422221016"><ele>778.0</ele><time>2026-03-29T15:25:36.999Z</time></trkpt><trkpt lat="45.62382354008543" lon="2.392396387571774"><ele>778.0</ele><time>2026-03-29T15:25:41.999Z</time></trkpt><trkpt lat="45.62382550264702" lon="2.3922866269558916"><ele>777.9999999999999</ele><time>2026-03-29T15:25:46.999Z</time></trkpt><trkpt lat="45.62381676298876" lon="2.39218264119225"><ele>778.0</ele><time>2026-03-29T15:25:50.999Z</time></trkpt><trkpt lat="45.62380637567066" lon="2.3920734514844058"><ele>778.0</ele><time>2026-03-29T15:25:55Z</time></trkpt><trkpt lat="45.623800371495086" lon="2.39196056445713"><ele>778.0</ele><time>2026-03-29T15:25:59Z</time></trkpt><trkpt lat="45.62379120401596" lon="2.391855134671622"><ele>777.9999999999999</ele><time>2026-03-29T15:26:02Z</time></trkpt><trkpt lat="45.62378199593723" lon="2.3917470943456416"><ele>778.0</ele><time>2026-03-29T15:26:06Z</time></trkpt><trkpt lat="45.62377192829998" lon="2.3916330713965848"><ele>777.6666666666666</ele><time>2026-03-29T15:26:09Z</time></trkpt><trkpt lat="45.62376138677854" lon="2.391512681213774"><ele>777.3333333333333</ele><time>2026-03-29T15:26:13Z</time></trkpt><trkpt lat="45.623754180391735" lon="2.3914010647294357"><ele>777.0</ele><time>2026-03-29T15:26:17Z</time></trkpt><trkpt lat="45.62374348260471" lon="2.3912824694833756"><ele>776.6666666666667</ele><time>2026-03-29T15:26:21Z</time></trkpt><trkpt lat="45.623728159114414" lon="2.3911770104827887"><ele>776.3333333333334</ele><time>2026-03-29T15:26:25Z</time></trkpt><trkpt lat="45.62371586244366" lon="2.3910629526637655"><ele>776.0</ele><time>2026-03-29T15:26:28Z</time></trkpt><trkpt lat="45.62369571844923" lon="2.3909600142701777"><ele>775.8333333333334</ele><time>2026-03-29T15:26:32Z</time></trkpt><trkpt lat="45.623680684238884" lon="2.3908507772113716"><ele>775.6666666666667</ele><time>2026-03-29T15:26:35Z</time></trkpt><trkpt lat="45.62364831834233" lon="2.3907372761515044"><ele>775.5</ele><time>2026-03-29T15:26:39Z</time></trkpt><trkpt lat="45.6236195303521" lon="2.390647670140625"><ele>775.3333333333333</ele><time>2026-03-29T15:26:42Z</time></trkpt><trkpt lat="45.62358642589589" lon="2.390540587574769"><ele>775.1666666666666</ele><time>2026-03-29T15:26:46Z</time></trkpt><trkpt lat="45.623560613102974" lon="2.3904501060481254"><ele>775.0</ele><time>2026-03-29T15:26:49Z</time></trkpt><trkpt lat="45.6235332902771" lon="2.390351636565448"><ele>775.8333333333333</ele><time>2026-03-29T15:26:53Z</time></trkpt><trkpt lat="45.62349834243012" lon="2.390247397373637"><ele>776.6666666666666</ele><time>2026-03-29T15:26:57Z</time></trkpt><trkpt lat="45.62346214487516" lon="2.3901396137280035"><ele>777.5</ele><time>2026-03-29T15:27:01Z</time></trkpt><trkpt lat="45.623427429584815" lon="2.390047664343625"><ele>778.3333333333333</ele><time>2026-03-29T15:27:05Z</time></trkpt><trkpt lat="45.62339626519758" lon="2.3899503724962248"><ele>779.1666666666666</ele><time>2026-03-29T15:27:08Z</time></trkpt><trkpt lat="45.62337344108627" lon="2.389841996948917"><ele>780.0</ele><time>2026-03-29T15:27:11.999Z</time></trkpt><trkpt lat="45.62333994250252" lon="2.3897456711321987"><ele>780.1428571428571</ele><time>2026-03-29T15:27:15.999Z</time></trkpt><trkpt lat="45.62330668343241" lon="2.3896445040959753"><ele>780.2857142857142</ele><time>2026-03-29T15:27:19.999Z</time></trkpt><trkpt lat="45.62328206041865" lon="2.3895454881010516"><ele>780.4285714285714</ele><time>2026-03-29T15:27:23.999Z</time></trkpt><trkpt lat="45.623253069442974" lon="2.389450103388702"><ele>780.5714285714286</ele><time>2026-03-29T15:27:27.999Z</time></trkpt><trkpt lat="45.623221879748606" lon="2.389353103133746"><ele>780.7142857142858</ele><time>2026-03-29T15:27:31.999Z</time></trkpt><trkpt lat="45.6231909852301" lon="2.3892649751433246"><ele>780.8571428571429</ele><time>2026-03-29T15:27:36.999Z</time></trkpt><trkpt lat="45.623168275416354" lon="2.3891720511553993"><ele>781.0</ele><time>2026-03-29T15:28:00Z</time></trkpt><trkpt lat="45.62314030993395" lon="2.3890817494427257"><ele>781.0</ele><time>2026-03-29T15:28:08Z</time></trkpt><trkpt lat="45.623116185380695" lon="2.388993806876224"><ele>781.0</ele><time>2026-03-29T15:28:15Z</time></trkpt><trkpt lat="45.6230900547594" lon="2.3889037990536086"><ele>781.0</ele><time>2026-03-29T15:28:23Z</time></trkpt><trkpt lat="45.62306918310403" lon="2.3888154163766995"><ele>781.0</ele><time>2026-03-29T15:28:30Z</time></trkpt><trkpt lat="45.623056760716196" lon="2.388722463481063"><ele>781.0</ele><time>2026-03-29T15:28:37Z</time></trkpt><trkpt lat="45.623042075414666" lon="2.388628005559748"><ele>781.0</ele><time>2026-03-29T15:28:45Z</time></trkpt><trkpt lat="45.623044123019014" lon="2.3885299895026253"><ele>781.0</ele><time>2026-03-29T15:28:52Z</time></trkpt><trkpt lat="45.62304982683015" lon="2.388431141213946"><ele>782.0</ele><time>2026-03-29T15:28:59Z</time></trkpt><trkpt lat="45.62306562158529" lon="2.3883398249217374"><ele>783.0</ele><time>2026-03-29T15:29:08Z</time></trkpt><trkpt lat="45.62308594282854" lon="2.388248225958117"><ele>784.0</ele><time>2026-03-29T15:29:14.999Z</time></trkpt><trkpt lat="45.62310977936839" lon="2.3881618324837586"><ele>785.0</ele><time>2026-03-29T15:29:21.999Z</time></trkpt><trkpt lat="45.623135799923475" lon="2.3880720359245657"><ele>786.0</ele><time>2026-03-29T15:29:28.999Z</time></trkpt><trkpt lat="45.62315889775966" lon="2.3879858266225815"><ele>787.0</ele><time>2026-03-29T15:29:35.999Z</time></trkpt><trkpt lat="45.62318214055962" lon="2.3878946311577858"><ele>788.0</ele><time>2026-03-29T15:29:42.999Z</time></trkpt><trkpt lat="45.62320455480676" lon="2.387807755729598"><ele>790.4285714285714</ele><time>2026-03-29T15:29:49.999Z</time></trkpt><trkpt lat="45.62323278586988" lon="2.3877203073307203"><ele>792.8571428571429</ele><time>2026-03-29T15:30:07Z</time></trkpt><trkpt lat="45.62325609721255" lon="2.3876321626096053"><ele>795.2857142857142</ele><time>2026-03-29T15:30:15Z</time></trkpt><trkpt lat="45.62328228564973" lon="2.3875458472746276"><ele>797.7142857142858</ele><time>2026-03-29T15:30:26Z</time></trkpt><trkpt lat="45.62330470893756" lon="2.387454086725753"><ele>800.1428571428571</ele><time>2026-03-29T15:30:33Z</time></trkpt><trkpt lat="45.62333221740533" lon="2.387363157244469"><ele>802.5714285714286</ele><time>2026-03-29T15:30:40Z</time></trkpt><trkpt lat="45.62334600014586" lon="2.3872692321263873"><ele>805.0</ele><time>2026-03-29T15:30:48Z</time></trkpt><trkpt lat="45.62336048809568" lon="2.3871809211369697"><ele>806.4285714285714</ele><time>2026-03-29T15:30:54Z</time></trkpt><trkpt lat="45.623380713317026" lon="2.3870889839277765"><ele>807.8571428571429</ele><time>2026-03-29T15:31:00Z</time></trkpt><trkpt lat="45.62341028968781" lon="2.386999747498482"><ele>809.2857142857142</ele><time>2026-03-29T15:31:07Z</time></trkpt><trkpt lat="45.62343338066728" lon="2.3869085965114705"><ele>810.7142857142858</ele><time>2026-03-29T15:31:15Z</time></trkpt><trkpt lat="45.62345847046981" lon="2.3868190267326357"><ele>812.1428571428571</ele><time>2026-03-29T15:31:23.999Z</time></trkpt><trkpt lat="45.62350494226269" lon="2.3867576148814353"><ele>813.5714285714286</ele><time>2026-03-29T15:31:36.999Z</time></trkpt><trkpt lat="45.623522824522695" lon="2.386661252821007"><ele>815.0</ele><time>2026-03-29T15:31:50.999Z</time></trkpt><trkpt lat="45.623525475235354" lon="2.3865690968040214"><ele>815.0</ele><time>2026-03-29T15:31:57.999Z</time></trkpt><trkpt lat="45.62351659681801" lon="2.386470524993794"><ele>815.0</ele><time>2026-03-29T15:32:05.999Z</time></trkpt><trkpt lat="45.62348935943672" lon="2.3863881892815337"><ele>815.0</ele><time>2026-03-29T15:32:14Z</time></trkpt><trkpt lat="45.623443765072224" lon="2.386310959889576"><ele>815.0</ele><time>2026-03-29T15:32:23Z</time></trkpt><trkpt lat="45.62338850963069" lon="2.386258200496061"><ele>815.0</ele><time>2026-03-29T15:32:33Z</time></trkpt><trkpt lat="45.62333059894279" lon="2.3862184763847343"><ele>815.0</ele><time>2026-03-29T15:32:42Z</time></trkpt><trkpt lat="45.623275320497186" lon="2.386174216159568"><ele>815.0</ele><time>2026-03-29T15:33:18Z</time></trkpt><trkpt lat="45.6232103950562" lon="2.3861404589684003"><ele>814.2857142857142</ele><time>2026-03-29T15:33:27.999Z</time></trkpt><trkpt lat="45.62314762797804" lon="2.386096552724925"><ele>813.5714285714286</ele><time>2026-03-29T15:33:35.999Z</time></trkpt><trkpt lat="45.62308629203151" lon="2.3860586128698498"><ele>812.8571428571429</ele><time>2026-03-29T15:33:43.999Z</time></trkpt><trkpt lat="45.623029201607835" lon="2.386006447756712"><ele>812.1428571428571</ele><time>2026-03-29T15:33:51.999Z</time></trkpt><trkpt lat="45.62297816443218" lon="2.3859507418518806"><ele>811.4285714285714</ele><time>2026-03-29T15:33:59.999Z</time></trkpt><trkpt lat="45.62293293884882" lon="2.3858816972548436"><ele>810.7142857142857</ele><time>2026-03-29T15:34:07.999Z</time></trkpt><trkpt lat="45.622897732659744" lon="2.3857919604503226"><ele>810.0</ele><time>2026-03-29T15:34:15.999Z</time></trkpt><trkpt lat="45.622869704903195" lon="2.3856962946175235"><ele>809.9999999999999</ele><time>2026-03-29T15:34:23Z</time></trkpt><trkpt lat="45.6228552663032" lon="2.3856038336028793"><ele>810.0</ele><time>2026-03-29T15:34:30Z</time></trkpt><trkpt lat="45.622829038514524" lon="2.3855126229543857"><ele>810.0</ele><time>2026-03-29T15:34:43Z</time></trkpt><trkpt lat="45.62281779054249" lon="2.385422066012906"><ele>810.0</ele><time>2026-03-29T15:34:59Z</time></trkpt><trkpt lat="45.62282023914166" lon="2.3853278836191834"><ele>810.0</ele><time>2026-03-29T15:35:05Z</time></trkpt><trkpt lat="45.62283995071072" lon="2.385217363447571"><ele>809.9999999999999</ele><time>2026-03-29T15:35:10Z</time></trkpt><trkpt lat="45.62286630636588" lon="2.385134364988041"><ele>810.0</ele><time>2026-03-29T15:35:19Z</time></trkpt><trkpt lat="45.6228911247016" lon="2.3850494318302475"><ele>810.6666666666666</ele><time>2026-03-29T15:35:26Z</time></trkpt><trkpt lat="45.62291560938288" lon="2.3849629337554004"><ele>811.3333333333333</ele><time>2026-03-29T15:35:35.999Z</time></trkpt><trkpt lat="45.622942084793536" lon="2.384875474258836"><ele>812.0</ele><time>2026-03-29T15:35:41.999Z</time></trkpt><trkpt lat="45.62298672399613" lon="2.384734696927996"><ele>812.6666666666666</ele><time>2026-03-29T15:36:29Z</time></trkpt><trkpt lat="45.62294556709341" lon="2.3846642847118447"><ele>813.3333333333333</ele><time>2026-03-29T15:38:15.999Z</time></trkpt><trkpt lat="45.62286464477877" lon="2.3846433544629195"><ele>814.0</ele><time>2026-03-29T15:38:19.999Z</time></trkpt><trkpt lat="45.6227945630436" lon="2.3846332728613797"><ele>816.8571428571429</ele><time>2026-03-29T15:38:23.999Z</time></trkpt><trkpt lat="45.622725182369074" lon="2.3846720594175137"><ele>819.7142857142858</ele><time>2026-03-29T15:38:27.999Z</time></trkpt><trkpt lat="45.62267056180644" lon="2.3847455342654515"><ele>822.5714285714287</ele><time>2026-03-29T15:38:32Z</time></trkpt><trkpt lat="45.62262154713243" lon="2.384815474309963"><ele>825.4285714285714</ele><time>2026-03-29T15:38:36Z</time></trkpt><trkpt lat="45.6225709623292" lon="2.3848910835167523"><ele>828.2857142857142</ele><time>2026-03-29T15:38:41Z</time></trkpt><trkpt lat="45.62251771441592" lon="2.384971745699918"><ele>831.1428571428572</ele><time>2026-03-29T15:38:46Z</time></trkpt><trkpt lat="45.62247328188814" lon="2.3850391570380376"><ele>834.0</ele><time>2026-03-29T15:38:50Z</time></trkpt><trkpt lat="45.62242915947046" lon="2.3851101617897505"><ele>834.0</ele><time>2026-03-29T15:38:54Z</time></trkpt><trkpt lat="45.622380920571814" lon="2.3851699265240818"><ele>834.0</ele><time>2026-03-29T15:38:58Z</time></trkpt><trkpt lat="45.622327564042436" lon="2.38522979536406"><ele>834.0</ele><time>2026-03-29T15:39:02Z</time></trkpt><trkpt lat="45.62226891638164" lon="2.3852837073237017"><ele>834.0</ele><time>2026-03-29T15:39:07Z</time></trkpt><trkpt lat="45.62219949796566" lon="2.385318374519207"><ele>834.0</ele><time>2026-03-29T15:39:12Z</time></trkpt><trkpt lat="45.62213484223137" lon="2.3853520417670167"><ele>834.0</ele><time>2026-03-29T15:39:17Z</time></trkpt><trkpt lat="45.62207012685827" lon="2.3853554706435363"><ele>834.0</ele><time>2026-03-29T15:39:22Z</time></trkpt><trkpt lat="45.622008100788754" lon="2.385339952925477"><ele>834.4285714285714</ele><time>2026-03-29T15:39:27Z</time></trkpt><trkpt lat="45.62194355874064" lon="2.385324699123028"><ele>834.8571428571428</ele><time>2026-03-29T15:39:40Z</time></trkpt><trkpt lat="45.621882053430355" lon="2.3852872543060553"><ele>835.2857142857142</ele><time>2026-03-29T15:39:48.999Z</time></trkpt><trkpt lat="45.62181526989737" lon="2.3852527745499748"><ele>835.7142857142858</ele><time>2026-03-29T15:39:58.999Z</time></trkpt><trkpt lat="45.62175665835069" lon="2.3852174674808317"><ele>836.1428571428571</ele><time>2026-03-29T15:40:07.999Z</time></trkpt><trkpt lat="45.62169582400222" lon="2.385183804141483"><ele>836.5714285714286</ele><time>2026-03-29T15:40:15.999Z</time></trkpt><trkpt lat="45.621638329249905" lon="2.385132318640605"><ele>837.0</ele><time>2026-03-29T15:40:22.999Z</time></trkpt><trkpt lat="45.62158661070984" lon="2.385074912793582"><ele>837.0</ele><time>2026-03-29T15:40:29.999Z</time></trkpt><trkpt lat="45.62152641819069" lon="2.3850201041796355"><ele>837.0</ele><time>2026-03-29T15:40:40Z</time></trkpt><trkpt lat="45.62146857822066" lon="2.384974313877902"><ele>837.0</ele><time>2026-03-29T15:40:48Z</time></trkpt><trkpt lat="45.62140948543142" lon="2.384915095071751"><ele>837.0</ele><time>2026-03-29T15:40:56Z</time></trkpt><trkpt lat="45.621351047332396" lon="2.3848690015305185"><ele>837.0</ele><time>2026-03-29T15:41:06Z</time></trkpt><trkpt lat="45.62129260032205" lon="2.3848271944787434"><ele>837.0</ele><time>2026-03-29T15:41:13Z</time></trkpt><trkpt lat="45.62123134135977" lon="2.3847842989272277"><ele>837.0</ele><time>2026-03-29T15:41:21Z</time></trkpt><trkpt lat="45.62117194175042" lon="2.3847391180705895"><ele>836.5714285714286</ele><time>2026-03-29T15:41:28Z</time></trkpt><trkpt lat="45.621107795286825" lon="2.3847063344335333"><ele>836.1428571428571</ele><time>2026-03-29T15:41:37Z</time></trkpt><trkpt lat="45.62104145321292" lon="2.3846870635807207"><ele>835.7142857142858</ele><time>2026-03-29T15:41:45.999Z</time></trkpt><trkpt lat="45.620982915337606" lon="2.384644380895942"><ele>835.2857142857142</ele><time>2026-03-29T15:41:53.999Z</time></trkpt><trkpt lat="45.62091231158979" lon="2.3846384786805386"><ele>834.8571428571428</ele><time>2026-03-29T15:42:02.999Z</time></trkpt><trkpt lat="45.62085714177651" lon="2.384595030726545"><ele>834.4285714285714</ele><time>2026-03-29T15:42:09.999Z</time></trkpt><trkpt lat="45.62079371963416" lon="2.3845679713974377"><ele>834.0</ele><time>2026-03-29T15:42:16.999Z</time></trkpt><trkpt lat="45.62072631153665" lon="2.384554099216764"><ele>835.8571428571429</ele><time>2026-03-29T15:42:23.999Z</time></trkpt><trkpt lat="45.620667460912685" lon="2.3845189473839943"><ele>837.7142857142857</ele><time>2026-03-29T15:42:29.999Z</time></trkpt><trkpt lat="45.62060592900659" lon="2.3844994280664173"><ele>839.5714285714286</ele><time>2026-03-29T15:42:36.999Z</time></trkpt><trkpt lat="45.62054152833303" lon="2.384486128550585"><ele>841.4285714285714</ele><time>2026-03-29T15:42:43Z</time></trkpt><trkpt lat="45.62047057998645" lon="2.3844844492952237"><ele>843.2857142857142</ele><time>2026-03-29T15:42:49Z</time></trkpt><trkpt lat="45.620402724660664" lon="2.384501076084946"><ele>845.1428571428571</ele><time>2026-03-29T15:42:57Z</time></trkpt><trkpt lat="45.62033158021262" lon="2.384492611107628"><ele>847.0</ele><time>2026-03-29T15:43:07Z</time></trkpt><trkpt lat="45.62026124588008" lon="2.3845043985248435"><ele>848.2857142857143</ele><time>2026-03-29T15:43:15Z</time></trkpt><trkpt lat="45.62019559460684" lon="2.3845153842718423"><ele>849.5714285714286</ele><time>2026-03-29T15:43:24Z</time></trkpt><trkpt lat="45.620133364324" lon="2.3845382454931956"><ele>850.8571428571429</ele><time>2026-03-29T15:43:34Z</time></trkpt><trkpt lat="45.62006582472787" lon="2.3845557644031983"><ele>852.1428571428571</ele><time>2026-03-29T15:43:42Z</time></trkpt><trkpt lat="45.62000383845584" lon="2.384576953216804"><ele>853.4285714285714</ele><time>2026-03-29T15:43:56.999Z</time></trkpt><trkpt lat="45.6199375815779" lon="2.384601411769463"><ele>854.7142857142858</ele><time>2026-03-29T15:44:04.999Z</time></trkpt><trkpt lat="45.619876312113604" lon="2.3846463824485653"><ele>856.0</ele><time>2026-03-29T15:44:13.999Z</time></trkpt><trkpt lat="45.61981449921291" lon="2.3846783605871678"><ele>856.1428571428572</ele><time>2026-03-29T15:44:19.999Z</time></trkpt><trkpt lat="45.61975153791661" lon="2.384730747824709"><ele>856.2857142857143</ele><time>2026-03-29T15:44:26.999Z</time></trkpt><trkpt lat="45.619690454905474" lon="2.3847816653686578"><ele>856.4285714285714</ele><time>2026-03-29T15:44:33.999Z</time></trkpt><trkpt lat="45.619633978194614" lon="2.384836434105216"><ele>856.5714285714287</ele><time>2026-03-29T15:44:41.999Z</time></trkpt><trkpt lat="45.61959564382755" lon="2.3849182721276425"><ele>856.7142857142857</ele><time>2026-03-29T15:44:52Z</time></trkpt><trkpt lat="45.61955370848359" lon="2.384993527348184"><ele>856.8571428571429</ele><time>2026-03-29T15:45:00Z</time></trkpt><trkpt lat="45.61949057469875" lon="2.385041789405721"><ele>857.0</ele><time>2026-03-29T15:45:06Z</time></trkpt><trkpt lat="45.61943422947888" lon="2.3851005716540103"><ele>857.0</ele><time>2026-03-29T15:45:13Z</time></trkpt><trkpt lat="45.619376658515925" lon="2.385149534752068"><ele>857.0</ele><time>2026-03-29T15:45:19Z</time></trkpt><trkpt lat="45.61931410091276" lon="2.3851821749578668"><ele>857.0</ele><time>2026-03-29T15:45:26Z</time></trkpt><trkpt lat="45.619255873539714" lon="2.385221311831213"><ele>857.0</ele><time>2026-03-29T15:45:32Z</time></trkpt><trkpt lat="45.61919120974526" lon="2.3852448226152068"><ele>857.0</ele><time>2026-03-29T15:45:39Z</time></trkpt><trkpt lat="45.61912613529813" lon="2.3852609549885826"><ele>857.0</ele><time>2026-03-29T15:45:46Z</time></trkpt><trkpt lat="45.61905839506536" lon="2.38527140600941"><ele>857.0</ele><time>2026-03-29T15:45:53.999Z</time></trkpt><trkpt lat="45.61898810451079" lon="2.3852819416434925"><ele>857.0</ele><time>2026-03-29T15:46:04.999Z</time></trkpt><trkpt lat="45.61891610927598" lon="2.385287622642092"><ele>857.0</ele><time>2026-03-29T15:46:15.999Z</time></trkpt><trkpt lat="45.618839533146385" lon="2.385289778818754"><ele>857.0</ele><time>2026-03-29T15:46:19.999Z</time></trkpt><trkpt lat="45.6187574793605" lon="2.3852838289197282"><ele>857.0</ele><time>2026-03-29T15:46:23.999Z</time></trkpt><trkpt lat="45.61868822287158" lon="2.385279220851486"><ele>857.0</ele><time>2026-03-29T15:46:27.999Z</time></trkpt><trkpt lat="45.61862223447969" lon="2.3852790958598993"><ele>857.0</ele><time>2026-03-29T15:46:31.999Z</time></trkpt><trkpt lat="45.61855657853483" lon="2.385274055330084"><ele>857.0</ele><time>2026-03-29T15:46:34.999Z</time></trkpt><trkpt lat="45.618491066091515" lon="2.3852625180520373"><ele>856.5714285714286</ele><time>2026-03-29T15:46:38.999Z</time></trkpt><trkpt lat="45.61842481550832" lon="2.385253308071668"><ele>856.1428571428571</ele><time>2026-03-29T15:46:42.999Z</time></trkpt><trkpt lat="45.61836124739299" lon="2.385231095182592"><ele>855.7142857142858</ele><time>2026-03-29T15:46:46.999Z</time></trkpt><trkpt lat="45.61829871623716" lon="2.3851940182338525"><ele>855.2857142857142</ele><time>2026-03-29T15:46:50.999Z</time></trkpt><trkpt lat="45.618235861840965" lon="2.3851569271683037"><ele>854.8571428571429</ele><time>2026-03-29T15:46:55Z</time></trkpt><trkpt lat="45.61817540942937" lon="2.3851135810890827"><ele>854.4285714285714</ele><time>2026-03-29T15:46:59Z</time></trkpt><trkpt lat="45.6181091504968" lon="2.3850635461838494"><ele>854.0</ele><time>2026-03-29T15:47:03Z</time></trkpt><trkpt lat="45.61805807252412" lon="2.385005840003803"><ele>854.0</ele><time>2026-03-29T15:47:07Z</time></trkpt><trkpt lat="45.618000699441524" lon="2.384938944556623"><ele>854.0</ele><time>2026-03-29T15:47:12Z</time></trkpt><trkpt lat="45.61794618424398" lon="2.384880478912561"><ele>854.0</ele><time>2026-03-29T15:47:16Z</time></trkpt><trkpt lat="45.617891915174894" lon="2.3848194491623937"><ele>854.0</ele><time>2026-03-29T15:47:20Z</time></trkpt><trkpt lat="45.61783507967853" lon="2.3847621192187938"><ele>854.0</ele><time>2026-03-29T15:47:24Z</time></trkpt><trkpt lat="45.61778290498178" lon="2.3846993513922015"><ele>854.0</ele><time>2026-03-29T15:47:28Z</time></trkpt><trkpt lat="45.617718920120794" lon="2.3846299357249654"><ele>854.0</ele><time>2026-03-29T15:47:32Z</time></trkpt><trkpt lat="45.61765355062003" lon="2.3845673731863126"><ele>854.8333333333334</ele><time>2026-03-29T15:47:36Z</time></trkpt><trkpt lat="45.617601110699276" lon="2.3844983110998283"><ele>855.6666666666667</ele><time>2026-03-29T15:47:40Z</time></trkpt><trkpt lat="45.61753188212641" lon="2.384432454982112"><ele>856.5</ele><time>2026-03-29T15:47:44Z</time></trkpt><trkpt lat="45.61747935248441" lon="2.384377153822087"><ele>857.3333333333333</ele><time>2026-03-29T15:47:47Z</time></trkpt><trkpt lat="45.61741652755724" lon="2.384308803846416"><ele>858.1666666666666</ele><time>2026-03-29T15:47:51Z</time></trkpt><trkpt lat="45.617345311112686" lon="2.3842905300714627"><ele>859.0</ele><time>2026-03-29T15:47:55Z</time></trkpt><trkpt lat="45.61726361764775" lon="2.384303484008551"><ele>858.9999999999999</ele><time>2026-03-29T15:47:59Z</time></trkpt><trkpt lat="45.617183271755266" lon="2.3843361338451583"><ele>859.0</ele><time>2026-03-29T15:48:03Z</time></trkpt><trkpt lat="45.61711759055194" lon="2.3843682057985003"><ele>859.0</ele><time>2026-03-29T15:48:06Z</time></trkpt><trkpt lat="45.617045251113296" lon="2.384397698467649"><ele>859.0</ele><time>2026-03-29T15:48:08.999Z</time></trkpt><trkpt lat="45.61697720835279" lon="2.3844337623137495"><ele>858.9999999999999</ele><time>2026-03-29T15:48:11.999Z</time></trkpt><trkpt lat="45.61689826363611" lon="2.384472147084891"><ele>859.0</ele><time>2026-03-29T15:48:15.999Z</time></trkpt><trkpt lat="45.61682358269625" lon="2.3844875822392617"><ele>855.0</ele><time>2026-03-29T15:48:19.999Z</time></trkpt><trkpt lat="45.61677377356691" lon="2.3844000971472723"><ele>855.0</ele><time>2026-03-29T15:48:24.999Z</time></trkpt></trkseg></trk></gpx>